<?xml version="1.0" encoding="UTF-8" standalone="no" ?>
<gpx xmlns="http://www.topografix.com/GPX/1/1" xmlns:xsi="http://www.w3.org/2001/XMLSchema-instance" xsi:schemaLocation="http://www.topografix.com/GPX/1/1 http://www.topografix.com/GPX/1/1/gpx.xsd" version="1.1" creator="VisuGPX - https://www.visugpx.com">
  <metadata>
    <name>Langazel</name>
  </metadata>
  <trk>
    <name><![CDATA[ONmove 200 - 09/10/2018]]></name>
    <extensions>
      <line xmlns="http://www.topografix.com/GPX/gpx_style/0/2">
        <color>0000FF</color>
        <width>4</width>
      </line>
    </extensions>
    <trkseg>
      <trkpt lat="48.50351" lon="-4.2557">
        <ele>94</ele>
        <time>2018-10-09T14:36:05Z</time>
      </trkpt>
      <trkpt lat="48.50348" lon="-4.25577">
        <ele>94</ele>
        <time>2018-10-09T14:36:10Z</time>
      </trkpt>
      <trkpt lat="48.50344" lon="-4.25584">
        <ele>94</ele>
        <time>2018-10-09T14:36:15Z</time>
      </trkpt>
      <trkpt lat="48.50342" lon="-4.25589">
        <ele>94</ele>
        <time>2018-10-09T14:36:20Z</time>
      </trkpt>
      <trkpt lat="48.50339" lon="-4.25594">
        <ele>95</ele>
        <time>2018-10-09T14:36:25Z</time>
      </trkpt>
      <trkpt lat="48.50337" lon="-4.25597">
        <ele>95</ele>
        <time>2018-10-09T14:36:30Z</time>
      </trkpt>
      <trkpt lat="48.50334" lon="-4.25603">
        <ele>95</ele>
        <time>2018-10-09T14:36:35Z</time>
      </trkpt>
      <trkpt lat="48.5033" lon="-4.25609">
        <ele>95</ele>
        <time>2018-10-09T14:36:40Z</time>
      </trkpt>
      <trkpt lat="48.50328" lon="-4.25614">
        <ele>95</ele>
        <time>2018-10-09T14:36:45Z</time>
      </trkpt>
      <trkpt lat="48.50326" lon="-4.25619">
        <ele>95</ele>
        <time>2018-10-09T14:36:50Z</time>
      </trkpt>
      <trkpt lat="48.50324" lon="-4.25624">
        <ele>95</ele>
        <time>2018-10-09T14:36:55Z</time>
      </trkpt>
      <trkpt lat="48.5032" lon="-4.25631">
        <ele>95</ele>
        <time>2018-10-09T14:37:00Z</time>
      </trkpt>
      <trkpt lat="48.50316" lon="-4.25639">
        <ele>96</ele>
        <time>2018-10-09T14:37:05Z</time>
      </trkpt>
      <trkpt lat="48.50313" lon="-4.25645">
        <ele>96</ele>
        <time>2018-10-09T14:37:10Z</time>
      </trkpt>
      <trkpt lat="48.50309" lon="-4.25652">
        <ele>96</ele>
        <time>2018-10-09T14:37:15Z</time>
      </trkpt>
      <trkpt lat="48.50305" lon="-4.25659">
        <ele>96</ele>
        <time>2018-10-09T14:37:20Z</time>
      </trkpt>
      <trkpt lat="48.50301" lon="-4.25667">
        <ele>96</ele>
        <time>2018-10-09T14:37:25Z</time>
      </trkpt>
      <trkpt lat="48.50297" lon="-4.25674">
        <ele>96</ele>
        <time>2018-10-09T14:37:30Z</time>
      </trkpt>
      <trkpt lat="48.50294" lon="-4.2568">
        <ele>96</ele>
        <time>2018-10-09T14:37:35Z</time>
      </trkpt>
      <trkpt lat="48.50291" lon="-4.25687">
        <ele>96</ele>
        <time>2018-10-09T14:37:40Z</time>
      </trkpt>
      <trkpt lat="48.50289" lon="-4.25697">
        <ele>97</ele>
        <time>2018-10-09T14:37:45Z</time>
      </trkpt>
      <trkpt lat="48.50293" lon="-4.25704">
        <ele>96</ele>
        <time>2018-10-09T14:37:50Z</time>
      </trkpt>
      <trkpt lat="48.50296" lon="-4.25709">
        <ele>96</ele>
        <time>2018-10-09T14:37:55Z</time>
      </trkpt>
      <trkpt lat="48.50298" lon="-4.25714">
        <ele>96</ele>
        <time>2018-10-09T14:38:00Z</time>
      </trkpt>
      <trkpt lat="48.50295" lon="-4.25724">
        <ele>96</ele>
        <time>2018-10-09T14:38:05Z</time>
      </trkpt>
      <trkpt lat="48.50292" lon="-4.25732">
        <ele>97</ele>
        <time>2018-10-09T14:38:10Z</time>
      </trkpt>
      <trkpt lat="48.50288" lon="-4.25738">
        <ele>97</ele>
        <time>2018-10-09T14:38:15Z</time>
      </trkpt>
      <trkpt lat="48.50284" lon="-4.25745">
        <ele>97</ele>
        <time>2018-10-09T14:38:20Z</time>
      </trkpt>
      <trkpt lat="48.50281" lon="-4.2575">
        <ele>97</ele>
        <time>2018-10-09T14:38:25Z</time>
      </trkpt>
      <trkpt lat="48.50277" lon="-4.25758">
        <ele>97</ele>
        <time>2018-10-09T14:38:30Z</time>
      </trkpt>
      <trkpt lat="48.50274" lon="-4.25762">
        <ele>97</ele>
        <time>2018-10-09T14:38:35Z</time>
      </trkpt>
      <trkpt lat="48.50272" lon="-4.25761">
        <ele>97</ele>
        <time>2018-10-09T14:38:40Z</time>
      </trkpt>
      <trkpt lat="48.50272" lon="-4.25759">
        <ele>97</ele>
        <time>2018-10-09T14:38:45Z</time>
      </trkpt>
      <trkpt lat="48.50268" lon="-4.25759">
        <ele>97</ele>
        <time>2018-10-09T14:38:50Z</time>
      </trkpt>
      <trkpt lat="48.50263" lon="-4.25758">
        <ele>97</ele>
        <time>2018-10-09T14:38:55Z</time>
      </trkpt>
      <trkpt lat="48.50258" lon="-4.25757">
        <ele>98</ele>
        <time>2018-10-09T14:39:00Z</time>
      </trkpt>
      <trkpt lat="48.50254" lon="-4.25757">
        <ele>98</ele>
        <time>2018-10-09T14:39:05Z</time>
      </trkpt>
      <trkpt lat="48.50247" lon="-4.25756">
        <ele>98</ele>
        <time>2018-10-09T14:39:10Z</time>
      </trkpt>
      <trkpt lat="48.50241" lon="-4.25756">
        <ele>98</ele>
        <time>2018-10-09T14:39:15Z</time>
      </trkpt>
      <trkpt lat="48.50235" lon="-4.25755">
        <ele>97</ele>
        <time>2018-10-09T14:39:20Z</time>
      </trkpt>
      <trkpt lat="48.50229" lon="-4.25754">
        <ele>97</ele>
        <time>2018-10-09T14:39:25Z</time>
      </trkpt>
      <trkpt lat="48.50223" lon="-4.25754">
        <ele>97</ele>
        <time>2018-10-09T14:39:30Z</time>
      </trkpt>
      <trkpt lat="48.50217" lon="-4.25752">
        <ele>97</ele>
        <time>2018-10-09T14:39:35Z</time>
      </trkpt>
      <trkpt lat="48.50211" lon="-4.25749">
        <ele>97</ele>
        <time>2018-10-09T14:39:40Z</time>
      </trkpt>
      <trkpt lat="48.50205" lon="-4.25746">
        <ele>97</ele>
        <time>2018-10-09T14:39:45Z</time>
      </trkpt>
      <trkpt lat="48.502" lon="-4.25744">
        <ele>97</ele>
        <time>2018-10-09T14:39:50Z</time>
      </trkpt>
      <trkpt lat="48.50195" lon="-4.25741">
        <ele>97</ele>
        <time>2018-10-09T14:39:55Z</time>
      </trkpt>
      <trkpt lat="48.50189" lon="-4.25739">
        <ele>97</ele>
        <time>2018-10-09T14:40:00Z</time>
      </trkpt>
      <trkpt lat="48.50182" lon="-4.25738">
        <ele>97</ele>
        <time>2018-10-09T14:40:05Z</time>
      </trkpt>
      <trkpt lat="48.50177" lon="-4.25737">
        <ele>98</ele>
        <time>2018-10-09T14:40:10Z</time>
      </trkpt>
      <trkpt lat="48.50169" lon="-4.25736">
        <ele>98</ele>
        <time>2018-10-09T14:40:15Z</time>
      </trkpt>
      <trkpt lat="48.50162" lon="-4.25735">
        <ele>98</ele>
        <time>2018-10-09T14:40:20Z</time>
      </trkpt>
      <trkpt lat="48.50157" lon="-4.25734">
        <ele>98</ele>
        <time>2018-10-09T14:40:25Z</time>
      </trkpt>
      <trkpt lat="48.50152" lon="-4.25734">
        <ele>97</ele>
        <time>2018-10-09T14:40:30Z</time>
      </trkpt>
      <trkpt lat="48.50146" lon="-4.25733">
        <ele>97</ele>
        <time>2018-10-09T14:40:35Z</time>
      </trkpt>
      <trkpt lat="48.5014" lon="-4.25733">
        <ele>97</ele>
        <time>2018-10-09T14:40:40Z</time>
      </trkpt>
      <trkpt lat="48.50135" lon="-4.25731">
        <ele>97</ele>
        <time>2018-10-09T14:40:45Z</time>
      </trkpt>
      <trkpt lat="48.5013" lon="-4.2573">
        <ele>97</ele>
        <time>2018-10-09T14:40:50Z</time>
      </trkpt>
      <trkpt lat="48.50124" lon="-4.25727">
        <ele>96</ele>
        <time>2018-10-09T14:40:55Z</time>
      </trkpt>
      <trkpt lat="48.50119" lon="-4.25724">
        <ele>96</ele>
        <time>2018-10-09T14:41:00Z</time>
      </trkpt>
      <trkpt lat="48.50113" lon="-4.25722">
        <ele>96</ele>
        <time>2018-10-09T14:41:05Z</time>
      </trkpt>
      <trkpt lat="48.50107" lon="-4.2572">
        <ele>96</ele>
        <time>2018-10-09T14:41:10Z</time>
      </trkpt>
      <trkpt lat="48.50102" lon="-4.25718">
        <ele>96</ele>
        <time>2018-10-09T14:41:15Z</time>
      </trkpt>
      <trkpt lat="48.50095" lon="-4.25716">
        <ele>96</ele>
        <time>2018-10-09T14:41:20Z</time>
      </trkpt>
      <trkpt lat="48.50089" lon="-4.25714">
        <ele>96</ele>
        <time>2018-10-09T14:41:25Z</time>
      </trkpt>
      <trkpt lat="48.50084" lon="-4.25712">
        <ele>96</ele>
        <time>2018-10-09T14:41:30Z</time>
      </trkpt>
      <trkpt lat="48.50078" lon="-4.2571">
        <ele>96</ele>
        <time>2018-10-09T14:41:35Z</time>
      </trkpt>
      <trkpt lat="48.50073" lon="-4.25708">
        <ele>96</ele>
        <time>2018-10-09T14:41:40Z</time>
      </trkpt>
      <trkpt lat="48.50068" lon="-4.25707">
        <ele>96</ele>
        <time>2018-10-09T14:41:45Z</time>
      </trkpt>
      <trkpt lat="48.50063" lon="-4.25705">
        <ele>96</ele>
        <time>2018-10-09T14:41:50Z</time>
      </trkpt>
      <trkpt lat="48.50057" lon="-4.25703">
        <ele>96</ele>
        <time>2018-10-09T14:41:55Z</time>
      </trkpt>
      <trkpt lat="48.50052" lon="-4.25701">
        <ele>96</ele>
        <time>2018-10-09T14:42:00Z</time>
      </trkpt>
      <trkpt lat="48.50046" lon="-4.25699">
        <ele>96</ele>
        <time>2018-10-09T14:42:05Z</time>
      </trkpt>
      <trkpt lat="48.50042" lon="-4.25696">
        <ele>96</ele>
        <time>2018-10-09T14:42:10Z</time>
      </trkpt>
      <trkpt lat="48.50037" lon="-4.25693">
        <ele>96</ele>
        <time>2018-10-09T14:42:15Z</time>
      </trkpt>
      <trkpt lat="48.50032" lon="-4.2569">
        <ele>96</ele>
        <time>2018-10-09T14:42:20Z</time>
      </trkpt>
      <trkpt lat="48.50026" lon="-4.25688">
        <ele>96</ele>
        <time>2018-10-09T14:42:25Z</time>
      </trkpt>
      <trkpt lat="48.5002" lon="-4.25686">
        <ele>96</ele>
        <time>2018-10-09T14:42:30Z</time>
      </trkpt>
      <trkpt lat="48.50014" lon="-4.25683">
        <ele>96</ele>
        <time>2018-10-09T14:42:35Z</time>
      </trkpt>
      <trkpt lat="48.50008" lon="-4.25682">
        <ele>96</ele>
        <time>2018-10-09T14:42:40Z</time>
      </trkpt>
      <trkpt lat="48.50003" lon="-4.2568">
        <ele>95</ele>
        <time>2018-10-09T14:42:45Z</time>
      </trkpt>
      <trkpt lat="48.49997" lon="-4.25678">
        <ele>96</ele>
        <time>2018-10-09T14:42:50Z</time>
      </trkpt>
      <trkpt lat="48.49992" lon="-4.25676">
        <ele>96</ele>
        <time>2018-10-09T14:42:55Z</time>
      </trkpt>
      <trkpt lat="48.49986" lon="-4.25674">
        <ele>96</ele>
        <time>2018-10-09T14:43:00Z</time>
      </trkpt>
      <trkpt lat="48.49981" lon="-4.25671">
        <ele>96</ele>
        <time>2018-10-09T14:43:05Z</time>
      </trkpt>
      <trkpt lat="48.49977" lon="-4.25669">
        <ele>96</ele>
        <time>2018-10-09T14:43:10Z</time>
      </trkpt>
      <trkpt lat="48.49972" lon="-4.25665">
        <ele>96</ele>
        <time>2018-10-09T14:43:15Z</time>
      </trkpt>
      <trkpt lat="48.49967" lon="-4.25662">
        <ele>96</ele>
        <time>2018-10-09T14:43:20Z</time>
      </trkpt>
      <trkpt lat="48.49962" lon="-4.25659">
        <ele>95</ele>
        <time>2018-10-09T14:43:25Z</time>
      </trkpt>
      <trkpt lat="48.49957" lon="-4.25656">
        <ele>95</ele>
        <time>2018-10-09T14:43:30Z</time>
      </trkpt>
      <trkpt lat="48.49953" lon="-4.25655">
        <ele>95</ele>
        <time>2018-10-09T14:43:35Z</time>
      </trkpt>
      <trkpt lat="48.49948" lon="-4.25652">
        <ele>95</ele>
        <time>2018-10-09T14:43:40Z</time>
      </trkpt>
      <trkpt lat="48.49943" lon="-4.2565">
        <ele>94</ele>
        <time>2018-10-09T14:43:45Z</time>
      </trkpt>
      <trkpt lat="48.49939" lon="-4.25647">
        <ele>94</ele>
        <time>2018-10-09T14:43:50Z</time>
      </trkpt>
      <trkpt lat="48.49934" lon="-4.25645">
        <ele>94</ele>
        <time>2018-10-09T14:43:55Z</time>
      </trkpt>
      <trkpt lat="48.49929" lon="-4.25641">
        <ele>94</ele>
        <time>2018-10-09T14:44:00Z</time>
      </trkpt>
      <trkpt lat="48.49924" lon="-4.25638">
        <ele>94</ele>
        <time>2018-10-09T14:44:05Z</time>
      </trkpt>
      <trkpt lat="48.4992" lon="-4.25636">
        <ele>94</ele>
        <time>2018-10-09T14:44:10Z</time>
      </trkpt>
      <trkpt lat="48.49915" lon="-4.25633">
        <ele>94</ele>
        <time>2018-10-09T14:44:15Z</time>
      </trkpt>
      <trkpt lat="48.4991" lon="-4.25631">
        <ele>94</ele>
        <time>2018-10-09T14:44:20Z</time>
      </trkpt>
      <trkpt lat="48.49905" lon="-4.25626">
        <ele>94</ele>
        <time>2018-10-09T14:44:25Z</time>
      </trkpt>
      <trkpt lat="48.499" lon="-4.25622">
        <ele>95</ele>
        <time>2018-10-09T14:44:30Z</time>
      </trkpt>
      <trkpt lat="48.49894" lon="-4.25619">
        <ele>95</ele>
        <time>2018-10-09T14:44:35Z</time>
      </trkpt>
      <trkpt lat="48.49889" lon="-4.25616">
        <ele>95</ele>
        <time>2018-10-09T14:44:40Z</time>
      </trkpt>
      <trkpt lat="48.49884" lon="-4.25614">
        <ele>95</ele>
        <time>2018-10-09T14:44:45Z</time>
      </trkpt>
      <trkpt lat="48.49879" lon="-4.25609">
        <ele>95</ele>
        <time>2018-10-09T14:44:50Z</time>
      </trkpt>
      <trkpt lat="48.49874" lon="-4.25606">
        <ele>95</ele>
        <time>2018-10-09T14:44:55Z</time>
      </trkpt>
      <trkpt lat="48.49868" lon="-4.25603">
        <ele>95</ele>
        <time>2018-10-09T14:45:00Z</time>
      </trkpt>
      <trkpt lat="48.49863" lon="-4.256">
        <ele>95</ele>
        <time>2018-10-09T14:45:05Z</time>
      </trkpt>
      <trkpt lat="48.49858" lon="-4.25594">
        <ele>94</ele>
        <time>2018-10-09T14:45:10Z</time>
      </trkpt>
      <trkpt lat="48.49852" lon="-4.25591">
        <ele>94</ele>
        <time>2018-10-09T14:45:15Z</time>
      </trkpt>
      <trkpt lat="48.49846" lon="-4.25587">
        <ele>94</ele>
        <time>2018-10-09T14:45:20Z</time>
      </trkpt>
      <trkpt lat="48.4984" lon="-4.25583">
        <ele>94</ele>
        <time>2018-10-09T14:45:25Z</time>
      </trkpt>
      <trkpt lat="48.49833" lon="-4.2558">
        <ele>94</ele>
        <time>2018-10-09T14:45:30Z</time>
      </trkpt>
      <trkpt lat="48.49827" lon="-4.25578">
        <ele>94</ele>
        <time>2018-10-09T14:45:35Z</time>
      </trkpt>
      <trkpt lat="48.49821" lon="-4.25576">
        <ele>94</ele>
        <time>2018-10-09T14:45:40Z</time>
      </trkpt>
      <trkpt lat="48.49816" lon="-4.25574">
        <ele>94</ele>
        <time>2018-10-09T14:45:45Z</time>
      </trkpt>
      <trkpt lat="48.4981" lon="-4.25573">
        <ele>94</ele>
        <time>2018-10-09T14:45:50Z</time>
      </trkpt>
      <trkpt lat="48.49804" lon="-4.25572">
        <ele>95</ele>
        <time>2018-10-09T14:45:55Z</time>
      </trkpt>
      <trkpt lat="48.49798" lon="-4.25573">
        <ele>95</ele>
        <time>2018-10-09T14:46:00Z</time>
      </trkpt>
      <trkpt lat="48.49792" lon="-4.25573">
        <ele>95</ele>
        <time>2018-10-09T14:46:05Z</time>
      </trkpt>
      <trkpt lat="48.49786" lon="-4.25574">
        <ele>95</ele>
        <time>2018-10-09T14:46:10Z</time>
      </trkpt>
      <trkpt lat="48.49779" lon="-4.25574">
        <ele>96</ele>
        <time>2018-10-09T14:46:15Z</time>
      </trkpt>
      <trkpt lat="48.49773" lon="-4.25574">
        <ele>96</ele>
        <time>2018-10-09T14:46:20Z</time>
      </trkpt>
      <trkpt lat="48.49768" lon="-4.25575">
        <ele>96</ele>
        <time>2018-10-09T14:46:25Z</time>
      </trkpt>
      <trkpt lat="48.49762" lon="-4.25577">
        <ele>97</ele>
        <time>2018-10-09T14:46:30Z</time>
      </trkpt>
      <trkpt lat="48.49758" lon="-4.25583">
        <ele>97</ele>
        <time>2018-10-09T14:46:35Z</time>
      </trkpt>
      <trkpt lat="48.49758" lon="-4.25592">
        <ele>97</ele>
        <time>2018-10-09T14:46:40Z</time>
      </trkpt>
      <trkpt lat="48.49758" lon="-4.25598">
        <ele>97</ele>
        <time>2018-10-09T14:46:45Z</time>
      </trkpt>
      <trkpt lat="48.49759" lon="-4.25606">
        <ele>97</ele>
        <time>2018-10-09T14:46:50Z</time>
      </trkpt>
      <trkpt lat="48.49759" lon="-4.25614">
        <ele>97</ele>
        <time>2018-10-09T14:46:55Z</time>
      </trkpt>
      <trkpt lat="48.49759" lon="-4.25615">
        <ele>97</ele>
        <time>2018-10-09T14:47:00Z</time>
      </trkpt>
      <trkpt lat="48.4976" lon="-4.25615">
        <ele>97</ele>
        <time>2018-10-09T14:47:10Z</time>
      </trkpt>
      <trkpt lat="48.49759" lon="-4.25615">
        <ele>97</ele>
        <time>2018-10-09T14:47:20Z</time>
      </trkpt>
      <trkpt lat="48.49759" lon="-4.25609">
        <ele>97</ele>
        <time>2018-10-09T14:47:25Z</time>
      </trkpt>
      <trkpt lat="48.49759" lon="-4.25599">
        <ele>97</ele>
        <time>2018-10-09T14:47:30Z</time>
      </trkpt>
      <trkpt lat="48.49758" lon="-4.25592">
        <ele>97</ele>
        <time>2018-10-09T14:47:35Z</time>
      </trkpt>
      <trkpt lat="48.49758" lon="-4.25594">
        <ele>97</ele>
        <time>2018-10-09T14:47:40Z</time>
      </trkpt>
      <trkpt lat="48.49758" lon="-4.25593">
        <ele>97</ele>
        <time>2018-10-09T14:47:50Z</time>
      </trkpt>
      <trkpt lat="48.49758" lon="-4.25596">
        <ele>97</ele>
        <time>2018-10-09T14:47:55Z</time>
      </trkpt>
      <trkpt lat="48.49759" lon="-4.25602">
        <ele>97</ele>
        <time>2018-10-09T14:48:00Z</time>
      </trkpt>
      <trkpt lat="48.49759" lon="-4.2561">
        <ele>97</ele>
        <time>2018-10-09T14:48:05Z</time>
      </trkpt>
      <trkpt lat="48.49761" lon="-4.25617">
        <ele>97</ele>
        <time>2018-10-09T14:48:10Z</time>
      </trkpt>
      <trkpt lat="48.49762" lon="-4.25624">
        <ele>97</ele>
        <time>2018-10-09T14:48:15Z</time>
      </trkpt>
      <trkpt lat="48.49764" lon="-4.2563">
        <ele>97</ele>
        <time>2018-10-09T14:48:20Z</time>
      </trkpt>
      <trkpt lat="48.49765" lon="-4.25638">
        <ele>97</ele>
        <time>2018-10-09T14:48:25Z</time>
      </trkpt>
      <trkpt lat="48.49768" lon="-4.25644">
        <ele>97</ele>
        <time>2018-10-09T14:48:30Z</time>
      </trkpt>
      <trkpt lat="48.4977" lon="-4.25651">
        <ele>97</ele>
        <time>2018-10-09T14:48:35Z</time>
      </trkpt>
      <trkpt lat="48.49773" lon="-4.25658">
        <ele>96</ele>
        <time>2018-10-09T14:48:40Z</time>
      </trkpt>
      <trkpt lat="48.49774" lon="-4.25666">
        <ele>96</ele>
        <time>2018-10-09T14:48:45Z</time>
      </trkpt>
      <trkpt lat="48.49775" lon="-4.25675">
        <ele>96</ele>
        <time>2018-10-09T14:48:50Z</time>
      </trkpt>
      <trkpt lat="48.49777" lon="-4.25683">
        <ele>97</ele>
        <time>2018-10-09T14:48:55Z</time>
      </trkpt>
      <trkpt lat="48.4978" lon="-4.2569">
        <ele>97</ele>
        <time>2018-10-09T14:49:00Z</time>
      </trkpt>
      <trkpt lat="48.49782" lon="-4.25697">
        <ele>97</ele>
        <time>2018-10-09T14:49:05Z</time>
      </trkpt>
      <trkpt lat="48.49784" lon="-4.25704">
        <ele>97</ele>
        <time>2018-10-09T14:49:10Z</time>
      </trkpt>
      <trkpt lat="48.49787" lon="-4.25712">
        <ele>97</ele>
        <time>2018-10-09T14:49:15Z</time>
      </trkpt>
      <trkpt lat="48.49788" lon="-4.25719">
        <ele>97</ele>
        <time>2018-10-09T14:49:20Z</time>
      </trkpt>
      <trkpt lat="48.49791" lon="-4.25725">
        <ele>97</ele>
        <time>2018-10-09T14:49:25Z</time>
      </trkpt>
      <trkpt lat="48.49793" lon="-4.25733">
        <ele>97</ele>
        <time>2018-10-09T14:49:30Z</time>
      </trkpt>
      <trkpt lat="48.49794" lon="-4.25739">
        <ele>97</ele>
        <time>2018-10-09T14:49:35Z</time>
      </trkpt>
      <trkpt lat="48.49797" lon="-4.25746">
        <ele>97</ele>
        <time>2018-10-09T14:49:40Z</time>
      </trkpt>
      <trkpt lat="48.49798" lon="-4.25754">
        <ele>97</ele>
        <time>2018-10-09T14:49:45Z</time>
      </trkpt>
      <trkpt lat="48.498" lon="-4.25762">
        <ele>97</ele>
        <time>2018-10-09T14:49:50Z</time>
      </trkpt>
      <trkpt lat="48.49801" lon="-4.25769">
        <ele>97</ele>
        <time>2018-10-09T14:49:55Z</time>
      </trkpt>
      <trkpt lat="48.49803" lon="-4.25776">
        <ele>97</ele>
        <time>2018-10-09T14:50:00Z</time>
      </trkpt>
      <trkpt lat="48.49806" lon="-4.25786">
        <ele>97</ele>
        <time>2018-10-09T14:50:05Z</time>
      </trkpt>
      <trkpt lat="48.49808" lon="-4.25795">
        <ele>98</ele>
        <time>2018-10-09T14:50:10Z</time>
      </trkpt>
      <trkpt lat="48.4981" lon="-4.25802">
        <ele>98</ele>
        <time>2018-10-09T14:50:15Z</time>
      </trkpt>
      <trkpt lat="48.4981" lon="-4.25812">
        <ele>98</ele>
        <time>2018-10-09T14:50:20Z</time>
      </trkpt>
      <trkpt lat="48.49811" lon="-4.25823">
        <ele>98</ele>
        <time>2018-10-09T14:50:25Z</time>
      </trkpt>
      <trkpt lat="48.49811" lon="-4.25831">
        <ele>98</ele>
        <time>2018-10-09T14:50:30Z</time>
      </trkpt>
      <trkpt lat="48.49811" lon="-4.2584">
        <ele>98</ele>
        <time>2018-10-09T14:50:35Z</time>
      </trkpt>
      <trkpt lat="48.49813" lon="-4.25849">
        <ele>98</ele>
        <time>2018-10-09T14:50:40Z</time>
      </trkpt>
      <trkpt lat="48.49812" lon="-4.25858">
        <ele>98</ele>
        <time>2018-10-09T14:50:45Z</time>
      </trkpt>
      <trkpt lat="48.49813" lon="-4.25868">
        <ele>98</ele>
        <time>2018-10-09T14:50:50Z</time>
      </trkpt>
      <trkpt lat="48.49812" lon="-4.25876">
        <ele>98</ele>
        <time>2018-10-09T14:50:55Z</time>
      </trkpt>
      <trkpt lat="48.49813" lon="-4.25885">
        <ele>98</ele>
        <time>2018-10-09T14:51:00Z</time>
      </trkpt>
      <trkpt lat="48.49813" lon="-4.25893">
        <ele>98</ele>
        <time>2018-10-09T14:51:05Z</time>
      </trkpt>
      <trkpt lat="48.49814" lon="-4.25899">
        <ele>98</ele>
        <time>2018-10-09T14:51:10Z</time>
      </trkpt>
      <trkpt lat="48.49815" lon="-4.25905">
        <ele>98</ele>
        <time>2018-10-09T14:51:15Z</time>
      </trkpt>
      <trkpt lat="48.49816" lon="-4.25913">
        <ele>98</ele>
        <time>2018-10-09T14:51:20Z</time>
      </trkpt>
      <trkpt lat="48.49817" lon="-4.2592">
        <ele>98</ele>
        <time>2018-10-09T14:51:25Z</time>
      </trkpt>
      <trkpt lat="48.4982" lon="-4.25924">
        <ele>98</ele>
        <time>2018-10-09T14:51:30Z</time>
      </trkpt>
      <trkpt lat="48.49822" lon="-4.25929">
        <ele>98</ele>
        <time>2018-10-09T14:51:35Z</time>
      </trkpt>
      <trkpt lat="48.49824" lon="-4.25938">
        <ele>99</ele>
        <time>2018-10-09T14:51:40Z</time>
      </trkpt>
      <trkpt lat="48.49827" lon="-4.25948">
        <ele>99</ele>
        <time>2018-10-09T14:51:45Z</time>
      </trkpt>
      <trkpt lat="48.49829" lon="-4.25957">
        <ele>99</ele>
        <time>2018-10-09T14:51:50Z</time>
      </trkpt>
      <trkpt lat="48.49832" lon="-4.25965">
        <ele>99</ele>
        <time>2018-10-09T14:51:55Z</time>
      </trkpt>
      <trkpt lat="48.49835" lon="-4.25974">
        <ele>99</ele>
        <time>2018-10-09T14:52:00Z</time>
      </trkpt>
      <trkpt lat="48.49837" lon="-4.25982">
        <ele>99</ele>
        <time>2018-10-09T14:52:05Z</time>
      </trkpt>
      <trkpt lat="48.49839" lon="-4.25991">
        <ele>99</ele>
        <time>2018-10-09T14:52:10Z</time>
      </trkpt>
      <trkpt lat="48.49842" lon="-4.26">
        <ele>99</ele>
        <time>2018-10-09T14:52:15Z</time>
      </trkpt>
      <trkpt lat="48.49845" lon="-4.26006">
        <ele>99</ele>
        <time>2018-10-09T14:52:20Z</time>
      </trkpt>
      <trkpt lat="48.49847" lon="-4.26014">
        <ele>99</ele>
        <time>2018-10-09T14:52:25Z</time>
      </trkpt>
      <trkpt lat="48.49849" lon="-4.26022">
        <ele>99</ele>
        <time>2018-10-09T14:52:30Z</time>
      </trkpt>
      <trkpt lat="48.49851" lon="-4.26031">
        <ele>98</ele>
        <time>2018-10-09T14:52:35Z</time>
      </trkpt>
      <trkpt lat="48.49854" lon="-4.26038">
        <ele>98</ele>
        <time>2018-10-09T14:52:40Z</time>
      </trkpt>
      <trkpt lat="48.49856" lon="-4.26047">
        <ele>98</ele>
        <time>2018-10-09T14:52:45Z</time>
      </trkpt>
      <trkpt lat="48.49859" lon="-4.26053">
        <ele>97</ele>
        <time>2018-10-09T14:52:50Z</time>
      </trkpt>
      <trkpt lat="48.49862" lon="-4.26058">
        <ele>97</ele>
        <time>2018-10-09T14:52:55Z</time>
      </trkpt>
      <trkpt lat="48.49866" lon="-4.26064">
        <ele>97</ele>
        <time>2018-10-09T14:53:00Z</time>
      </trkpt>
      <trkpt lat="48.4987" lon="-4.26066">
        <ele>97</ele>
        <time>2018-10-09T14:53:05Z</time>
      </trkpt>
      <trkpt lat="48.49875" lon="-4.26072">
        <ele>97</ele>
        <time>2018-10-09T14:53:10Z</time>
      </trkpt>
      <trkpt lat="48.4988" lon="-4.26077">
        <ele>97</ele>
        <time>2018-10-09T14:53:15Z</time>
      </trkpt>
      <trkpt lat="48.49884" lon="-4.26079">
        <ele>97</ele>
        <time>2018-10-09T14:53:20Z</time>
      </trkpt>
      <trkpt lat="48.49889" lon="-4.26086">
        <ele>97</ele>
        <time>2018-10-09T14:53:25Z</time>
      </trkpt>
      <trkpt lat="48.49892" lon="-4.26091">
        <ele>97</ele>
        <time>2018-10-09T14:53:30Z</time>
      </trkpt>
      <trkpt lat="48.49894" lon="-4.26097">
        <ele>97</ele>
        <time>2018-10-09T14:53:35Z</time>
      </trkpt>
      <trkpt lat="48.49897" lon="-4.26104">
        <ele>97</ele>
        <time>2018-10-09T14:53:40Z</time>
      </trkpt>
      <trkpt lat="48.49902" lon="-4.26109">
        <ele>97</ele>
        <time>2018-10-09T14:53:45Z</time>
      </trkpt>
      <trkpt lat="48.49906" lon="-4.26115">
        <ele>97</ele>
        <time>2018-10-09T14:53:50Z</time>
      </trkpt>
      <trkpt lat="48.4991" lon="-4.26121">
        <ele>97</ele>
        <time>2018-10-09T14:53:55Z</time>
      </trkpt>
      <trkpt lat="48.49913" lon="-4.26126">
        <ele>97</ele>
        <time>2018-10-09T14:54:00Z</time>
      </trkpt>
      <trkpt lat="48.49918" lon="-4.26131">
        <ele>97</ele>
        <time>2018-10-09T14:54:05Z</time>
      </trkpt>
      <trkpt lat="48.4992" lon="-4.26137">
        <ele>97</ele>
        <time>2018-10-09T14:54:10Z</time>
      </trkpt>
      <trkpt lat="48.49923" lon="-4.26142">
        <ele>97</ele>
        <time>2018-10-09T14:54:15Z</time>
      </trkpt>
      <trkpt lat="48.49928" lon="-4.26147">
        <ele>97</ele>
        <time>2018-10-09T14:54:20Z</time>
      </trkpt>
      <trkpt lat="48.49937" lon="-4.26148">
        <ele>97</ele>
        <time>2018-10-09T14:54:25Z</time>
      </trkpt>
      <trkpt lat="48.49943" lon="-4.26153">
        <ele>97</ele>
        <time>2018-10-09T14:54:30Z</time>
      </trkpt>
      <trkpt lat="48.49948" lon="-4.26159">
        <ele>97</ele>
        <time>2018-10-09T14:54:35Z</time>
      </trkpt>
      <trkpt lat="48.49952" lon="-4.26164">
        <ele>97</ele>
        <time>2018-10-09T14:54:40Z</time>
      </trkpt>
      <trkpt lat="48.49958" lon="-4.2617">
        <ele>97</ele>
        <time>2018-10-09T14:54:45Z</time>
      </trkpt>
      <trkpt lat="48.49962" lon="-4.26177">
        <ele>97</ele>
        <time>2018-10-09T14:54:50Z</time>
      </trkpt>
      <trkpt lat="48.49966" lon="-4.26183">
        <ele>97</ele>
        <time>2018-10-09T14:54:55Z</time>
      </trkpt>
      <trkpt lat="48.4997" lon="-4.26189">
        <ele>97</ele>
        <time>2018-10-09T14:55:00Z</time>
      </trkpt>
      <trkpt lat="48.49975" lon="-4.26195">
        <ele>97</ele>
        <time>2018-10-09T14:55:05Z</time>
      </trkpt>
      <trkpt lat="48.49978" lon="-4.26202">
        <ele>97</ele>
        <time>2018-10-09T14:55:10Z</time>
      </trkpt>
      <trkpt lat="48.49983" lon="-4.26206">
        <ele>97</ele>
        <time>2018-10-09T14:55:15Z</time>
      </trkpt>
      <trkpt lat="48.49989" lon="-4.26207">
        <ele>97</ele>
        <time>2018-10-09T14:55:20Z</time>
      </trkpt>
      <trkpt lat="48.49994" lon="-4.26208">
        <ele>97</ele>
        <time>2018-10-09T14:55:25Z</time>
      </trkpt>
      <trkpt lat="48.49998" lon="-4.2621">
        <ele>97</ele>
        <time>2018-10-09T14:55:30Z</time>
      </trkpt>
      <trkpt lat="48.50003" lon="-4.26211">
        <ele>97</ele>
        <time>2018-10-09T14:55:35Z</time>
      </trkpt>
      <trkpt lat="48.50008" lon="-4.26213">
        <ele>97</ele>
        <time>2018-10-09T14:55:40Z</time>
      </trkpt>
      <trkpt lat="48.50012" lon="-4.26215">
        <ele>97</ele>
        <time>2018-10-09T14:55:45Z</time>
      </trkpt>
      <trkpt lat="48.50016" lon="-4.26217">
        <ele>97</ele>
        <time>2018-10-09T14:55:50Z</time>
      </trkpt>
      <trkpt lat="48.5002" lon="-4.26218">
        <ele>96</ele>
        <time>2018-10-09T14:55:55Z</time>
      </trkpt>
      <trkpt lat="48.50025" lon="-4.26219">
        <ele>96</ele>
        <time>2018-10-09T14:56:00Z</time>
      </trkpt>
      <trkpt lat="48.5003" lon="-4.26221">
        <ele>96</ele>
        <time>2018-10-09T14:56:05Z</time>
      </trkpt>
      <trkpt lat="48.50036" lon="-4.26222">
        <ele>96</ele>
        <time>2018-10-09T14:56:10Z</time>
      </trkpt>
      <trkpt lat="48.50041" lon="-4.2622">
        <ele>97</ele>
        <time>2018-10-09T14:56:15Z</time>
      </trkpt>
      <trkpt lat="48.50045" lon="-4.26219">
        <ele>97</ele>
        <time>2018-10-09T14:56:20Z</time>
      </trkpt>
      <trkpt lat="48.50049" lon="-4.2622">
        <ele>97</ele>
        <time>2018-10-09T14:56:25Z</time>
      </trkpt>
      <trkpt lat="48.50053" lon="-4.26218">
        <ele>97</ele>
        <time>2018-10-09T14:56:30Z</time>
      </trkpt>
      <trkpt lat="48.50056" lon="-4.26216">
        <ele>97</ele>
        <time>2018-10-09T14:56:35Z</time>
      </trkpt>
      <trkpt lat="48.50062" lon="-4.26215">
        <ele>97</ele>
        <time>2018-10-09T14:56:40Z</time>
      </trkpt>
      <trkpt lat="48.50066" lon="-4.26214">
        <ele>97</ele>
        <time>2018-10-09T14:56:45Z</time>
      </trkpt>
      <trkpt lat="48.50071" lon="-4.26213">
        <ele>97</ele>
        <time>2018-10-09T14:56:50Z</time>
      </trkpt>
      <trkpt lat="48.50077" lon="-4.26208">
        <ele>97</ele>
        <time>2018-10-09T14:56:55Z</time>
      </trkpt>
      <trkpt lat="48.50082" lon="-4.26207">
        <ele>97</ele>
        <time>2018-10-09T14:57:00Z</time>
      </trkpt>
      <trkpt lat="48.50089" lon="-4.26205">
        <ele>97</ele>
        <time>2018-10-09T14:57:05Z</time>
      </trkpt>
      <trkpt lat="48.50094" lon="-4.26204">
        <ele>97</ele>
        <time>2018-10-09T14:57:10Z</time>
      </trkpt>
      <trkpt lat="48.50102" lon="-4.26203">
        <ele>97</ele>
        <time>2018-10-09T14:57:15Z</time>
      </trkpt>
      <trkpt lat="48.50109" lon="-4.26204">
        <ele>97</ele>
        <time>2018-10-09T14:57:20Z</time>
      </trkpt>
      <trkpt lat="48.50115" lon="-4.26206">
        <ele>97</ele>
        <time>2018-10-09T14:57:25Z</time>
      </trkpt>
      <trkpt lat="48.50122" lon="-4.26208">
        <ele>96</ele>
        <time>2018-10-09T14:57:30Z</time>
      </trkpt>
      <trkpt lat="48.50129" lon="-4.2621">
        <ele>96</ele>
        <time>2018-10-09T14:57:35Z</time>
      </trkpt>
      <trkpt lat="48.50138" lon="-4.26211">
        <ele>95</ele>
        <time>2018-10-09T14:57:40Z</time>
      </trkpt>
      <trkpt lat="48.50143" lon="-4.26215">
        <ele>95</ele>
        <time>2018-10-09T14:57:45Z</time>
      </trkpt>
      <trkpt lat="48.50149" lon="-4.26218">
        <ele>94</ele>
        <time>2018-10-09T14:57:50Z</time>
      </trkpt>
      <trkpt lat="48.50156" lon="-4.2622">
        <ele>94</ele>
        <time>2018-10-09T14:57:55Z</time>
      </trkpt>
      <trkpt lat="48.50163" lon="-4.26224">
        <ele>93</ele>
        <time>2018-10-09T14:58:00Z</time>
      </trkpt>
      <trkpt lat="48.50171" lon="-4.26226">
        <ele>93</ele>
        <time>2018-10-09T14:58:05Z</time>
      </trkpt>
      <trkpt lat="48.50171" lon="-4.26231">
        <ele>93</ele>
        <time>2018-10-09T14:58:10Z</time>
      </trkpt>
      <trkpt lat="48.50169" lon="-4.26239">
        <ele>93</ele>
        <time>2018-10-09T14:58:15Z</time>
      </trkpt>
      <trkpt lat="48.50167" lon="-4.26248">
        <ele>93</ele>
        <time>2018-10-09T14:58:20Z</time>
      </trkpt>
      <trkpt lat="48.50165" lon="-4.26255">
        <ele>93</ele>
        <time>2018-10-09T14:58:25Z</time>
      </trkpt>
      <trkpt lat="48.50163" lon="-4.26263">
        <ele>94</ele>
        <time>2018-10-09T14:58:30Z</time>
      </trkpt>
      <trkpt lat="48.50161" lon="-4.26272">
        <ele>94</ele>
        <time>2018-10-09T14:58:35Z</time>
      </trkpt>
      <trkpt lat="48.50159" lon="-4.26281">
        <ele>94</ele>
        <time>2018-10-09T14:58:40Z</time>
      </trkpt>
      <trkpt lat="48.50161" lon="-4.26282">
        <ele>94</ele>
        <time>2018-10-09T14:58:45Z</time>
      </trkpt>
      <trkpt lat="48.5016" lon="-4.26283">
        <ele>94</ele>
        <time>2018-10-09T14:58:55Z</time>
      </trkpt>
      <trkpt lat="48.50159" lon="-4.26286">
        <ele>94</ele>
        <time>2018-10-09T14:59:00Z</time>
      </trkpt>
      <trkpt lat="48.50156" lon="-4.26296">
        <ele>94</ele>
        <time>2018-10-09T14:59:05Z</time>
      </trkpt>
      <trkpt lat="48.50153" lon="-4.26304">
        <ele>94</ele>
        <time>2018-10-09T14:59:10Z</time>
      </trkpt>
      <trkpt lat="48.50152" lon="-4.26313">
        <ele>95</ele>
        <time>2018-10-09T14:59:15Z</time>
      </trkpt>
      <trkpt lat="48.50151" lon="-4.26322">
        <ele>94</ele>
        <time>2018-10-09T14:59:20Z</time>
      </trkpt>
      <trkpt lat="48.5015" lon="-4.2633">
        <ele>94</ele>
        <time>2018-10-09T14:59:25Z</time>
      </trkpt>
      <trkpt lat="48.50149" lon="-4.26335">
        <ele>94</ele>
        <time>2018-10-09T14:59:30Z</time>
      </trkpt>
      <trkpt lat="48.50148" lon="-4.26344">
        <ele>94</ele>
        <time>2018-10-09T14:59:35Z</time>
      </trkpt>
      <trkpt lat="48.50147" lon="-4.26353">
        <ele>94</ele>
        <time>2018-10-09T14:59:40Z</time>
      </trkpt>
      <trkpt lat="48.50146" lon="-4.26362">
        <ele>94</ele>
        <time>2018-10-09T14:59:45Z</time>
      </trkpt>
      <trkpt lat="48.50145" lon="-4.26371">
        <ele>94</ele>
        <time>2018-10-09T14:59:50Z</time>
      </trkpt>
      <trkpt lat="48.50144" lon="-4.26379">
        <ele>95</ele>
        <time>2018-10-09T14:59:55Z</time>
      </trkpt>
      <trkpt lat="48.50144" lon="-4.26387">
        <ele>95</ele>
        <time>2018-10-09T15:00:00Z</time>
      </trkpt>
      <trkpt lat="48.50144" lon="-4.26396">
        <ele>95</ele>
        <time>2018-10-09T15:00:05Z</time>
      </trkpt>
      <trkpt lat="48.50142" lon="-4.26405">
        <ele>95</ele>
        <time>2018-10-09T15:00:10Z</time>
      </trkpt>
      <trkpt lat="48.50141" lon="-4.26416">
        <ele>95</ele>
        <time>2018-10-09T15:00:15Z</time>
      </trkpt>
      <trkpt lat="48.5014" lon="-4.26424">
        <ele>95</ele>
        <time>2018-10-09T15:00:20Z</time>
      </trkpt>
      <trkpt lat="48.50139" lon="-4.26433">
        <ele>96</ele>
        <time>2018-10-09T15:00:25Z</time>
      </trkpt>
      <trkpt lat="48.50138" lon="-4.26443">
        <ele>97</ele>
        <time>2018-10-09T15:00:30Z</time>
      </trkpt>
      <trkpt lat="48.50138" lon="-4.26452">
        <ele>97</ele>
        <time>2018-10-09T15:00:35Z</time>
      </trkpt>
      <trkpt lat="48.50136" lon="-4.26461">
        <ele>97</ele>
        <time>2018-10-09T15:00:40Z</time>
      </trkpt>
      <trkpt lat="48.50135" lon="-4.26471">
        <ele>97</ele>
        <time>2018-10-09T15:00:45Z</time>
      </trkpt>
      <trkpt lat="48.50135" lon="-4.26478">
        <ele>97</ele>
        <time>2018-10-09T15:00:50Z</time>
      </trkpt>
      <trkpt lat="48.50136" lon="-4.26486">
        <ele>97</ele>
        <time>2018-10-09T15:00:55Z</time>
      </trkpt>
      <trkpt lat="48.50134" lon="-4.26495">
        <ele>97</ele>
        <time>2018-10-09T15:01:00Z</time>
      </trkpt>
      <trkpt lat="48.50135" lon="-4.26503">
        <ele>97</ele>
        <time>2018-10-09T15:01:05Z</time>
      </trkpt>
      <trkpt lat="48.50135" lon="-4.2651">
        <ele>97</ele>
        <time>2018-10-09T15:01:10Z</time>
      </trkpt>
      <trkpt lat="48.50136" lon="-4.26518">
        <ele>97</ele>
        <time>2018-10-09T15:01:15Z</time>
      </trkpt>
      <trkpt lat="48.50135" lon="-4.26529">
        <ele>97</ele>
        <time>2018-10-09T15:01:20Z</time>
      </trkpt>
      <trkpt lat="48.50135" lon="-4.26538">
        <ele>97</ele>
        <time>2018-10-09T15:01:25Z</time>
      </trkpt>
      <trkpt lat="48.50134" lon="-4.26546">
        <ele>97</ele>
        <time>2018-10-09T15:01:30Z</time>
      </trkpt>
      <trkpt lat="48.50132" lon="-4.26553">
        <ele>97</ele>
        <time>2018-10-09T15:01:35Z</time>
      </trkpt>
      <trkpt lat="48.50129" lon="-4.26558">
        <ele>96</ele>
        <time>2018-10-09T15:01:40Z</time>
      </trkpt>
      <trkpt lat="48.50126" lon="-4.26563">
        <ele>96</ele>
        <time>2018-10-09T15:01:45Z</time>
      </trkpt>
      <trkpt lat="48.50121" lon="-4.2657">
        <ele>95</ele>
        <time>2018-10-09T15:01:50Z</time>
      </trkpt>
      <trkpt lat="48.50116" lon="-4.26578">
        <ele>95</ele>
        <time>2018-10-09T15:01:55Z</time>
      </trkpt>
      <trkpt lat="48.50111" lon="-4.26584">
        <ele>94</ele>
        <time>2018-10-09T15:02:00Z</time>
      </trkpt>
      <trkpt lat="48.50108" lon="-4.26589">
        <ele>94</ele>
        <time>2018-10-09T15:02:05Z</time>
      </trkpt>
      <trkpt lat="48.50105" lon="-4.26593">
        <ele>94</ele>
        <time>2018-10-09T15:02:10Z</time>
      </trkpt>
      <trkpt lat="48.501" lon="-4.26598">
        <ele>94</ele>
        <time>2018-10-09T15:02:15Z</time>
      </trkpt>
      <trkpt lat="48.50096" lon="-4.26603">
        <ele>93</ele>
        <time>2018-10-09T15:02:20Z</time>
      </trkpt>
      <trkpt lat="48.50094" lon="-4.26611">
        <ele>93</ele>
        <time>2018-10-09T15:02:25Z</time>
      </trkpt>
      <trkpt lat="48.50095" lon="-4.26621">
        <ele>93</ele>
        <time>2018-10-09T15:02:30Z</time>
      </trkpt>
      <trkpt lat="48.50096" lon="-4.2663">
        <ele>93</ele>
        <time>2018-10-09T15:02:35Z</time>
      </trkpt>
      <trkpt lat="48.50097" lon="-4.2664">
        <ele>93</ele>
        <time>2018-10-09T15:02:40Z</time>
      </trkpt>
      <trkpt lat="48.50097" lon="-4.26647">
        <ele>94</ele>
        <time>2018-10-09T15:02:45Z</time>
      </trkpt>
      <trkpt lat="48.50097" lon="-4.26656">
        <ele>94</ele>
        <time>2018-10-09T15:02:50Z</time>
      </trkpt>
      <trkpt lat="48.50098" lon="-4.26666">
        <ele>94</ele>
        <time>2018-10-09T15:02:55Z</time>
      </trkpt>
      <trkpt lat="48.501" lon="-4.26674">
        <ele>94</ele>
        <time>2018-10-09T15:03:00Z</time>
      </trkpt>
      <trkpt lat="48.50106" lon="-4.26679">
        <ele>94</ele>
        <time>2018-10-09T15:03:05Z</time>
      </trkpt>
      <trkpt lat="48.50111" lon="-4.26684">
        <ele>94</ele>
        <time>2018-10-09T15:03:10Z</time>
      </trkpt>
      <trkpt lat="48.50115" lon="-4.26689">
        <ele>94</ele>
        <time>2018-10-09T15:03:15Z</time>
      </trkpt>
      <trkpt lat="48.50118" lon="-4.26696">
        <ele>94</ele>
        <time>2018-10-09T15:03:20Z</time>
      </trkpt>
      <trkpt lat="48.50118" lon="-4.26704">
        <ele>94</ele>
        <time>2018-10-09T15:03:25Z</time>
      </trkpt>
      <trkpt lat="48.50117" lon="-4.26713">
        <ele>94</ele>
        <time>2018-10-09T15:03:30Z</time>
      </trkpt>
      <trkpt lat="48.50118" lon="-4.26724">
        <ele>95</ele>
        <time>2018-10-09T15:03:35Z</time>
      </trkpt>
      <trkpt lat="48.50118" lon="-4.26734">
        <ele>95</ele>
        <time>2018-10-09T15:03:40Z</time>
      </trkpt>
      <trkpt lat="48.5012" lon="-4.26743">
        <ele>96</ele>
        <time>2018-10-09T15:03:45Z</time>
      </trkpt>
      <trkpt lat="48.50122" lon="-4.26752">
        <ele>96</ele>
        <time>2018-10-09T15:03:50Z</time>
      </trkpt>
      <trkpt lat="48.50124" lon="-4.26759">
        <ele>96</ele>
        <time>2018-10-09T15:03:55Z</time>
      </trkpt>
      <trkpt lat="48.50126" lon="-4.26767">
        <ele>96</ele>
        <time>2018-10-09T15:04:00Z</time>
      </trkpt>
      <trkpt lat="48.50129" lon="-4.26774">
        <ele>96</ele>
        <time>2018-10-09T15:04:05Z</time>
      </trkpt>
      <trkpt lat="48.50132" lon="-4.26781">
        <ele>95</ele>
        <time>2018-10-09T15:04:10Z</time>
      </trkpt>
      <trkpt lat="48.50134" lon="-4.26788">
        <ele>95</ele>
        <time>2018-10-09T15:04:15Z</time>
      </trkpt>
      <trkpt lat="48.50136" lon="-4.26793">
        <ele>95</ele>
        <time>2018-10-09T15:04:20Z</time>
      </trkpt>
      <trkpt lat="48.50135" lon="-4.26796">
        <ele>95</ele>
        <time>2018-10-09T15:04:25Z</time>
      </trkpt>
      <trkpt lat="48.50131" lon="-4.268">
        <ele>96</ele>
        <time>2018-10-09T15:04:30Z</time>
      </trkpt>
      <trkpt lat="48.50128" lon="-4.26806">
        <ele>96</ele>
        <time>2018-10-09T15:04:35Z</time>
      </trkpt>
      <trkpt lat="48.50124" lon="-4.26812">
        <ele>96</ele>
        <time>2018-10-09T15:04:40Z</time>
      </trkpt>
      <trkpt lat="48.50123" lon="-4.26816">
        <ele>95</ele>
        <time>2018-10-09T15:04:45Z</time>
      </trkpt>
      <trkpt lat="48.50121" lon="-4.2682">
        <ele>95</ele>
        <time>2018-10-09T15:04:50Z</time>
      </trkpt>
      <trkpt lat="48.50118" lon="-4.26824">
        <ele>95</ele>
        <time>2018-10-09T15:04:55Z</time>
      </trkpt>
      <trkpt lat="48.50115" lon="-4.26829">
        <ele>95</ele>
        <time>2018-10-09T15:05:00Z</time>
      </trkpt>
      <trkpt lat="48.50112" lon="-4.26835">
        <ele>95</ele>
        <time>2018-10-09T15:05:05Z</time>
      </trkpt>
      <trkpt lat="48.50107" lon="-4.26842">
        <ele>94</ele>
        <time>2018-10-09T15:05:10Z</time>
      </trkpt>
      <trkpt lat="48.50103" lon="-4.26848">
        <ele>94</ele>
        <time>2018-10-09T15:05:15Z</time>
      </trkpt>
      <trkpt lat="48.501" lon="-4.26856">
        <ele>93</ele>
        <time>2018-10-09T15:05:20Z</time>
      </trkpt>
      <trkpt lat="48.50097" lon="-4.26864">
        <ele>93</ele>
        <time>2018-10-09T15:05:25Z</time>
      </trkpt>
      <trkpt lat="48.50095" lon="-4.26874">
        <ele>93</ele>
        <time>2018-10-09T15:05:30Z</time>
      </trkpt>
      <trkpt lat="48.50094" lon="-4.26881">
        <ele>92</ele>
        <time>2018-10-09T15:05:35Z</time>
      </trkpt>
      <trkpt lat="48.50097" lon="-4.26886">
        <ele>92</ele>
        <time>2018-10-09T15:05:40Z</time>
      </trkpt>
      <trkpt lat="48.50099" lon="-4.26893">
        <ele>92</ele>
        <time>2018-10-09T15:05:45Z</time>
      </trkpt>
      <trkpt lat="48.501" lon="-4.26899">
        <ele>92</ele>
        <time>2018-10-09T15:05:50Z</time>
      </trkpt>
      <trkpt lat="48.50099" lon="-4.26907">
        <ele>91</ele>
        <time>2018-10-09T15:05:55Z</time>
      </trkpt>
      <trkpt lat="48.50095" lon="-4.26917">
        <ele>91</ele>
        <time>2018-10-09T15:06:00Z</time>
      </trkpt>
      <trkpt lat="48.50093" lon="-4.26924">
        <ele>91</ele>
        <time>2018-10-09T15:06:05Z</time>
      </trkpt>
      <trkpt lat="48.50092" lon="-4.2693">
        <ele>91</ele>
        <time>2018-10-09T15:06:10Z</time>
      </trkpt>
      <trkpt lat="48.50089" lon="-4.26936">
        <ele>91</ele>
        <time>2018-10-09T15:06:15Z</time>
      </trkpt>
      <trkpt lat="48.50087" lon="-4.26943">
        <ele>91</ele>
        <time>2018-10-09T15:06:20Z</time>
      </trkpt>
      <trkpt lat="48.50085" lon="-4.26949">
        <ele>91</ele>
        <time>2018-10-09T15:06:25Z</time>
      </trkpt>
      <trkpt lat="48.50083" lon="-4.26958">
        <ele>91</ele>
        <time>2018-10-09T15:06:30Z</time>
      </trkpt>
      <trkpt lat="48.50082" lon="-4.26962">
        <ele>91</ele>
        <time>2018-10-09T15:06:35Z</time>
      </trkpt>
      <trkpt lat="48.50084" lon="-4.26963">
        <ele>91</ele>
        <time>2018-10-09T15:06:40Z</time>
      </trkpt>
      <trkpt lat="48.50083" lon="-4.26965">
        <ele>91</ele>
        <time>2018-10-09T15:06:45Z</time>
      </trkpt>
      <trkpt lat="48.50082" lon="-4.26964">
        <ele>91</ele>
        <time>2018-10-09T15:06:50Z</time>
      </trkpt>
      <trkpt lat="48.50085" lon="-4.26967">
        <ele>91</ele>
        <time>2018-10-09T15:06:55Z</time>
      </trkpt>
      <trkpt lat="48.50086" lon="-4.2697">
        <ele>91</ele>
        <time>2018-10-09T15:07:00Z</time>
      </trkpt>
      <trkpt lat="48.50088" lon="-4.26971">
        <ele>91</ele>
        <time>2018-10-09T15:07:05Z</time>
      </trkpt>
      <trkpt lat="48.50092" lon="-4.26975">
        <ele>91</ele>
        <time>2018-10-09T15:07:10Z</time>
      </trkpt>
      <trkpt lat="48.50097" lon="-4.26977">
        <ele>90</ele>
        <time>2018-10-09T15:07:15Z</time>
      </trkpt>
      <trkpt lat="48.50101" lon="-4.26982">
        <ele>90</ele>
        <time>2018-10-09T15:07:20Z</time>
      </trkpt>
      <trkpt lat="48.50104" lon="-4.26989">
        <ele>90</ele>
        <time>2018-10-09T15:07:25Z</time>
      </trkpt>
      <trkpt lat="48.50107" lon="-4.26994">
        <ele>90</ele>
        <time>2018-10-09T15:07:30Z</time>
      </trkpt>
      <trkpt lat="48.50109" lon="-4.26999">
        <ele>90</ele>
        <time>2018-10-09T15:07:35Z</time>
      </trkpt>
      <trkpt lat="48.50111" lon="-4.27005">
        <ele>90</ele>
        <time>2018-10-09T15:07:40Z</time>
      </trkpt>
      <trkpt lat="48.50112" lon="-4.2701">
        <ele>90</ele>
        <time>2018-10-09T15:07:45Z</time>
      </trkpt>
      <trkpt lat="48.50115" lon="-4.27016">
        <ele>90</ele>
        <time>2018-10-09T15:07:50Z</time>
      </trkpt>
      <trkpt lat="48.50118" lon="-4.27023">
        <ele>91</ele>
        <time>2018-10-09T15:07:55Z</time>
      </trkpt>
      <trkpt lat="48.5012" lon="-4.2703">
        <ele>91</ele>
        <time>2018-10-09T15:08:00Z</time>
      </trkpt>
      <trkpt lat="48.50123" lon="-4.27037">
        <ele>91</ele>
        <time>2018-10-09T15:08:05Z</time>
      </trkpt>
      <trkpt lat="48.50126" lon="-4.27044">
        <ele>90</ele>
        <time>2018-10-09T15:08:10Z</time>
      </trkpt>
      <trkpt lat="48.50127" lon="-4.27053">
        <ele>90</ele>
        <time>2018-10-09T15:08:15Z</time>
      </trkpt>
      <trkpt lat="48.50129" lon="-4.2706">
        <ele>90</ele>
        <time>2018-10-09T15:08:20Z</time>
      </trkpt>
      <trkpt lat="48.50133" lon="-4.27066">
        <ele>90</ele>
        <time>2018-10-09T15:08:25Z</time>
      </trkpt>
      <trkpt lat="48.50136" lon="-4.27072">
        <ele>89</ele>
        <time>2018-10-09T15:08:30Z</time>
      </trkpt>
      <trkpt lat="48.50141" lon="-4.27077">
        <ele>88</ele>
        <time>2018-10-09T15:08:35Z</time>
      </trkpt>
      <trkpt lat="48.50145" lon="-4.27082">
        <ele>88</ele>
        <time>2018-10-09T15:08:40Z</time>
      </trkpt>
      <trkpt lat="48.5015" lon="-4.27085">
        <ele>87</ele>
        <time>2018-10-09T15:08:45Z</time>
      </trkpt>
      <trkpt lat="48.50154" lon="-4.2709">
        <ele>87</ele>
        <time>2018-10-09T15:08:50Z</time>
      </trkpt>
      <trkpt lat="48.50158" lon="-4.27093">
        <ele>86</ele>
        <time>2018-10-09T15:08:55Z</time>
      </trkpt>
      <trkpt lat="48.50162" lon="-4.27096">
        <ele>86</ele>
        <time>2018-10-09T15:09:00Z</time>
      </trkpt>
      <trkpt lat="48.50165" lon="-4.27101">
        <ele>85</ele>
        <time>2018-10-09T15:09:05Z</time>
      </trkpt>
      <trkpt lat="48.50167" lon="-4.27104">
        <ele>85</ele>
        <time>2018-10-09T15:09:10Z</time>
      </trkpt>
      <trkpt lat="48.50171" lon="-4.27107">
        <ele>85</ele>
        <time>2018-10-09T15:09:15Z</time>
      </trkpt>
      <trkpt lat="48.50176" lon="-4.27112">
        <ele>85</ele>
        <time>2018-10-09T15:09:20Z</time>
      </trkpt>
      <trkpt lat="48.50181" lon="-4.27115">
        <ele>84</ele>
        <time>2018-10-09T15:09:25Z</time>
      </trkpt>
      <trkpt lat="48.50185" lon="-4.27119">
        <ele>84</ele>
        <time>2018-10-09T15:09:30Z</time>
      </trkpt>
      <trkpt lat="48.50189" lon="-4.27122">
        <ele>84</ele>
        <time>2018-10-09T15:09:35Z</time>
      </trkpt>
      <trkpt lat="48.50194" lon="-4.27125">
        <ele>84</ele>
        <time>2018-10-09T15:09:40Z</time>
      </trkpt>
      <trkpt lat="48.50197" lon="-4.27126">
        <ele>84</ele>
        <time>2018-10-09T15:09:45Z</time>
      </trkpt>
      <trkpt lat="48.50198" lon="-4.27127">
        <ele>84</ele>
        <time>2018-10-09T15:09:50Z</time>
      </trkpt>
      <trkpt lat="48.50202" lon="-4.27127">
        <ele>84</ele>
        <time>2018-10-09T15:09:55Z</time>
      </trkpt>
      <trkpt lat="48.50207" lon="-4.27129">
        <ele>84</ele>
        <time>2018-10-09T15:10:00Z</time>
      </trkpt>
      <trkpt lat="48.50212" lon="-4.27131">
        <ele>85</ele>
        <time>2018-10-09T15:10:05Z</time>
      </trkpt>
      <trkpt lat="48.50216" lon="-4.27135">
        <ele>85</ele>
        <time>2018-10-09T15:10:10Z</time>
      </trkpt>
      <trkpt lat="48.50221" lon="-4.27139">
        <ele>85</ele>
        <time>2018-10-09T15:10:15Z</time>
      </trkpt>
      <trkpt lat="48.50225" lon="-4.27143">
        <ele>85</ele>
        <time>2018-10-09T15:10:20Z</time>
      </trkpt>
      <trkpt lat="48.5023" lon="-4.27148">
        <ele>86</ele>
        <time>2018-10-09T15:10:25Z</time>
      </trkpt>
      <trkpt lat="48.50235" lon="-4.27155">
        <ele>86</ele>
        <time>2018-10-09T15:10:30Z</time>
      </trkpt>
      <trkpt lat="48.50238" lon="-4.27161">
        <ele>86</ele>
        <time>2018-10-09T15:10:35Z</time>
      </trkpt>
      <trkpt lat="48.50242" lon="-4.27168">
        <ele>87</ele>
        <time>2018-10-09T15:10:40Z</time>
      </trkpt>
      <trkpt lat="48.50246" lon="-4.27173">
        <ele>87</ele>
        <time>2018-10-09T15:10:45Z</time>
      </trkpt>
      <trkpt lat="48.50251" lon="-4.27178">
        <ele>87</ele>
        <time>2018-10-09T15:10:50Z</time>
      </trkpt>
      <trkpt lat="48.50256" lon="-4.27179">
        <ele>87</ele>
        <time>2018-10-09T15:10:55Z</time>
      </trkpt>
      <trkpt lat="48.50259" lon="-4.27181">
        <ele>87</ele>
        <time>2018-10-09T15:11:00Z</time>
      </trkpt>
      <trkpt lat="48.50263" lon="-4.27184">
        <ele>87</ele>
        <time>2018-10-09T15:11:05Z</time>
      </trkpt>
      <trkpt lat="48.50266" lon="-4.27186">
        <ele>87</ele>
        <time>2018-10-09T15:11:10Z</time>
      </trkpt>
      <trkpt lat="48.5027" lon="-4.27187">
        <ele>87</ele>
        <time>2018-10-09T15:11:15Z</time>
      </trkpt>
      <trkpt lat="48.50274" lon="-4.27188">
        <ele>87</ele>
        <time>2018-10-09T15:11:20Z</time>
      </trkpt>
      <trkpt lat="48.50279" lon="-4.27188">
        <ele>87</ele>
        <time>2018-10-09T15:11:25Z</time>
      </trkpt>
      <trkpt lat="48.50284" lon="-4.27189">
        <ele>87</ele>
        <time>2018-10-09T15:11:30Z</time>
      </trkpt>
      <trkpt lat="48.50288" lon="-4.2719">
        <ele>86</ele>
        <time>2018-10-09T15:11:35Z</time>
      </trkpt>
      <trkpt lat="48.50292" lon="-4.27189">
        <ele>86</ele>
        <time>2018-10-09T15:11:40Z</time>
      </trkpt>
      <trkpt lat="48.50299" lon="-4.27188">
        <ele>86</ele>
        <time>2018-10-09T15:11:45Z</time>
      </trkpt>
      <trkpt lat="48.50306" lon="-4.27186">
        <ele>85</ele>
        <time>2018-10-09T15:11:50Z</time>
      </trkpt>
      <trkpt lat="48.50313" lon="-4.27186">
        <ele>85</ele>
        <time>2018-10-09T15:11:55Z</time>
      </trkpt>
      <trkpt lat="48.50321" lon="-4.27186">
        <ele>86</ele>
        <time>2018-10-09T15:12:00Z</time>
      </trkpt>
      <trkpt lat="48.50326" lon="-4.27186">
        <ele>86</ele>
        <time>2018-10-09T15:12:05Z</time>
      </trkpt>
      <trkpt lat="48.5033" lon="-4.27183">
        <ele>86</ele>
        <time>2018-10-09T15:12:10Z</time>
      </trkpt>
      <trkpt lat="48.50334" lon="-4.2718">
        <ele>86</ele>
        <time>2018-10-09T15:12:15Z</time>
      </trkpt>
      <trkpt lat="48.50339" lon="-4.27176">
        <ele>86</ele>
        <time>2018-10-09T15:12:20Z</time>
      </trkpt>
      <trkpt lat="48.50345" lon="-4.27172">
        <ele>86</ele>
        <time>2018-10-09T15:12:25Z</time>
      </trkpt>
      <trkpt lat="48.5035" lon="-4.27171">
        <ele>86</ele>
        <time>2018-10-09T15:12:30Z</time>
      </trkpt>
      <trkpt lat="48.50354" lon="-4.2717">
        <ele>86</ele>
        <time>2018-10-09T15:12:35Z</time>
      </trkpt>
      <trkpt lat="48.50358" lon="-4.27168">
        <ele>86</ele>
        <time>2018-10-09T15:12:40Z</time>
      </trkpt>
      <trkpt lat="48.50362" lon="-4.27165">
        <ele>86</ele>
        <time>2018-10-09T15:12:45Z</time>
      </trkpt>
      <trkpt lat="48.50364" lon="-4.27164">
        <ele>86</ele>
        <time>2018-10-09T15:12:50Z</time>
      </trkpt>
      <trkpt lat="48.50368" lon="-4.27163">
        <ele>86</ele>
        <time>2018-10-09T15:12:55Z</time>
      </trkpt>
      <trkpt lat="48.50373" lon="-4.27163">
        <ele>86</ele>
        <time>2018-10-09T15:13:00Z</time>
      </trkpt>
      <trkpt lat="48.50379" lon="-4.27163">
        <ele>85</ele>
        <time>2018-10-09T15:13:05Z</time>
      </trkpt>
      <trkpt lat="48.50385" lon="-4.27164">
        <ele>85</ele>
        <time>2018-10-09T15:13:10Z</time>
      </trkpt>
      <trkpt lat="48.50392" lon="-4.27166">
        <ele>85</ele>
        <time>2018-10-09T15:13:15Z</time>
      </trkpt>
      <trkpt lat="48.50398" lon="-4.27169">
        <ele>85</ele>
        <time>2018-10-09T15:13:20Z</time>
      </trkpt>
      <trkpt lat="48.50403" lon="-4.27173">
        <ele>84</ele>
        <time>2018-10-09T15:13:25Z</time>
      </trkpt>
      <trkpt lat="48.50408" lon="-4.27174">
        <ele>84</ele>
        <time>2018-10-09T15:13:30Z</time>
      </trkpt>
      <trkpt lat="48.50414" lon="-4.27175">
        <ele>84</ele>
        <time>2018-10-09T15:13:35Z</time>
      </trkpt>
      <trkpt lat="48.5042" lon="-4.27177">
        <ele>84</ele>
        <time>2018-10-09T15:13:40Z</time>
      </trkpt>
      <trkpt lat="48.50424" lon="-4.2718">
        <ele>83</ele>
        <time>2018-10-09T15:13:45Z</time>
      </trkpt>
      <trkpt lat="48.50429" lon="-4.27183">
        <ele>83</ele>
        <time>2018-10-09T15:13:50Z</time>
      </trkpt>
      <trkpt lat="48.50434" lon="-4.27184">
        <ele>83</ele>
        <time>2018-10-09T15:13:55Z</time>
      </trkpt>
      <trkpt lat="48.50439" lon="-4.27185">
        <ele>83</ele>
        <time>2018-10-09T15:14:00Z</time>
      </trkpt>
      <trkpt lat="48.50442" lon="-4.27187">
        <ele>82</ele>
        <time>2018-10-09T15:14:05Z</time>
      </trkpt>
      <trkpt lat="48.50446" lon="-4.27189">
        <ele>82</ele>
        <time>2018-10-09T15:14:10Z</time>
      </trkpt>
      <trkpt lat="48.50451" lon="-4.27189">
        <ele>82</ele>
        <time>2018-10-09T15:14:15Z</time>
      </trkpt>
      <trkpt lat="48.50456" lon="-4.27187">
        <ele>83</ele>
        <time>2018-10-09T15:14:20Z</time>
      </trkpt>
      <trkpt lat="48.50461" lon="-4.27187">
        <ele>83</ele>
        <time>2018-10-09T15:14:25Z</time>
      </trkpt>
      <trkpt lat="48.50465" lon="-4.27187">
        <ele>83</ele>
        <time>2018-10-09T15:14:30Z</time>
      </trkpt>
      <trkpt lat="48.5047" lon="-4.27188">
        <ele>83</ele>
        <time>2018-10-09T15:14:35Z</time>
      </trkpt>
      <trkpt lat="48.50476" lon="-4.27189">
        <ele>83</ele>
        <time>2018-10-09T15:14:40Z</time>
      </trkpt>
      <trkpt lat="48.50481" lon="-4.27189">
        <ele>83</ele>
        <time>2018-10-09T15:14:45Z</time>
      </trkpt>
      <trkpt lat="48.50486" lon="-4.2719">
        <ele>83</ele>
        <time>2018-10-09T15:14:50Z</time>
      </trkpt>
      <trkpt lat="48.50492" lon="-4.27191">
        <ele>82</ele>
        <time>2018-10-09T15:14:55Z</time>
      </trkpt>
      <trkpt lat="48.50496" lon="-4.27193">
        <ele>82</ele>
        <time>2018-10-09T15:15:00Z</time>
      </trkpt>
      <trkpt lat="48.50501" lon="-4.27194">
        <ele>82</ele>
        <time>2018-10-09T15:15:05Z</time>
      </trkpt>
      <trkpt lat="48.50506" lon="-4.27195">
        <ele>82</ele>
        <time>2018-10-09T15:15:10Z</time>
      </trkpt>
      <trkpt lat="48.50511" lon="-4.27196">
        <ele>82</ele>
        <time>2018-10-09T15:15:15Z</time>
      </trkpt>
      <trkpt lat="48.50516" lon="-4.27197">
        <ele>83</ele>
        <time>2018-10-09T15:15:20Z</time>
      </trkpt>
      <trkpt lat="48.50521" lon="-4.27198">
        <ele>83</ele>
        <time>2018-10-09T15:15:25Z</time>
      </trkpt>
      <trkpt lat="48.50525" lon="-4.27198">
        <ele>83</ele>
        <time>2018-10-09T15:15:30Z</time>
      </trkpt>
      <trkpt lat="48.50524" lon="-4.27199">
        <ele>83</ele>
        <time>2018-10-09T15:15:35Z</time>
      </trkpt>
      <trkpt lat="48.50526" lon="-4.27199">
        <ele>83</ele>
        <time>2018-10-09T15:15:45Z</time>
      </trkpt>
      <trkpt lat="48.50531" lon="-4.27199">
        <ele>83</ele>
        <time>2018-10-09T15:15:50Z</time>
      </trkpt>
      <trkpt lat="48.50536" lon="-4.27199">
        <ele>83</ele>
        <time>2018-10-09T15:15:55Z</time>
      </trkpt>
      <trkpt lat="48.5054" lon="-4.272">
        <ele>83</ele>
        <time>2018-10-09T15:16:00Z</time>
      </trkpt>
      <trkpt lat="48.50545" lon="-4.27201">
        <ele>84</ele>
        <time>2018-10-09T15:16:05Z</time>
      </trkpt>
      <trkpt lat="48.5055" lon="-4.27201">
        <ele>84</ele>
        <time>2018-10-09T15:16:10Z</time>
      </trkpt>
      <trkpt lat="48.50555" lon="-4.27202">
        <ele>84</ele>
        <time>2018-10-09T15:16:15Z</time>
      </trkpt>
      <trkpt lat="48.50559" lon="-4.27204">
        <ele>84</ele>
        <time>2018-10-09T15:16:20Z</time>
      </trkpt>
      <trkpt lat="48.5056" lon="-4.27205">
        <ele>84</ele>
        <time>2018-10-09T15:16:25Z</time>
      </trkpt>
      <trkpt lat="48.50561" lon="-4.27204">
        <ele>84</ele>
        <time>2018-10-09T15:16:35Z</time>
      </trkpt>
      <trkpt lat="48.50565" lon="-4.27205">
        <ele>84</ele>
        <time>2018-10-09T15:16:40Z</time>
      </trkpt>
      <trkpt lat="48.50568" lon="-4.27204">
        <ele>84</ele>
        <time>2018-10-09T15:16:45Z</time>
      </trkpt>
      <trkpt lat="48.50571" lon="-4.27205">
        <ele>84</ele>
        <time>2018-10-09T15:16:50Z</time>
      </trkpt>
      <trkpt lat="48.50574" lon="-4.27208">
        <ele>84</ele>
        <time>2018-10-09T15:16:55Z</time>
      </trkpt>
      <trkpt lat="48.50579" lon="-4.2721">
        <ele>84</ele>
        <time>2018-10-09T15:17:00Z</time>
      </trkpt>
      <trkpt lat="48.50583" lon="-4.27211">
        <ele>84</ele>
        <time>2018-10-09T15:17:05Z</time>
      </trkpt>
      <trkpt lat="48.50588" lon="-4.27212">
        <ele>84</ele>
        <time>2018-10-09T15:17:10Z</time>
      </trkpt>
      <trkpt lat="48.50593" lon="-4.27213">
        <ele>84</ele>
        <time>2018-10-09T15:17:15Z</time>
      </trkpt>
      <trkpt lat="48.50598" lon="-4.27213">
        <ele>83</ele>
        <time>2018-10-09T15:17:20Z</time>
      </trkpt>
      <trkpt lat="48.506" lon="-4.27213">
        <ele>83</ele>
        <time>2018-10-09T15:17:25Z</time>
      </trkpt>
      <trkpt lat="48.50601" lon="-4.27213">
        <ele>83</ele>
        <time>2018-10-09T15:17:30Z</time>
      </trkpt>
      <trkpt lat="48.50603" lon="-4.27212">
        <ele>83</ele>
        <time>2018-10-09T15:17:40Z</time>
      </trkpt>
      <trkpt lat="48.50608" lon="-4.27213">
        <ele>83</ele>
        <time>2018-10-09T15:17:45Z</time>
      </trkpt>
      <trkpt lat="48.50613" lon="-4.27213">
        <ele>83</ele>
        <time>2018-10-09T15:17:50Z</time>
      </trkpt>
      <trkpt lat="48.50617" lon="-4.27211">
        <ele>83</ele>
        <time>2018-10-09T15:17:55Z</time>
      </trkpt>
      <trkpt lat="48.50621" lon="-4.27208">
        <ele>83</ele>
        <time>2018-10-09T15:18:00Z</time>
      </trkpt>
      <trkpt lat="48.50625" lon="-4.27207">
        <ele>83</ele>
        <time>2018-10-09T15:18:05Z</time>
      </trkpt>
      <trkpt lat="48.50629" lon="-4.27203">
        <ele>83</ele>
        <time>2018-10-09T15:18:10Z</time>
      </trkpt>
      <trkpt lat="48.50633" lon="-4.272">
        <ele>83</ele>
        <time>2018-10-09T15:18:15Z</time>
      </trkpt>
      <trkpt lat="48.50637" lon="-4.27198">
        <ele>83</ele>
        <time>2018-10-09T15:18:20Z</time>
      </trkpt>
      <trkpt lat="48.50641" lon="-4.27194">
        <ele>83</ele>
        <time>2018-10-09T15:18:25Z</time>
      </trkpt>
      <trkpt lat="48.50644" lon="-4.27193">
        <ele>83</ele>
        <time>2018-10-09T15:18:30Z</time>
      </trkpt>
      <trkpt lat="48.50646" lon="-4.27194">
        <ele>83</ele>
        <time>2018-10-09T15:18:35Z</time>
      </trkpt>
      <trkpt lat="48.50649" lon="-4.27198">
        <ele>83</ele>
        <time>2018-10-09T15:18:40Z</time>
      </trkpt>
      <trkpt lat="48.50652" lon="-4.272">
        <ele>83</ele>
        <time>2018-10-09T15:18:45Z</time>
      </trkpt>
      <trkpt lat="48.50653" lon="-4.272">
        <ele>83</ele>
        <time>2018-10-09T15:19:25Z</time>
      </trkpt>
      <trkpt lat="48.50654" lon="-4.27201">
        <ele>84</ele>
        <time>2018-10-09T15:19:30Z</time>
      </trkpt>
      <trkpt lat="48.50655" lon="-4.27202">
        <ele>84</ele>
        <time>2018-10-09T15:19:35Z</time>
      </trkpt>
      <trkpt lat="48.50655" lon="-4.27203">
        <ele>84</ele>
        <time>2018-10-09T15:19:45Z</time>
      </trkpt>
      <trkpt lat="48.50656" lon="-4.27203">
        <ele>84</ele>
        <time>2018-10-09T15:19:50Z</time>
      </trkpt>
      <trkpt lat="48.50659" lon="-4.27209">
        <ele>84</ele>
        <time>2018-10-09T15:20:30Z</time>
      </trkpt>
      <trkpt lat="48.50659" lon="-4.27216">
        <ele>84</ele>
        <time>2018-10-09T15:20:35Z</time>
      </trkpt>
      <trkpt lat="48.50661" lon="-4.27223">
        <ele>84</ele>
        <time>2018-10-09T15:20:40Z</time>
      </trkpt>
      <trkpt lat="48.50662" lon="-4.2723">
        <ele>84</ele>
        <time>2018-10-09T15:20:45Z</time>
      </trkpt>
      <trkpt lat="48.50664" lon="-4.27237">
        <ele>84</ele>
        <time>2018-10-09T15:20:50Z</time>
      </trkpt>
      <trkpt lat="48.50666" lon="-4.27243">
        <ele>84</ele>
        <time>2018-10-09T15:20:55Z</time>
      </trkpt>
      <trkpt lat="48.50668" lon="-4.27249">
        <ele>84</ele>
        <time>2018-10-09T15:21:00Z</time>
      </trkpt>
      <trkpt lat="48.5067" lon="-4.27256">
        <ele>84</ele>
        <time>2018-10-09T15:21:05Z</time>
      </trkpt>
      <trkpt lat="48.50673" lon="-4.27263">
        <ele>84</ele>
        <time>2018-10-09T15:21:10Z</time>
      </trkpt>
      <trkpt lat="48.50677" lon="-4.2727">
        <ele>84</ele>
        <time>2018-10-09T15:21:15Z</time>
      </trkpt>
      <trkpt lat="48.50679" lon="-4.27274">
        <ele>84</ele>
        <time>2018-10-09T15:21:20Z</time>
      </trkpt>
      <trkpt lat="48.5068" lon="-4.27274">
        <ele>84</ele>
        <time>2018-10-09T15:21:35Z</time>
      </trkpt>
      <trkpt lat="48.50681" lon="-4.27273">
        <ele>84</ele>
        <time>2018-10-09T15:22:00Z</time>
      </trkpt>
      <trkpt lat="48.50682" lon="-4.27273">
        <ele>84</ele>
        <time>2018-10-09T15:22:10Z</time>
      </trkpt>
      <trkpt lat="48.50681" lon="-4.27273">
        <ele>84</ele>
        <time>2018-10-09T15:22:20Z</time>
      </trkpt>
      <trkpt lat="48.50681" lon="-4.27274">
        <ele>84</ele>
        <time>2018-10-09T15:22:35Z</time>
      </trkpt>
      <trkpt lat="48.5068" lon="-4.27278">
        <ele>84</ele>
        <time>2018-10-09T15:22:40Z</time>
      </trkpt>
      <trkpt lat="48.50679" lon="-4.27283">
        <ele>84</ele>
        <time>2018-10-09T15:22:45Z</time>
      </trkpt>
      <trkpt lat="48.50679" lon="-4.27289">
        <ele>84</ele>
        <time>2018-10-09T15:22:50Z</time>
      </trkpt>
      <trkpt lat="48.50681" lon="-4.27294">
        <ele>84</ele>
        <time>2018-10-09T15:22:55Z</time>
      </trkpt>
      <trkpt lat="48.50684" lon="-4.27299">
        <ele>84</ele>
        <time>2018-10-09T15:23:00Z</time>
      </trkpt>
      <trkpt lat="48.50686" lon="-4.27303">
        <ele>84</ele>
        <time>2018-10-09T15:23:05Z</time>
      </trkpt>
      <trkpt lat="48.50688" lon="-4.27314">
        <ele>84</ele>
        <time>2018-10-09T15:23:10Z</time>
      </trkpt>
      <trkpt lat="48.50691" lon="-4.27323">
        <ele>84</ele>
        <time>2018-10-09T15:23:15Z</time>
      </trkpt>
      <trkpt lat="48.50694" lon="-4.27331">
        <ele>84</ele>
        <time>2018-10-09T15:23:20Z</time>
      </trkpt>
      <trkpt lat="48.50696" lon="-4.27338">
        <ele>84</ele>
        <time>2018-10-09T15:23:25Z</time>
      </trkpt>
      <trkpt lat="48.50698" lon="-4.27346">
        <ele>84</ele>
        <time>2018-10-09T15:23:30Z</time>
      </trkpt>
      <trkpt lat="48.507" lon="-4.27355">
        <ele>84</ele>
        <time>2018-10-09T15:23:35Z</time>
      </trkpt>
      <trkpt lat="48.50702" lon="-4.27363">
        <ele>84</ele>
        <time>2018-10-09T15:23:40Z</time>
      </trkpt>
      <trkpt lat="48.50705" lon="-4.27371">
        <ele>83</ele>
        <time>2018-10-09T15:23:45Z</time>
      </trkpt>
      <trkpt lat="48.50707" lon="-4.27379">
        <ele>83</ele>
        <time>2018-10-09T15:23:50Z</time>
      </trkpt>
      <trkpt lat="48.50709" lon="-4.27387">
        <ele>83</ele>
        <time>2018-10-09T15:23:55Z</time>
      </trkpt>
      <trkpt lat="48.50712" lon="-4.27395">
        <ele>83</ele>
        <time>2018-10-09T15:24:00Z</time>
      </trkpt>
      <trkpt lat="48.50715" lon="-4.27402">
        <ele>83</ele>
        <time>2018-10-09T15:24:05Z</time>
      </trkpt>
      <trkpt lat="48.50718" lon="-4.2741">
        <ele>83</ele>
        <time>2018-10-09T15:24:10Z</time>
      </trkpt>
      <trkpt lat="48.5072" lon="-4.27419">
        <ele>83</ele>
        <time>2018-10-09T15:24:15Z</time>
      </trkpt>
      <trkpt lat="48.50722" lon="-4.27428">
        <ele>83</ele>
        <time>2018-10-09T15:24:20Z</time>
      </trkpt>
      <trkpt lat="48.50724" lon="-4.27437">
        <ele>83</ele>
        <time>2018-10-09T15:24:25Z</time>
      </trkpt>
      <trkpt lat="48.50727" lon="-4.27445">
        <ele>83</ele>
        <time>2018-10-09T15:24:30Z</time>
      </trkpt>
      <trkpt lat="48.50729" lon="-4.27453">
        <ele>83</ele>
        <time>2018-10-09T15:24:35Z</time>
      </trkpt>
      <trkpt lat="48.50732" lon="-4.2746">
        <ele>83</ele>
        <time>2018-10-09T15:24:40Z</time>
      </trkpt>
      <trkpt lat="48.50734" lon="-4.27467">
        <ele>83</ele>
        <time>2018-10-09T15:24:45Z</time>
      </trkpt>
      <trkpt lat="48.50736" lon="-4.27474">
        <ele>83</ele>
        <time>2018-10-09T15:24:50Z</time>
      </trkpt>
      <trkpt lat="48.50739" lon="-4.27481">
        <ele>83</ele>
        <time>2018-10-09T15:24:55Z</time>
      </trkpt>
      <trkpt lat="48.50742" lon="-4.27489">
        <ele>83</ele>
        <time>2018-10-09T15:25:00Z</time>
      </trkpt>
      <trkpt lat="48.50746" lon="-4.27496">
        <ele>83</ele>
        <time>2018-10-09T15:25:05Z</time>
      </trkpt>
      <trkpt lat="48.50749" lon="-4.27503">
        <ele>83</ele>
        <time>2018-10-09T15:25:10Z</time>
      </trkpt>
      <trkpt lat="48.50753" lon="-4.2751">
        <ele>83</ele>
        <time>2018-10-09T15:25:15Z</time>
      </trkpt>
      <trkpt lat="48.50756" lon="-4.27517">
        <ele>83</ele>
        <time>2018-10-09T15:25:20Z</time>
      </trkpt>
      <trkpt lat="48.5076" lon="-4.27523">
        <ele>83</ele>
        <time>2018-10-09T15:25:25Z</time>
      </trkpt>
      <trkpt lat="48.50764" lon="-4.2753">
        <ele>83</ele>
        <time>2018-10-09T15:25:30Z</time>
      </trkpt>
      <trkpt lat="48.50767" lon="-4.27538">
        <ele>83</ele>
        <time>2018-10-09T15:25:35Z</time>
      </trkpt>
      <trkpt lat="48.5077" lon="-4.27546">
        <ele>83</ele>
        <time>2018-10-09T15:25:40Z</time>
      </trkpt>
      <trkpt lat="48.50774" lon="-4.27553">
        <ele>83</ele>
        <time>2018-10-09T15:25:45Z</time>
      </trkpt>
      <trkpt lat="48.50778" lon="-4.27558">
        <ele>83</ele>
        <time>2018-10-09T15:25:50Z</time>
      </trkpt>
      <trkpt lat="48.50781" lon="-4.27565">
        <ele>83</ele>
        <time>2018-10-09T15:25:55Z</time>
      </trkpt>
      <trkpt lat="48.50784" lon="-4.27574">
        <ele>83</ele>
        <time>2018-10-09T15:26:00Z</time>
      </trkpt>
      <trkpt lat="48.50787" lon="-4.27582">
        <ele>83</ele>
        <time>2018-10-09T15:26:05Z</time>
      </trkpt>
      <trkpt lat="48.50791" lon="-4.27587">
        <ele>82</ele>
        <time>2018-10-09T15:26:10Z</time>
      </trkpt>
      <trkpt lat="48.50794" lon="-4.27593">
        <ele>82</ele>
        <time>2018-10-09T15:26:15Z</time>
      </trkpt>
      <trkpt lat="48.50798" lon="-4.27599">
        <ele>82</ele>
        <time>2018-10-09T15:26:20Z</time>
      </trkpt>
      <trkpt lat="48.50801" lon="-4.27605">
        <ele>81</ele>
        <time>2018-10-09T15:26:25Z</time>
      </trkpt>
      <trkpt lat="48.50804" lon="-4.27611">
        <ele>81</ele>
        <time>2018-10-09T15:26:30Z</time>
      </trkpt>
      <trkpt lat="48.50808" lon="-4.27618">
        <ele>81</ele>
        <time>2018-10-09T15:26:35Z</time>
      </trkpt>
      <trkpt lat="48.50811" lon="-4.27624">
        <ele>81</ele>
        <time>2018-10-09T15:26:40Z</time>
      </trkpt>
      <trkpt lat="48.50815" lon="-4.27631">
        <ele>81</ele>
        <time>2018-10-09T15:26:45Z</time>
      </trkpt>
      <trkpt lat="48.50818" lon="-4.27636">
        <ele>81</ele>
        <time>2018-10-09T15:26:50Z</time>
      </trkpt>
      <trkpt lat="48.50821" lon="-4.27643">
        <ele>81</ele>
        <time>2018-10-09T15:26:55Z</time>
      </trkpt>
      <trkpt lat="48.50824" lon="-4.2765">
        <ele>81</ele>
        <time>2018-10-09T15:27:00Z</time>
      </trkpt>
      <trkpt lat="48.50828" lon="-4.27656">
        <ele>81</ele>
        <time>2018-10-09T15:27:05Z</time>
      </trkpt>
      <trkpt lat="48.5083" lon="-4.27662">
        <ele>81</ele>
        <time>2018-10-09T15:27:10Z</time>
      </trkpt>
      <trkpt lat="48.50833" lon="-4.27667">
        <ele>81</ele>
        <time>2018-10-09T15:27:15Z</time>
      </trkpt>
      <trkpt lat="48.50836" lon="-4.27673">
        <ele>81</ele>
        <time>2018-10-09T15:27:20Z</time>
      </trkpt>
      <trkpt lat="48.5084" lon="-4.2768">
        <ele>81</ele>
        <time>2018-10-09T15:27:25Z</time>
      </trkpt>
      <trkpt lat="48.50842" lon="-4.27687">
        <ele>81</ele>
        <time>2018-10-09T15:27:30Z</time>
      </trkpt>
      <trkpt lat="48.50845" lon="-4.27693">
        <ele>80</ele>
        <time>2018-10-09T15:27:35Z</time>
      </trkpt>
      <trkpt lat="48.50849" lon="-4.27699">
        <ele>81</ele>
        <time>2018-10-09T15:27:40Z</time>
      </trkpt>
      <trkpt lat="48.50852" lon="-4.27705">
        <ele>81</ele>
        <time>2018-10-09T15:27:45Z</time>
      </trkpt>
      <trkpt lat="48.50856" lon="-4.2771">
        <ele>81</ele>
        <time>2018-10-09T15:27:50Z</time>
      </trkpt>
      <trkpt lat="48.50859" lon="-4.27716">
        <ele>81</ele>
        <time>2018-10-09T15:27:55Z</time>
      </trkpt>
      <trkpt lat="48.50863" lon="-4.27722">
        <ele>81</ele>
        <time>2018-10-09T15:28:00Z</time>
      </trkpt>
      <trkpt lat="48.50866" lon="-4.27727">
        <ele>81</ele>
        <time>2018-10-09T15:28:05Z</time>
      </trkpt>
      <trkpt lat="48.5087" lon="-4.27733">
        <ele>81</ele>
        <time>2018-10-09T15:28:10Z</time>
      </trkpt>
      <trkpt lat="48.50874" lon="-4.27738">
        <ele>81</ele>
        <time>2018-10-09T15:28:15Z</time>
      </trkpt>
      <trkpt lat="48.50878" lon="-4.27743">
        <ele>81</ele>
        <time>2018-10-09T15:28:20Z</time>
      </trkpt>
      <trkpt lat="48.50882" lon="-4.27748">
        <ele>81</ele>
        <time>2018-10-09T15:28:25Z</time>
      </trkpt>
      <trkpt lat="48.50886" lon="-4.27753">
        <ele>81</ele>
        <time>2018-10-09T15:28:30Z</time>
      </trkpt>
      <trkpt lat="48.50889" lon="-4.27759">
        <ele>81</ele>
        <time>2018-10-09T15:28:35Z</time>
      </trkpt>
      <trkpt lat="48.50893" lon="-4.27765">
        <ele>81</ele>
        <time>2018-10-09T15:28:40Z</time>
      </trkpt>
      <trkpt lat="48.50896" lon="-4.2777">
        <ele>81</ele>
        <time>2018-10-09T15:28:45Z</time>
      </trkpt>
      <trkpt lat="48.509" lon="-4.27775">
        <ele>81</ele>
        <time>2018-10-09T15:28:50Z</time>
      </trkpt>
      <trkpt lat="48.50904" lon="-4.2778">
        <ele>81</ele>
        <time>2018-10-09T15:28:55Z</time>
      </trkpt>
      <trkpt lat="48.50907" lon="-4.27787">
        <ele>81</ele>
        <time>2018-10-09T15:29:00Z</time>
      </trkpt>
      <trkpt lat="48.5091" lon="-4.27795">
        <ele>81</ele>
        <time>2018-10-09T15:29:05Z</time>
      </trkpt>
      <trkpt lat="48.50914" lon="-4.27801">
        <ele>81</ele>
        <time>2018-10-09T15:29:10Z</time>
      </trkpt>
      <trkpt lat="48.50918" lon="-4.27808">
        <ele>81</ele>
        <time>2018-10-09T15:29:15Z</time>
      </trkpt>
      <trkpt lat="48.50921" lon="-4.27815">
        <ele>81</ele>
        <time>2018-10-09T15:29:20Z</time>
      </trkpt>
      <trkpt lat="48.50925" lon="-4.27823">
        <ele>81</ele>
        <time>2018-10-09T15:29:25Z</time>
      </trkpt>
      <trkpt lat="48.50927" lon="-4.27832">
        <ele>81</ele>
        <time>2018-10-09T15:29:30Z</time>
      </trkpt>
      <trkpt lat="48.5093" lon="-4.27838">
        <ele>81</ele>
        <time>2018-10-09T15:29:35Z</time>
      </trkpt>
      <trkpt lat="48.50932" lon="-4.27844">
        <ele>81</ele>
        <time>2018-10-09T15:29:40Z</time>
      </trkpt>
      <trkpt lat="48.50934" lon="-4.27851">
        <ele>81</ele>
        <time>2018-10-09T15:29:45Z</time>
      </trkpt>
      <trkpt lat="48.50937" lon="-4.27855">
        <ele>81</ele>
        <time>2018-10-09T15:29:50Z</time>
      </trkpt>
      <trkpt lat="48.50941" lon="-4.27862">
        <ele>81</ele>
        <time>2018-10-09T15:29:55Z</time>
      </trkpt>
      <trkpt lat="48.50944" lon="-4.27867">
        <ele>81</ele>
        <time>2018-10-09T15:30:00Z</time>
      </trkpt>
      <trkpt lat="48.50947" lon="-4.27873">
        <ele>81</ele>
        <time>2018-10-09T15:30:05Z</time>
      </trkpt>
      <trkpt lat="48.50949" lon="-4.27879">
        <ele>81</ele>
        <time>2018-10-09T15:30:10Z</time>
      </trkpt>
      <trkpt lat="48.50952" lon="-4.27885">
        <ele>81</ele>
        <time>2018-10-09T15:30:15Z</time>
      </trkpt>
      <trkpt lat="48.50955" lon="-4.27892">
        <ele>81</ele>
        <time>2018-10-09T15:30:20Z</time>
      </trkpt>
      <trkpt lat="48.50958" lon="-4.27898">
        <ele>81</ele>
        <time>2018-10-09T15:30:25Z</time>
      </trkpt>
      <trkpt lat="48.50961" lon="-4.27904">
        <ele>82</ele>
        <time>2018-10-09T15:30:30Z</time>
      </trkpt>
      <trkpt lat="48.50964" lon="-4.27911">
        <ele>82</ele>
        <time>2018-10-09T15:30:35Z</time>
      </trkpt>
      <trkpt lat="48.50966" lon="-4.27917">
        <ele>82</ele>
        <time>2018-10-09T15:30:40Z</time>
      </trkpt>
      <trkpt lat="48.5097" lon="-4.27923">
        <ele>82</ele>
        <time>2018-10-09T15:30:45Z</time>
      </trkpt>
      <trkpt lat="48.50973" lon="-4.2793">
        <ele>82</ele>
        <time>2018-10-09T15:30:50Z</time>
      </trkpt>
      <trkpt lat="48.50976" lon="-4.27936">
        <ele>82</ele>
        <time>2018-10-09T15:30:55Z</time>
      </trkpt>
      <trkpt lat="48.50979" lon="-4.27942">
        <ele>82</ele>
        <time>2018-10-09T15:31:00Z</time>
      </trkpt>
      <trkpt lat="48.50982" lon="-4.27949">
        <ele>82</ele>
        <time>2018-10-09T15:31:05Z</time>
      </trkpt>
      <trkpt lat="48.50984" lon="-4.27955">
        <ele>82</ele>
        <time>2018-10-09T15:31:10Z</time>
      </trkpt>
      <trkpt lat="48.50988" lon="-4.27961">
        <ele>82</ele>
        <time>2018-10-09T15:31:15Z</time>
      </trkpt>
      <trkpt lat="48.50991" lon="-4.27967">
        <ele>82</ele>
        <time>2018-10-09T15:31:20Z</time>
      </trkpt>
      <trkpt lat="48.50995" lon="-4.27974">
        <ele>81</ele>
        <time>2018-10-09T15:31:25Z</time>
      </trkpt>
      <trkpt lat="48.50998" lon="-4.2798">
        <ele>81</ele>
        <time>2018-10-09T15:31:30Z</time>
      </trkpt>
      <trkpt lat="48.51001" lon="-4.27986">
        <ele>81</ele>
        <time>2018-10-09T15:31:35Z</time>
      </trkpt>
      <trkpt lat="48.51004" lon="-4.27992">
        <ele>81</ele>
        <time>2018-10-09T15:31:40Z</time>
      </trkpt>
      <trkpt lat="48.51007" lon="-4.27997">
        <ele>81</ele>
        <time>2018-10-09T15:31:45Z</time>
      </trkpt>
      <trkpt lat="48.5101" lon="-4.28003">
        <ele>81</ele>
        <time>2018-10-09T15:31:50Z</time>
      </trkpt>
      <trkpt lat="48.51014" lon="-4.28009">
        <ele>81</ele>
        <time>2018-10-09T15:31:55Z</time>
      </trkpt>
      <trkpt lat="48.51016" lon="-4.28015">
        <ele>81</ele>
        <time>2018-10-09T15:32:00Z</time>
      </trkpt>
      <trkpt lat="48.51018" lon="-4.28022">
        <ele>81</ele>
        <time>2018-10-09T15:32:05Z</time>
      </trkpt>
      <trkpt lat="48.51021" lon="-4.28029">
        <ele>81</ele>
        <time>2018-10-09T15:32:10Z</time>
      </trkpt>
      <trkpt lat="48.51024" lon="-4.28035">
        <ele>81</ele>
        <time>2018-10-09T15:32:15Z</time>
      </trkpt>
      <trkpt lat="48.51027" lon="-4.28041">
        <ele>81</ele>
        <time>2018-10-09T15:32:20Z</time>
      </trkpt>
      <trkpt lat="48.5103" lon="-4.28047">
        <ele>81</ele>
        <time>2018-10-09T15:32:25Z</time>
      </trkpt>
      <trkpt lat="48.51033" lon="-4.28053">
        <ele>81</ele>
        <time>2018-10-09T15:32:30Z</time>
      </trkpt>
      <trkpt lat="48.51036" lon="-4.28058">
        <ele>81</ele>
        <time>2018-10-09T15:32:35Z</time>
      </trkpt>
      <trkpt lat="48.51037" lon="-4.28061">
        <ele>81</ele>
        <time>2018-10-09T15:32:40Z</time>
      </trkpt>
      <trkpt lat="48.51038" lon="-4.28064">
        <ele>81</ele>
        <time>2018-10-09T15:32:45Z</time>
      </trkpt>
      <trkpt lat="48.51041" lon="-4.28068">
        <ele>81</ele>
        <time>2018-10-09T15:32:50Z</time>
      </trkpt>
      <trkpt lat="48.51043" lon="-4.28074">
        <ele>82</ele>
        <time>2018-10-09T15:32:55Z</time>
      </trkpt>
      <trkpt lat="48.51046" lon="-4.2808">
        <ele>82</ele>
        <time>2018-10-09T15:33:00Z</time>
      </trkpt>
      <trkpt lat="48.51049" lon="-4.28086">
        <ele>82</ele>
        <time>2018-10-09T15:33:05Z</time>
      </trkpt>
      <trkpt lat="48.51051" lon="-4.28093">
        <ele>82</ele>
        <time>2018-10-09T15:33:10Z</time>
      </trkpt>
      <trkpt lat="48.51054" lon="-4.28099">
        <ele>82</ele>
        <time>2018-10-09T15:33:15Z</time>
      </trkpt>
      <trkpt lat="48.51056" lon="-4.28106">
        <ele>82</ele>
        <time>2018-10-09T15:33:20Z</time>
      </trkpt>
      <trkpt lat="48.51059" lon="-4.28112">
        <ele>82</ele>
        <time>2018-10-09T15:33:25Z</time>
      </trkpt>
      <trkpt lat="48.51062" lon="-4.28118">
        <ele>82</ele>
        <time>2018-10-09T15:33:30Z</time>
      </trkpt>
      <trkpt lat="48.51066" lon="-4.28124">
        <ele>83</ele>
        <time>2018-10-09T15:33:35Z</time>
      </trkpt>
      <trkpt lat="48.51069" lon="-4.2813">
        <ele>83</ele>
        <time>2018-10-09T15:33:40Z</time>
      </trkpt>
      <trkpt lat="48.51073" lon="-4.28136">
        <ele>83</ele>
        <time>2018-10-09T15:33:45Z</time>
      </trkpt>
      <trkpt lat="48.51075" lon="-4.28143">
        <ele>84</ele>
        <time>2018-10-09T15:33:50Z</time>
      </trkpt>
      <trkpt lat="48.51078" lon="-4.2815">
        <ele>84</ele>
        <time>2018-10-09T15:33:55Z</time>
      </trkpt>
      <trkpt lat="48.5108" lon="-4.28157">
        <ele>84</ele>
        <time>2018-10-09T15:34:00Z</time>
      </trkpt>
      <trkpt lat="48.51082" lon="-4.28163">
        <ele>84</ele>
        <time>2018-10-09T15:34:05Z</time>
      </trkpt>
      <trkpt lat="48.51085" lon="-4.28166">
        <ele>84</ele>
        <time>2018-10-09T15:34:10Z</time>
      </trkpt>
      <trkpt lat="48.51088" lon="-4.28169">
        <ele>84</ele>
        <time>2018-10-09T15:34:15Z</time>
      </trkpt>
      <trkpt lat="48.51088" lon="-4.28172">
        <ele>84</ele>
        <time>2018-10-09T15:34:20Z</time>
      </trkpt>
      <trkpt lat="48.51086" lon="-4.28177">
        <ele>84</ele>
        <time>2018-10-09T15:34:25Z</time>
      </trkpt>
      <trkpt lat="48.51086" lon="-4.28176">
        <ele>84</ele>
        <time>2018-10-09T15:34:30Z</time>
      </trkpt>
      <trkpt lat="48.51087" lon="-4.28171">
        <ele>84</ele>
        <time>2018-10-09T15:34:35Z</time>
      </trkpt>
      <trkpt lat="48.51088" lon="-4.28171">
        <ele>84</ele>
        <time>2018-10-09T15:34:40Z</time>
      </trkpt>
      <trkpt lat="48.51088" lon="-4.28172">
        <ele>84</ele>
        <time>2018-10-09T15:34:45Z</time>
      </trkpt>
      <trkpt lat="48.51089" lon="-4.28171">
        <ele>84</ele>
        <time>2018-10-09T15:34:55Z</time>
      </trkpt>
      <trkpt lat="48.51089" lon="-4.28172">
        <ele>84</ele>
        <time>2018-10-09T15:35:00Z</time>
      </trkpt>
      <trkpt lat="48.5109" lon="-4.28172">
        <ele>84</ele>
        <time>2018-10-09T15:35:20Z</time>
      </trkpt>
      <trkpt lat="48.51091" lon="-4.28172">
        <ele>84</ele>
        <time>2018-10-09T15:35:40Z</time>
      </trkpt>
      <trkpt lat="48.51091" lon="-4.28173">
        <ele>84</ele>
        <time>2018-10-09T15:35:50Z</time>
      </trkpt>
      <trkpt lat="48.51091" lon="-4.28174">
        <ele>84</ele>
        <time>2018-10-09T15:36:05Z</time>
      </trkpt>
      <trkpt lat="48.51091" lon="-4.28175">
        <ele>84</ele>
        <time>2018-10-09T15:36:40Z</time>
      </trkpt>
      <trkpt lat="48.51092" lon="-4.28174">
        <ele>84</ele>
        <time>2018-10-09T15:36:45Z</time>
      </trkpt>
      <trkpt lat="48.51093" lon="-4.28173">
        <ele>84</ele>
        <time>2018-10-09T15:36:50Z</time>
      </trkpt>
      <trkpt lat="48.51096" lon="-4.28169">
        <ele>84</ele>
        <time>2018-10-09T15:36:55Z</time>
      </trkpt>
      <trkpt lat="48.51098" lon="-4.28166">
        <ele>83</ele>
        <time>2018-10-09T15:37:00Z</time>
      </trkpt>
      <trkpt lat="48.511" lon="-4.28164">
        <ele>83</ele>
        <time>2018-10-09T15:37:05Z</time>
      </trkpt>
      <trkpt lat="48.51103" lon="-4.28162">
        <ele>83</ele>
        <time>2018-10-09T15:37:10Z</time>
      </trkpt>
      <trkpt lat="48.51107" lon="-4.2816">
        <ele>83</ele>
        <time>2018-10-09T15:37:15Z</time>
      </trkpt>
      <trkpt lat="48.51111" lon="-4.28153">
        <ele>83</ele>
        <time>2018-10-09T15:37:20Z</time>
      </trkpt>
      <trkpt lat="48.51115" lon="-4.28145">
        <ele>82</ele>
        <time>2018-10-09T15:37:25Z</time>
      </trkpt>
      <trkpt lat="48.51119" lon="-4.2814">
        <ele>82</ele>
        <time>2018-10-09T15:37:30Z</time>
      </trkpt>
      <trkpt lat="48.51123" lon="-4.28136">
        <ele>82</ele>
        <time>2018-10-09T15:37:35Z</time>
      </trkpt>
      <trkpt lat="48.51127" lon="-4.28132">
        <ele>83</ele>
        <time>2018-10-09T15:37:40Z</time>
      </trkpt>
      <trkpt lat="48.51129" lon="-4.28129">
        <ele>83</ele>
        <time>2018-10-09T15:37:45Z</time>
      </trkpt>
      <trkpt lat="48.51134" lon="-4.28125">
        <ele>83</ele>
        <time>2018-10-09T15:37:50Z</time>
      </trkpt>
      <trkpt lat="48.51138" lon="-4.28122">
        <ele>83</ele>
        <time>2018-10-09T15:37:55Z</time>
      </trkpt>
      <trkpt lat="48.51141" lon="-4.28118">
        <ele>83</ele>
        <time>2018-10-09T15:38:00Z</time>
      </trkpt>
      <trkpt lat="48.51145" lon="-4.28115">
        <ele>83</ele>
        <time>2018-10-09T15:38:05Z</time>
      </trkpt>
      <trkpt lat="48.51149" lon="-4.2811">
        <ele>84</ele>
        <time>2018-10-09T15:38:10Z</time>
      </trkpt>
      <trkpt lat="48.51153" lon="-4.28105">
        <ele>84</ele>
        <time>2018-10-09T15:38:15Z</time>
      </trkpt>
      <trkpt lat="48.51158" lon="-4.28101">
        <ele>84</ele>
        <time>2018-10-09T15:38:20Z</time>
      </trkpt>
      <trkpt lat="48.51161" lon="-4.28095">
        <ele>84</ele>
        <time>2018-10-09T15:38:25Z</time>
      </trkpt>
      <trkpt lat="48.51167" lon="-4.28089">
        <ele>84</ele>
        <time>2018-10-09T15:38:30Z</time>
      </trkpt>
      <trkpt lat="48.51169" lon="-4.28083">
        <ele>84</ele>
        <time>2018-10-09T15:38:35Z</time>
      </trkpt>
      <trkpt lat="48.51173" lon="-4.28078">
        <ele>84</ele>
        <time>2018-10-09T15:38:40Z</time>
      </trkpt>
      <trkpt lat="48.51177" lon="-4.28073">
        <ele>84</ele>
        <time>2018-10-09T15:38:45Z</time>
      </trkpt>
      <trkpt lat="48.51182" lon="-4.28067">
        <ele>84</ele>
        <time>2018-10-09T15:38:50Z</time>
      </trkpt>
      <trkpt lat="48.51186" lon="-4.28064">
        <ele>84</ele>
        <time>2018-10-09T15:38:55Z</time>
      </trkpt>
      <trkpt lat="48.5119" lon="-4.28059">
        <ele>84</ele>
        <time>2018-10-09T15:39:00Z</time>
      </trkpt>
      <trkpt lat="48.51195" lon="-4.28054">
        <ele>84</ele>
        <time>2018-10-09T15:39:05Z</time>
      </trkpt>
      <trkpt lat="48.51198" lon="-4.28049">
        <ele>84</ele>
        <time>2018-10-09T15:39:10Z</time>
      </trkpt>
      <trkpt lat="48.51202" lon="-4.28045">
        <ele>83</ele>
        <time>2018-10-09T15:39:15Z</time>
      </trkpt>
      <trkpt lat="48.51206" lon="-4.28038">
        <ele>83</ele>
        <time>2018-10-09T15:39:20Z</time>
      </trkpt>
      <trkpt lat="48.51211" lon="-4.28033">
        <ele>83</ele>
        <time>2018-10-09T15:39:25Z</time>
      </trkpt>
      <trkpt lat="48.51213" lon="-4.28028">
        <ele>83</ele>
        <time>2018-10-09T15:39:30Z</time>
      </trkpt>
      <trkpt lat="48.51217" lon="-4.28023">
        <ele>83</ele>
        <time>2018-10-09T15:39:35Z</time>
      </trkpt>
      <trkpt lat="48.5122" lon="-4.28017">
        <ele>83</ele>
        <time>2018-10-09T15:39:40Z</time>
      </trkpt>
      <trkpt lat="48.51224" lon="-4.28012">
        <ele>83</ele>
        <time>2018-10-09T15:39:45Z</time>
      </trkpt>
      <trkpt lat="48.5123" lon="-4.28006">
        <ele>83</ele>
        <time>2018-10-09T15:39:50Z</time>
      </trkpt>
      <trkpt lat="48.51233" lon="-4.28002">
        <ele>83</ele>
        <time>2018-10-09T15:39:55Z</time>
      </trkpt>
      <trkpt lat="48.51237" lon="-4.27997">
        <ele>83</ele>
        <time>2018-10-09T15:40:00Z</time>
      </trkpt>
      <trkpt lat="48.5124" lon="-4.27993">
        <ele>83</ele>
        <time>2018-10-09T15:40:05Z</time>
      </trkpt>
      <trkpt lat="48.51245" lon="-4.27987">
        <ele>83</ele>
        <time>2018-10-09T15:40:10Z</time>
      </trkpt>
      <trkpt lat="48.5125" lon="-4.27982">
        <ele>83</ele>
        <time>2018-10-09T15:40:15Z</time>
      </trkpt>
      <trkpt lat="48.51256" lon="-4.27977">
        <ele>84</ele>
        <time>2018-10-09T15:40:20Z</time>
      </trkpt>
      <trkpt lat="48.51261" lon="-4.27971">
        <ele>84</ele>
        <time>2018-10-09T15:40:25Z</time>
      </trkpt>
      <trkpt lat="48.51264" lon="-4.27966">
        <ele>84</ele>
        <time>2018-10-09T15:40:30Z</time>
      </trkpt>
      <trkpt lat="48.51268" lon="-4.27961">
        <ele>84</ele>
        <time>2018-10-09T15:40:35Z</time>
      </trkpt>
      <trkpt lat="48.51271" lon="-4.27956">
        <ele>84</ele>
        <time>2018-10-09T15:40:40Z</time>
      </trkpt>
      <trkpt lat="48.51273" lon="-4.27951">
        <ele>85</ele>
        <time>2018-10-09T15:40:45Z</time>
      </trkpt>
      <trkpt lat="48.51278" lon="-4.27946">
        <ele>85</ele>
        <time>2018-10-09T15:40:50Z</time>
      </trkpt>
      <trkpt lat="48.51284" lon="-4.2794">
        <ele>85</ele>
        <time>2018-10-09T15:40:55Z</time>
      </trkpt>
      <trkpt lat="48.51288" lon="-4.27935">
        <ele>85</ele>
        <time>2018-10-09T15:41:00Z</time>
      </trkpt>
      <trkpt lat="48.51293" lon="-4.2793">
        <ele>85</ele>
        <time>2018-10-09T15:41:05Z</time>
      </trkpt>
      <trkpt lat="48.51297" lon="-4.27924">
        <ele>85</ele>
        <time>2018-10-09T15:41:10Z</time>
      </trkpt>
      <trkpt lat="48.513" lon="-4.27919">
        <ele>85</ele>
        <time>2018-10-09T15:41:15Z</time>
      </trkpt>
      <trkpt lat="48.51305" lon="-4.27913">
        <ele>85</ele>
        <time>2018-10-09T15:41:20Z</time>
      </trkpt>
      <trkpt lat="48.51308" lon="-4.27909">
        <ele>85</ele>
        <time>2018-10-09T15:41:25Z</time>
      </trkpt>
      <trkpt lat="48.51312" lon="-4.27904">
        <ele>84</ele>
        <time>2018-10-09T15:41:30Z</time>
      </trkpt>
      <trkpt lat="48.51315" lon="-4.279">
        <ele>84</ele>
        <time>2018-10-09T15:41:35Z</time>
      </trkpt>
      <trkpt lat="48.5132" lon="-4.27897">
        <ele>84</ele>
        <time>2018-10-09T15:41:40Z</time>
      </trkpt>
      <trkpt lat="48.51322" lon="-4.27894">
        <ele>84</ele>
        <time>2018-10-09T15:41:45Z</time>
      </trkpt>
      <trkpt lat="48.51326" lon="-4.27892">
        <ele>84</ele>
        <time>2018-10-09T15:41:50Z</time>
      </trkpt>
      <trkpt lat="48.51331" lon="-4.2789">
        <ele>84</ele>
        <time>2018-10-09T15:41:55Z</time>
      </trkpt>
      <trkpt lat="48.51337" lon="-4.27891">
        <ele>84</ele>
        <time>2018-10-09T15:42:00Z</time>
      </trkpt>
      <trkpt lat="48.51343" lon="-4.27891">
        <ele>84</ele>
        <time>2018-10-09T15:42:05Z</time>
      </trkpt>
      <trkpt lat="48.51346" lon="-4.27891">
        <ele>85</ele>
        <time>2018-10-09T15:42:10Z</time>
      </trkpt>
      <trkpt lat="48.51347" lon="-4.27891">
        <ele>85</ele>
        <time>2018-10-09T15:42:15Z</time>
      </trkpt>
      <trkpt lat="48.51347" lon="-4.27892">
        <ele>85</ele>
        <time>2018-10-09T15:42:20Z</time>
      </trkpt>
      <trkpt lat="48.51347" lon="-4.27893">
        <ele>85</ele>
        <time>2018-10-09T15:42:25Z</time>
      </trkpt>
      <trkpt lat="48.51347" lon="-4.27892">
        <ele>85</ele>
        <time>2018-10-09T15:42:30Z</time>
      </trkpt>
      <trkpt lat="48.51348" lon="-4.27891">
        <ele>85</ele>
        <time>2018-10-09T15:42:35Z</time>
      </trkpt>
      <trkpt lat="48.51347" lon="-4.27891">
        <ele>85</ele>
        <time>2018-10-09T15:42:40Z</time>
      </trkpt>
      <trkpt lat="48.51349" lon="-4.2789">
        <ele>85</ele>
        <time>2018-10-09T15:42:45Z</time>
      </trkpt>
      <trkpt lat="48.51349" lon="-4.27892">
        <ele>85</ele>
        <time>2018-10-09T15:42:50Z</time>
      </trkpt>
      <trkpt lat="48.51349" lon="-4.27891">
        <ele>85</ele>
        <time>2018-10-09T15:42:55Z</time>
      </trkpt>
      <trkpt lat="48.51349" lon="-4.27892">
        <ele>85</ele>
        <time>2018-10-09T15:43:00Z</time>
      </trkpt>
      <trkpt lat="48.51349" lon="-4.27893">
        <ele>85</ele>
        <time>2018-10-09T15:43:10Z</time>
      </trkpt>
      <trkpt lat="48.51349" lon="-4.27894">
        <ele>85</ele>
        <time>2018-10-09T15:43:25Z</time>
      </trkpt>
      <trkpt lat="48.5135" lon="-4.27894">
        <ele>85</ele>
        <time>2018-10-09T15:43:35Z</time>
      </trkpt>
      <trkpt lat="48.51351" lon="-4.27895">
        <ele>85</ele>
        <time>2018-10-09T15:43:40Z</time>
      </trkpt>
      <trkpt lat="48.51353" lon="-4.27891">
        <ele>85</ele>
        <time>2018-10-09T15:44:00Z</time>
      </trkpt>
      <trkpt lat="48.51357" lon="-4.27891">
        <ele>85</ele>
        <time>2018-10-09T15:44:05Z</time>
      </trkpt>
      <trkpt lat="48.51361" lon="-4.27894">
        <ele>85</ele>
        <time>2018-10-09T15:44:10Z</time>
      </trkpt>
      <trkpt lat="48.51364" lon="-4.27895">
        <ele>85</ele>
        <time>2018-10-09T15:44:15Z</time>
      </trkpt>
      <trkpt lat="48.51368" lon="-4.27894">
        <ele>85</ele>
        <time>2018-10-09T15:44:20Z</time>
      </trkpt>
      <trkpt lat="48.51371" lon="-4.27896">
        <ele>85</ele>
        <time>2018-10-09T15:44:25Z</time>
      </trkpt>
      <trkpt lat="48.51376" lon="-4.27898">
        <ele>84</ele>
        <time>2018-10-09T15:44:30Z</time>
      </trkpt>
      <trkpt lat="48.5138" lon="-4.27899">
        <ele>84</ele>
        <time>2018-10-09T15:44:35Z</time>
      </trkpt>
      <trkpt lat="48.51384" lon="-4.27898">
        <ele>84</ele>
        <time>2018-10-09T15:44:40Z</time>
      </trkpt>
      <trkpt lat="48.51388" lon="-4.279">
        <ele>84</ele>
        <time>2018-10-09T15:44:45Z</time>
      </trkpt>
      <trkpt lat="48.51393" lon="-4.27902">
        <ele>83</ele>
        <time>2018-10-09T15:44:50Z</time>
      </trkpt>
      <trkpt lat="48.51399" lon="-4.27904">
        <ele>83</ele>
        <time>2018-10-09T15:44:55Z</time>
      </trkpt>
      <trkpt lat="48.51401" lon="-4.27898">
        <ele>83</ele>
        <time>2018-10-09T15:45:00Z</time>
      </trkpt>
      <trkpt lat="48.51402" lon="-4.27892">
        <ele>83</ele>
        <time>2018-10-09T15:45:05Z</time>
      </trkpt>
      <trkpt lat="48.51402" lon="-4.27888">
        <ele>83</ele>
        <time>2018-10-09T15:45:10Z</time>
      </trkpt>
      <trkpt lat="48.51405" lon="-4.27884">
        <ele>83</ele>
        <time>2018-10-09T15:45:15Z</time>
      </trkpt>
      <trkpt lat="48.51406" lon="-4.27884">
        <ele>83</ele>
        <time>2018-10-09T15:45:20Z</time>
      </trkpt>
      <trkpt lat="48.51407" lon="-4.27883">
        <ele>83</ele>
        <time>2018-10-09T15:45:25Z</time>
      </trkpt>
      <trkpt lat="48.51406" lon="-4.27885">
        <ele>83</ele>
        <time>2018-10-09T15:45:35Z</time>
      </trkpt>
      <trkpt lat="48.51406" lon="-4.27886">
        <ele>83</ele>
        <time>2018-10-09T15:45:45Z</time>
      </trkpt>
      <trkpt lat="48.51405" lon="-4.27886">
        <ele>83</ele>
        <time>2018-10-09T15:46:00Z</time>
      </trkpt>
      <trkpt lat="48.51405" lon="-4.27885">
        <ele>83</ele>
        <time>2018-10-09T15:46:10Z</time>
      </trkpt>
      <trkpt lat="48.51404" lon="-4.27884">
        <ele>83</ele>
        <time>2018-10-09T15:46:35Z</time>
      </trkpt>
      <trkpt lat="48.51405" lon="-4.27884">
        <ele>83</ele>
        <time>2018-10-09T15:46:55Z</time>
      </trkpt>
      <trkpt lat="48.51405" lon="-4.27883">
        <ele>83</ele>
        <time>2018-10-09T15:47:00Z</time>
      </trkpt>
      <trkpt lat="48.51407" lon="-4.27879">
        <ele>83</ele>
        <time>2018-10-09T15:47:05Z</time>
      </trkpt>
      <trkpt lat="48.51409" lon="-4.27879">
        <ele>83</ele>
        <time>2018-10-09T15:47:10Z</time>
      </trkpt>
      <trkpt lat="48.51412" lon="-4.27877">
        <ele>83</ele>
        <time>2018-10-09T15:47:15Z</time>
      </trkpt>
      <trkpt lat="48.51413" lon="-4.27876">
        <ele>83</ele>
        <time>2018-10-09T15:47:20Z</time>
      </trkpt>
      <trkpt lat="48.51414" lon="-4.27876">
        <ele>83</ele>
        <time>2018-10-09T15:47:30Z</time>
      </trkpt>
      <trkpt lat="48.51414" lon="-4.2787">
        <ele>83</ele>
        <time>2018-10-09T15:47:40Z</time>
      </trkpt>
      <trkpt lat="48.51414" lon="-4.27864">
        <ele>83</ele>
        <time>2018-10-09T15:47:45Z</time>
      </trkpt>
      <trkpt lat="48.51413" lon="-4.27856">
        <ele>83</ele>
        <time>2018-10-09T15:47:50Z</time>
      </trkpt>
      <trkpt lat="48.51411" lon="-4.27852">
        <ele>83</ele>
        <time>2018-10-09T15:47:55Z</time>
      </trkpt>
      <trkpt lat="48.51413" lon="-4.2785">
        <ele>83</ele>
        <time>2018-10-09T15:48:00Z</time>
      </trkpt>
      <trkpt lat="48.51411" lon="-4.27848">
        <ele>83</ele>
        <time>2018-10-09T15:48:10Z</time>
      </trkpt>
      <trkpt lat="48.51408" lon="-4.27847">
        <ele>83</ele>
        <time>2018-10-09T15:48:15Z</time>
      </trkpt>
      <trkpt lat="48.51404" lon="-4.27846">
        <ele>83</ele>
        <time>2018-10-09T15:48:20Z</time>
      </trkpt>
      <trkpt lat="48.51402" lon="-4.27846">
        <ele>84</ele>
        <time>2018-10-09T15:48:25Z</time>
      </trkpt>
      <trkpt lat="48.51402" lon="-4.27845">
        <ele>84</ele>
        <time>2018-10-09T15:48:30Z</time>
      </trkpt>
      <trkpt lat="48.51402" lon="-4.27844">
        <ele>84</ele>
        <time>2018-10-09T15:48:40Z</time>
      </trkpt>
      <trkpt lat="48.514" lon="-4.27848">
        <ele>84</ele>
        <time>2018-10-09T15:49:00Z</time>
      </trkpt>
      <trkpt lat="48.51397" lon="-4.27852">
        <ele>84</ele>
        <time>2018-10-09T15:49:05Z</time>
      </trkpt>
      <trkpt lat="48.51394" lon="-4.27857">
        <ele>84</ele>
        <time>2018-10-09T15:49:10Z</time>
      </trkpt>
      <trkpt lat="48.51391" lon="-4.27861">
        <ele>84</ele>
        <time>2018-10-09T15:49:15Z</time>
      </trkpt>
      <trkpt lat="48.51387" lon="-4.27864">
        <ele>84</ele>
        <time>2018-10-09T15:49:20Z</time>
      </trkpt>
      <trkpt lat="48.51385" lon="-4.27867">
        <ele>84</ele>
        <time>2018-10-09T15:49:25Z</time>
      </trkpt>
      <trkpt lat="48.51384" lon="-4.27868">
        <ele>84</ele>
        <time>2018-10-09T15:49:30Z</time>
      </trkpt>
      <trkpt lat="48.51385" lon="-4.27869">
        <ele>84</ele>
        <time>2018-10-09T15:50:00Z</time>
      </trkpt>
      <trkpt lat="48.51387" lon="-4.27874">
        <ele>84</ele>
        <time>2018-10-09T15:50:05Z</time>
      </trkpt>
      <trkpt lat="48.51387" lon="-4.27877">
        <ele>84</ele>
        <time>2018-10-09T15:50:10Z</time>
      </trkpt>
      <trkpt lat="48.51386" lon="-4.27879">
        <ele>84</ele>
        <time>2018-10-09T15:50:15Z</time>
      </trkpt>
      <trkpt lat="48.51387" lon="-4.2788">
        <ele>84</ele>
        <time>2018-10-09T15:50:20Z</time>
      </trkpt>
      <trkpt lat="48.51387" lon="-4.27882">
        <ele>84</ele>
        <time>2018-10-09T15:50:25Z</time>
      </trkpt>
      <trkpt lat="48.51389" lon="-4.27884">
        <ele>84</ele>
        <time>2018-10-09T15:50:30Z</time>
      </trkpt>
      <trkpt lat="48.51392" lon="-4.27885">
        <ele>84</ele>
        <time>2018-10-09T15:50:35Z</time>
      </trkpt>
      <trkpt lat="48.51396" lon="-4.27884">
        <ele>84</ele>
        <time>2018-10-09T15:50:40Z</time>
      </trkpt>
      <trkpt lat="48.51399" lon="-4.27885">
        <ele>83</ele>
        <time>2018-10-09T15:50:45Z</time>
      </trkpt>
      <trkpt lat="48.51401" lon="-4.27891">
        <ele>83</ele>
        <time>2018-10-09T15:50:50Z</time>
      </trkpt>
      <trkpt lat="48.51402" lon="-4.27896">
        <ele>83</ele>
        <time>2018-10-09T15:50:55Z</time>
      </trkpt>
      <trkpt lat="48.51404" lon="-4.279">
        <ele>83</ele>
        <time>2018-10-09T15:51:00Z</time>
      </trkpt>
      <trkpt lat="48.51408" lon="-4.27902">
        <ele>82</ele>
        <time>2018-10-09T15:51:05Z</time>
      </trkpt>
      <trkpt lat="48.51412" lon="-4.27902">
        <ele>82</ele>
        <time>2018-10-09T15:51:10Z</time>
      </trkpt>
      <trkpt lat="48.51416" lon="-4.27903">
        <ele>82</ele>
        <time>2018-10-09T15:51:15Z</time>
      </trkpt>
      <trkpt lat="48.51419" lon="-4.27904">
        <ele>82</ele>
        <time>2018-10-09T15:51:20Z</time>
      </trkpt>
      <trkpt lat="48.51424" lon="-4.27906">
        <ele>82</ele>
        <time>2018-10-09T15:51:25Z</time>
      </trkpt>
      <trkpt lat="48.51429" lon="-4.27906">
        <ele>82</ele>
        <time>2018-10-09T15:51:30Z</time>
      </trkpt>
      <trkpt lat="48.51435" lon="-4.27907">
        <ele>82</ele>
        <time>2018-10-09T15:51:35Z</time>
      </trkpt>
      <trkpt lat="48.5144" lon="-4.27909">
        <ele>82</ele>
        <time>2018-10-09T15:51:40Z</time>
      </trkpt>
      <trkpt lat="48.51445" lon="-4.2791">
        <ele>82</ele>
        <time>2018-10-09T15:51:45Z</time>
      </trkpt>
      <trkpt lat="48.51448" lon="-4.27911">
        <ele>82</ele>
        <time>2018-10-09T15:51:50Z</time>
      </trkpt>
      <trkpt lat="48.51453" lon="-4.27911">
        <ele>82</ele>
        <time>2018-10-09T15:51:55Z</time>
      </trkpt>
      <trkpt lat="48.51457" lon="-4.27912">
        <ele>83</ele>
        <time>2018-10-09T15:52:00Z</time>
      </trkpt>
      <trkpt lat="48.51462" lon="-4.27913">
        <ele>83</ele>
        <time>2018-10-09T15:52:05Z</time>
      </trkpt>
      <trkpt lat="48.51466" lon="-4.27914">
        <ele>83</ele>
        <time>2018-10-09T15:52:10Z</time>
      </trkpt>
      <trkpt lat="48.5147" lon="-4.27918">
        <ele>83</ele>
        <time>2018-10-09T15:52:15Z</time>
      </trkpt>
      <trkpt lat="48.51474" lon="-4.2792">
        <ele>83</ele>
        <time>2018-10-09T15:52:20Z</time>
      </trkpt>
      <trkpt lat="48.51477" lon="-4.27922">
        <ele>83</ele>
        <time>2018-10-09T15:52:25Z</time>
      </trkpt>
      <trkpt lat="48.5148" lon="-4.27923">
        <ele>83</ele>
        <time>2018-10-09T15:52:30Z</time>
      </trkpt>
      <trkpt lat="48.51484" lon="-4.27923">
        <ele>83</ele>
        <time>2018-10-09T15:52:35Z</time>
      </trkpt>
      <trkpt lat="48.51489" lon="-4.27925">
        <ele>83</ele>
        <time>2018-10-09T15:52:40Z</time>
      </trkpt>
      <trkpt lat="48.51493" lon="-4.27924">
        <ele>84</ele>
        <time>2018-10-09T15:52:45Z</time>
      </trkpt>
      <trkpt lat="48.51499" lon="-4.27925">
        <ele>84</ele>
        <time>2018-10-09T15:52:50Z</time>
      </trkpt>
      <trkpt lat="48.51504" lon="-4.27925">
        <ele>84</ele>
        <time>2018-10-09T15:52:55Z</time>
      </trkpt>
      <trkpt lat="48.51508" lon="-4.27927">
        <ele>84</ele>
        <time>2018-10-09T15:53:00Z</time>
      </trkpt>
      <trkpt lat="48.5151" lon="-4.27928">
        <ele>84</ele>
        <time>2018-10-09T15:53:05Z</time>
      </trkpt>
      <trkpt lat="48.51515" lon="-4.27929">
        <ele>84</ele>
        <time>2018-10-09T15:53:10Z</time>
      </trkpt>
      <trkpt lat="48.51519" lon="-4.27933">
        <ele>84</ele>
        <time>2018-10-09T15:53:15Z</time>
      </trkpt>
      <trkpt lat="48.51525" lon="-4.27937">
        <ele>83</ele>
        <time>2018-10-09T15:53:20Z</time>
      </trkpt>
      <trkpt lat="48.51529" lon="-4.2794">
        <ele>83</ele>
        <time>2018-10-09T15:53:25Z</time>
      </trkpt>
      <trkpt lat="48.51532" lon="-4.27943">
        <ele>83</ele>
        <time>2018-10-09T15:53:30Z</time>
      </trkpt>
      <trkpt lat="48.51536" lon="-4.27944">
        <ele>82</ele>
        <time>2018-10-09T15:53:35Z</time>
      </trkpt>
      <trkpt lat="48.51541" lon="-4.27944">
        <ele>82</ele>
        <time>2018-10-09T15:53:40Z</time>
      </trkpt>
      <trkpt lat="48.51546" lon="-4.27941">
        <ele>82</ele>
        <time>2018-10-09T15:53:45Z</time>
      </trkpt>
      <trkpt lat="48.51548" lon="-4.27936">
        <ele>82</ele>
        <time>2018-10-09T15:53:50Z</time>
      </trkpt>
      <trkpt lat="48.5155" lon="-4.2793">
        <ele>82</ele>
        <time>2018-10-09T15:53:55Z</time>
      </trkpt>
      <trkpt lat="48.51553" lon="-4.27924">
        <ele>82</ele>
        <time>2018-10-09T15:54:00Z</time>
      </trkpt>
      <trkpt lat="48.51556" lon="-4.27919">
        <ele>82</ele>
        <time>2018-10-09T15:54:05Z</time>
      </trkpt>
      <trkpt lat="48.51557" lon="-4.27913">
        <ele>82</ele>
        <time>2018-10-09T15:54:10Z</time>
      </trkpt>
      <trkpt lat="48.51558" lon="-4.27908">
        <ele>82</ele>
        <time>2018-10-09T15:54:15Z</time>
      </trkpt>
      <trkpt lat="48.51561" lon="-4.27902">
        <ele>82</ele>
        <time>2018-10-09T15:54:20Z</time>
      </trkpt>
      <trkpt lat="48.51565" lon="-4.27898">
        <ele>82</ele>
        <time>2018-10-09T15:54:25Z</time>
      </trkpt>
      <trkpt lat="48.5157" lon="-4.27893">
        <ele>81</ele>
        <time>2018-10-09T15:54:30Z</time>
      </trkpt>
      <trkpt lat="48.51574" lon="-4.27889">
        <ele>81</ele>
        <time>2018-10-09T15:54:35Z</time>
      </trkpt>
      <trkpt lat="48.51577" lon="-4.27884">
        <ele>81</ele>
        <time>2018-10-09T15:54:40Z</time>
      </trkpt>
      <trkpt lat="48.51582" lon="-4.2788">
        <ele>80</ele>
        <time>2018-10-09T15:54:45Z</time>
      </trkpt>
      <trkpt lat="48.51586" lon="-4.27877">
        <ele>80</ele>
        <time>2018-10-09T15:54:50Z</time>
      </trkpt>
      <trkpt lat="48.5159" lon="-4.27874">
        <ele>80</ele>
        <time>2018-10-09T15:54:55Z</time>
      </trkpt>
      <trkpt lat="48.51595" lon="-4.27872">
        <ele>80</ele>
        <time>2018-10-09T15:55:00Z</time>
      </trkpt>
      <trkpt lat="48.51601" lon="-4.27869">
        <ele>80</ele>
        <time>2018-10-09T15:55:05Z</time>
      </trkpt>
      <trkpt lat="48.51605" lon="-4.27864">
        <ele>80</ele>
        <time>2018-10-09T15:55:10Z</time>
      </trkpt>
      <trkpt lat="48.51608" lon="-4.27859">
        <ele>80</ele>
        <time>2018-10-09T15:55:15Z</time>
      </trkpt>
      <trkpt lat="48.51613" lon="-4.27855">
        <ele>80</ele>
        <time>2018-10-09T15:55:20Z</time>
      </trkpt>
      <trkpt lat="48.51619" lon="-4.27851">
        <ele>80</ele>
        <time>2018-10-09T15:55:25Z</time>
      </trkpt>
      <trkpt lat="48.51621" lon="-4.27848">
        <ele>80</ele>
        <time>2018-10-09T15:55:30Z</time>
      </trkpt>
      <trkpt lat="48.51624" lon="-4.27846">
        <ele>81</ele>
        <time>2018-10-09T15:55:35Z</time>
      </trkpt>
      <trkpt lat="48.51626" lon="-4.27844">
        <ele>81</ele>
        <time>2018-10-09T15:55:40Z</time>
      </trkpt>
      <trkpt lat="48.5163" lon="-4.27843">
        <ele>81</ele>
        <time>2018-10-09T15:55:45Z</time>
      </trkpt>
      <trkpt lat="48.51634" lon="-4.27841">
        <ele>81</ele>
        <time>2018-10-09T15:55:50Z</time>
      </trkpt>
      <trkpt lat="48.51637" lon="-4.27839">
        <ele>81</ele>
        <time>2018-10-09T15:55:55Z</time>
      </trkpt>
      <trkpt lat="48.51642" lon="-4.27838">
        <ele>81</ele>
        <time>2018-10-09T15:56:00Z</time>
      </trkpt>
      <trkpt lat="48.51646" lon="-4.27839">
        <ele>81</ele>
        <time>2018-10-09T15:56:05Z</time>
      </trkpt>
      <trkpt lat="48.51649" lon="-4.27837">
        <ele>81</ele>
        <time>2018-10-09T15:56:10Z</time>
      </trkpt>
      <trkpt lat="48.51653" lon="-4.27836">
        <ele>81</ele>
        <time>2018-10-09T15:56:15Z</time>
      </trkpt>
      <trkpt lat="48.51658" lon="-4.27832">
        <ele>81</ele>
        <time>2018-10-09T15:56:20Z</time>
      </trkpt>
      <trkpt lat="48.51662" lon="-4.27829">
        <ele>81</ele>
        <time>2018-10-09T15:56:25Z</time>
      </trkpt>
      <trkpt lat="48.51666" lon="-4.27827">
        <ele>81</ele>
        <time>2018-10-09T15:56:30Z</time>
      </trkpt>
      <trkpt lat="48.51671" lon="-4.27825">
        <ele>81</ele>
        <time>2018-10-09T15:56:35Z</time>
      </trkpt>
      <trkpt lat="48.51676" lon="-4.27823">
        <ele>81</ele>
        <time>2018-10-09T15:56:40Z</time>
      </trkpt>
      <trkpt lat="48.51679" lon="-4.27823">
        <ele>81</ele>
        <time>2018-10-09T15:56:45Z</time>
      </trkpt>
      <trkpt lat="48.51683" lon="-4.27822">
        <ele>81</ele>
        <time>2018-10-09T15:56:50Z</time>
      </trkpt>
      <trkpt lat="48.51687" lon="-4.27821">
        <ele>81</ele>
        <time>2018-10-09T15:56:55Z</time>
      </trkpt>
      <trkpt lat="48.51691" lon="-4.2782">
        <ele>81</ele>
        <time>2018-10-09T15:57:00Z</time>
      </trkpt>
      <trkpt lat="48.51695" lon="-4.27819">
        <ele>82</ele>
        <time>2018-10-09T15:57:05Z</time>
      </trkpt>
      <trkpt lat="48.51699" lon="-4.27818">
        <ele>82</ele>
        <time>2018-10-09T15:57:10Z</time>
      </trkpt>
      <trkpt lat="48.517" lon="-4.27815">
        <ele>82</ele>
        <time>2018-10-09T15:57:15Z</time>
      </trkpt>
      <trkpt lat="48.51703" lon="-4.27813">
        <ele>82</ele>
        <time>2018-10-09T15:57:20Z</time>
      </trkpt>
      <trkpt lat="48.51703" lon="-4.2781">
        <ele>82</ele>
        <time>2018-10-09T15:57:25Z</time>
      </trkpt>
      <trkpt lat="48.51702" lon="-4.27805">
        <ele>82</ele>
        <time>2018-10-09T15:57:30Z</time>
      </trkpt>
      <trkpt lat="48.51699" lon="-4.27801">
        <ele>82</ele>
        <time>2018-10-09T15:57:35Z</time>
      </trkpt>
      <trkpt lat="48.51697" lon="-4.27794">
        <ele>83</ele>
        <time>2018-10-09T15:57:40Z</time>
      </trkpt>
      <trkpt lat="48.51695" lon="-4.27787">
        <ele>83</ele>
        <time>2018-10-09T15:57:45Z</time>
      </trkpt>
      <trkpt lat="48.51693" lon="-4.27781">
        <ele>83</ele>
        <time>2018-10-09T15:57:50Z</time>
      </trkpt>
      <trkpt lat="48.51693" lon="-4.27776">
        <ele>83</ele>
        <time>2018-10-09T15:57:55Z</time>
      </trkpt>
      <trkpt lat="48.51692" lon="-4.27769">
        <ele>83</ele>
        <time>2018-10-09T15:58:00Z</time>
      </trkpt>
      <trkpt lat="48.5169" lon="-4.27765">
        <ele>82</ele>
        <time>2018-10-09T15:58:05Z</time>
      </trkpt>
      <trkpt lat="48.51688" lon="-4.27762">
        <ele>82</ele>
        <time>2018-10-09T15:58:10Z</time>
      </trkpt>
      <trkpt lat="48.51686" lon="-4.27762">
        <ele>82</ele>
        <time>2018-10-09T15:58:15Z</time>
      </trkpt>
      <trkpt lat="48.51686" lon="-4.27763">
        <ele>82</ele>
        <time>2018-10-09T15:58:20Z</time>
      </trkpt>
      <trkpt lat="48.51685" lon="-4.27763">
        <ele>82</ele>
        <time>2018-10-09T15:58:25Z</time>
      </trkpt>
      <trkpt lat="48.51684" lon="-4.27763">
        <ele>82</ele>
        <time>2018-10-09T15:58:30Z</time>
      </trkpt>
      <trkpt lat="48.51683" lon="-4.27763">
        <ele>82</ele>
        <time>2018-10-09T15:58:35Z</time>
      </trkpt>
      <trkpt lat="48.51683" lon="-4.27764">
        <ele>82</ele>
        <time>2018-10-09T15:58:55Z</time>
      </trkpt>
      <trkpt lat="48.51684" lon="-4.27764">
        <ele>82</ele>
        <time>2018-10-09T15:59:00Z</time>
      </trkpt>
      <trkpt lat="48.51686" lon="-4.27766">
        <ele>82</ele>
        <time>2018-10-09T15:59:10Z</time>
      </trkpt>
      <trkpt lat="48.51683" lon="-4.27768">
        <ele>82</ele>
        <time>2018-10-09T15:59:15Z</time>
      </trkpt>
      <trkpt lat="48.51682" lon="-4.27769">
        <ele>82</ele>
        <time>2018-10-09T15:59:20Z</time>
      </trkpt>
      <trkpt lat="48.51682" lon="-4.2777">
        <ele>82</ele>
        <time>2018-10-09T15:59:30Z</time>
      </trkpt>
      <trkpt lat="48.51685" lon="-4.27769">
        <ele>82</ele>
        <time>2018-10-09T15:59:35Z</time>
      </trkpt>
      <trkpt lat="48.51685" lon="-4.27768">
        <ele>82</ele>
        <time>2018-10-09T15:59:40Z</time>
      </trkpt>
      <trkpt lat="48.51683" lon="-4.27768">
        <ele>82</ele>
        <time>2018-10-09T15:59:50Z</time>
      </trkpt>
      <trkpt lat="48.51681" lon="-4.27766">
        <ele>82</ele>
        <time>2018-10-09T15:59:55Z</time>
      </trkpt>
      <trkpt lat="48.51682" lon="-4.27763">
        <ele>82</ele>
        <time>2018-10-09T16:00:00Z</time>
      </trkpt>
      <trkpt lat="48.51682" lon="-4.27761">
        <ele>82</ele>
        <time>2018-10-09T16:00:15Z</time>
      </trkpt>
      <trkpt lat="48.51682" lon="-4.2776">
        <ele>82</ele>
        <time>2018-10-09T16:00:20Z</time>
      </trkpt>
      <trkpt lat="48.51683" lon="-4.27759">
        <ele>82</ele>
        <time>2018-10-09T16:00:25Z</time>
      </trkpt>
      <trkpt lat="48.51683" lon="-4.27757">
        <ele>82</ele>
        <time>2018-10-09T16:00:30Z</time>
      </trkpt>
      <trkpt lat="48.51682" lon="-4.27749">
        <ele>82</ele>
        <time>2018-10-09T16:00:35Z</time>
      </trkpt>
      <trkpt lat="48.51681" lon="-4.27741">
        <ele>81</ele>
        <time>2018-10-09T16:00:40Z</time>
      </trkpt>
      <trkpt lat="48.51684" lon="-4.27736">
        <ele>81</ele>
        <time>2018-10-09T16:00:45Z</time>
      </trkpt>
      <trkpt lat="48.51687" lon="-4.27731">
        <ele>82</ele>
        <time>2018-10-09T16:00:50Z</time>
      </trkpt>
      <trkpt lat="48.51689" lon="-4.27728">
        <ele>82</ele>
        <time>2018-10-09T16:00:55Z</time>
      </trkpt>
      <trkpt lat="48.5169" lon="-4.27721">
        <ele>82</ele>
        <time>2018-10-09T16:01:00Z</time>
      </trkpt>
      <trkpt lat="48.51689" lon="-4.2771">
        <ele>81</ele>
        <time>2018-10-09T16:01:05Z</time>
      </trkpt>
      <trkpt lat="48.51691" lon="-4.27704">
        <ele>81</ele>
        <time>2018-10-09T16:01:10Z</time>
      </trkpt>
      <trkpt lat="48.51693" lon="-4.27698">
        <ele>81</ele>
        <time>2018-10-09T16:01:15Z</time>
      </trkpt>
      <trkpt lat="48.51696" lon="-4.27694">
        <ele>81</ele>
        <time>2018-10-09T16:01:20Z</time>
      </trkpt>
      <trkpt lat="48.51695" lon="-4.27687">
        <ele>81</ele>
        <time>2018-10-09T16:01:25Z</time>
      </trkpt>
      <trkpt lat="48.51695" lon="-4.27682">
        <ele>81</ele>
        <time>2018-10-09T16:01:30Z</time>
      </trkpt>
      <trkpt lat="48.51695" lon="-4.27677">
        <ele>81</ele>
        <time>2018-10-09T16:01:35Z</time>
      </trkpt>
      <trkpt lat="48.51692" lon="-4.2767">
        <ele>81</ele>
        <time>2018-10-09T16:01:40Z</time>
      </trkpt>
      <trkpt lat="48.5169" lon="-4.27663">
        <ele>81</ele>
        <time>2018-10-09T16:01:45Z</time>
      </trkpt>
      <trkpt lat="48.51687" lon="-4.27656">
        <ele>81</ele>
        <time>2018-10-09T16:01:50Z</time>
      </trkpt>
      <trkpt lat="48.51684" lon="-4.27651">
        <ele>81</ele>
        <time>2018-10-09T16:01:55Z</time>
      </trkpt>
      <trkpt lat="48.51682" lon="-4.27645">
        <ele>81</ele>
        <time>2018-10-09T16:02:00Z</time>
      </trkpt>
      <trkpt lat="48.51682" lon="-4.27638">
        <ele>81</ele>
        <time>2018-10-09T16:02:05Z</time>
      </trkpt>
      <trkpt lat="48.51682" lon="-4.27632">
        <ele>81</ele>
        <time>2018-10-09T16:02:10Z</time>
      </trkpt>
      <trkpt lat="48.51683" lon="-4.27625">
        <ele>81</ele>
        <time>2018-10-09T16:02:15Z</time>
      </trkpt>
      <trkpt lat="48.51685" lon="-4.27621">
        <ele>81</ele>
        <time>2018-10-09T16:02:20Z</time>
      </trkpt>
      <trkpt lat="48.5169" lon="-4.27617">
        <ele>81</ele>
        <time>2018-10-09T16:02:25Z</time>
      </trkpt>
      <trkpt lat="48.51693" lon="-4.27615">
        <ele>81</ele>
        <time>2018-10-09T16:02:30Z</time>
      </trkpt>
      <trkpt lat="48.51696" lon="-4.27614">
        <ele>81</ele>
        <time>2018-10-09T16:02:35Z</time>
      </trkpt>
      <trkpt lat="48.51699" lon="-4.27611">
        <ele>81</ele>
        <time>2018-10-09T16:02:40Z</time>
      </trkpt>
      <trkpt lat="48.51702" lon="-4.27606">
        <ele>81</ele>
        <time>2018-10-09T16:02:45Z</time>
      </trkpt>
      <trkpt lat="48.51704" lon="-4.27604">
        <ele>81</ele>
        <time>2018-10-09T16:02:50Z</time>
      </trkpt>
      <trkpt lat="48.51706" lon="-4.27602">
        <ele>81</ele>
        <time>2018-10-09T16:02:55Z</time>
      </trkpt>
      <trkpt lat="48.51709" lon="-4.27597">
        <ele>81</ele>
        <time>2018-10-09T16:03:00Z</time>
      </trkpt>
      <trkpt lat="48.51712" lon="-4.27594">
        <ele>81</ele>
        <time>2018-10-09T16:03:05Z</time>
      </trkpt>
      <trkpt lat="48.51714" lon="-4.27588">
        <ele>81</ele>
        <time>2018-10-09T16:03:10Z</time>
      </trkpt>
      <trkpt lat="48.51718" lon="-4.27585">
        <ele>81</ele>
        <time>2018-10-09T16:03:15Z</time>
      </trkpt>
      <trkpt lat="48.51722" lon="-4.27582">
        <ele>81</ele>
        <time>2018-10-09T16:03:20Z</time>
      </trkpt>
      <trkpt lat="48.51725" lon="-4.27578">
        <ele>81</ele>
        <time>2018-10-09T16:03:25Z</time>
      </trkpt>
      <trkpt lat="48.51727" lon="-4.27574">
        <ele>81</ele>
        <time>2018-10-09T16:03:30Z</time>
      </trkpt>
      <trkpt lat="48.51731" lon="-4.2757">
        <ele>81</ele>
        <time>2018-10-09T16:03:35Z</time>
      </trkpt>
      <trkpt lat="48.51737" lon="-4.27566">
        <ele>81</ele>
        <time>2018-10-09T16:03:40Z</time>
      </trkpt>
      <trkpt lat="48.51743" lon="-4.27564">
        <ele>81</ele>
        <time>2018-10-09T16:03:45Z</time>
      </trkpt>
      <trkpt lat="48.51748" lon="-4.27561">
        <ele>81</ele>
        <time>2018-10-09T16:03:50Z</time>
      </trkpt>
      <trkpt lat="48.51751" lon="-4.27558">
        <ele>81</ele>
        <time>2018-10-09T16:03:55Z</time>
      </trkpt>
      <trkpt lat="48.51754" lon="-4.27555">
        <ele>81</ele>
        <time>2018-10-09T16:04:00Z</time>
      </trkpt>
      <trkpt lat="48.51755" lon="-4.27552">
        <ele>81</ele>
        <time>2018-10-09T16:04:05Z</time>
      </trkpt>
      <trkpt lat="48.51763" lon="-4.27549">
        <ele>81</ele>
        <time>2018-10-09T16:04:10Z</time>
      </trkpt>
      <trkpt lat="48.51765" lon="-4.27546">
        <ele>81</ele>
        <time>2018-10-09T16:04:15Z</time>
      </trkpt>
      <trkpt lat="48.51767" lon="-4.27544">
        <ele>81</ele>
        <time>2018-10-09T16:04:20Z</time>
      </trkpt>
      <trkpt lat="48.5177" lon="-4.27541">
        <ele>81</ele>
        <time>2018-10-09T16:04:25Z</time>
      </trkpt>
      <trkpt lat="48.51775" lon="-4.27536">
        <ele>81</ele>
        <time>2018-10-09T16:04:30Z</time>
      </trkpt>
      <trkpt lat="48.51779" lon="-4.27529">
        <ele>81</ele>
        <time>2018-10-09T16:04:35Z</time>
      </trkpt>
      <trkpt lat="48.51781" lon="-4.27525">
        <ele>81</ele>
        <time>2018-10-09T16:04:40Z</time>
      </trkpt>
      <trkpt lat="48.51783" lon="-4.27521">
        <ele>81</ele>
        <time>2018-10-09T16:04:45Z</time>
      </trkpt>
      <trkpt lat="48.51786" lon="-4.27518">
        <ele>80</ele>
        <time>2018-10-09T16:04:50Z</time>
      </trkpt>
      <trkpt lat="48.51789" lon="-4.27515">
        <ele>80</ele>
        <time>2018-10-09T16:04:55Z</time>
      </trkpt>
      <trkpt lat="48.51795" lon="-4.2751">
        <ele>80</ele>
        <time>2018-10-09T16:05:00Z</time>
      </trkpt>
      <trkpt lat="48.518" lon="-4.27505">
        <ele>80</ele>
        <time>2018-10-09T16:05:05Z</time>
      </trkpt>
      <trkpt lat="48.51805" lon="-4.27502">
        <ele>80</ele>
        <time>2018-10-09T16:05:10Z</time>
      </trkpt>
      <trkpt lat="48.51808" lon="-4.27497">
        <ele>80</ele>
        <time>2018-10-09T16:05:15Z</time>
      </trkpt>
      <trkpt lat="48.51813" lon="-4.27491">
        <ele>80</ele>
        <time>2018-10-09T16:05:20Z</time>
      </trkpt>
      <trkpt lat="48.51818" lon="-4.27486">
        <ele>80</ele>
        <time>2018-10-09T16:05:25Z</time>
      </trkpt>
      <trkpt lat="48.51824" lon="-4.27482">
        <ele>81</ele>
        <time>2018-10-09T16:05:30Z</time>
      </trkpt>
      <trkpt lat="48.51831" lon="-4.27478">
        <ele>81</ele>
        <time>2018-10-09T16:05:35Z</time>
      </trkpt>
      <trkpt lat="48.51837" lon="-4.27473">
        <ele>81</ele>
        <time>2018-10-09T16:05:40Z</time>
      </trkpt>
      <trkpt lat="48.51845" lon="-4.2747">
        <ele>81</ele>
        <time>2018-10-09T16:05:45Z</time>
      </trkpt>
      <trkpt lat="48.51846" lon="-4.27467">
        <ele>81</ele>
        <time>2018-10-09T16:05:50Z</time>
      </trkpt>
      <trkpt lat="48.51844" lon="-4.27464">
        <ele>81</ele>
        <time>2018-10-09T16:05:55Z</time>
      </trkpt>
      <trkpt lat="48.51842" lon="-4.2746">
        <ele>81</ele>
        <time>2018-10-09T16:06:00Z</time>
      </trkpt>
      <trkpt lat="48.51839" lon="-4.27456">
        <ele>81</ele>
        <time>2018-10-09T16:06:05Z</time>
      </trkpt>
      <trkpt lat="48.51834" lon="-4.27453">
        <ele>80</ele>
        <time>2018-10-09T16:06:10Z</time>
      </trkpt>
      <trkpt lat="48.5183" lon="-4.2745">
        <ele>80</ele>
        <time>2018-10-09T16:06:15Z</time>
      </trkpt>
      <trkpt lat="48.51826" lon="-4.27447">
        <ele>80</ele>
        <time>2018-10-09T16:06:20Z</time>
      </trkpt>
      <trkpt lat="48.51821" lon="-4.27445">
        <ele>80</ele>
        <time>2018-10-09T16:06:25Z</time>
      </trkpt>
      <trkpt lat="48.51815" lon="-4.27442">
        <ele>80</ele>
        <time>2018-10-09T16:06:30Z</time>
      </trkpt>
      <trkpt lat="48.51811" lon="-4.27439">
        <ele>80</ele>
        <time>2018-10-09T16:06:35Z</time>
      </trkpt>
      <trkpt lat="48.51806" lon="-4.27435">
        <ele>80</ele>
        <time>2018-10-09T16:06:40Z</time>
      </trkpt>
      <trkpt lat="48.51801" lon="-4.27431">
        <ele>79</ele>
        <time>2018-10-09T16:06:45Z</time>
      </trkpt>
      <trkpt lat="48.518" lon="-4.27431">
        <ele>79</ele>
        <time>2018-10-09T16:06:50Z</time>
      </trkpt>
      <trkpt lat="48.518" lon="-4.2743">
        <ele>79</ele>
        <time>2018-10-09T16:07:00Z</time>
      </trkpt>
      <trkpt lat="48.51795" lon="-4.27429">
        <ele>79</ele>
        <time>2018-10-09T16:07:05Z</time>
      </trkpt>
      <trkpt lat="48.5179" lon="-4.27425">
        <ele>79</ele>
        <time>2018-10-09T16:07:10Z</time>
      </trkpt>
      <trkpt lat="48.51784" lon="-4.27422">
        <ele>79</ele>
        <time>2018-10-09T16:07:15Z</time>
      </trkpt>
      <trkpt lat="48.51779" lon="-4.2742">
        <ele>79</ele>
        <time>2018-10-09T16:07:20Z</time>
      </trkpt>
      <trkpt lat="48.51776" lon="-4.27417">
        <ele>79</ele>
        <time>2018-10-09T16:07:25Z</time>
      </trkpt>
      <trkpt lat="48.51773" lon="-4.27411">
        <ele>79</ele>
        <time>2018-10-09T16:07:30Z</time>
      </trkpt>
      <trkpt lat="48.51771" lon="-4.27406">
        <ele>78</ele>
        <time>2018-10-09T16:07:35Z</time>
      </trkpt>
      <trkpt lat="48.51768" lon="-4.27402">
        <ele>78</ele>
        <time>2018-10-09T16:07:40Z</time>
      </trkpt>
      <trkpt lat="48.51768" lon="-4.27399">
        <ele>78</ele>
        <time>2018-10-09T16:07:45Z</time>
      </trkpt>
      <trkpt lat="48.51767" lon="-4.27397">
        <ele>78</ele>
        <time>2018-10-09T16:07:50Z</time>
      </trkpt>
      <trkpt lat="48.51767" lon="-4.27396">
        <ele>78</ele>
        <time>2018-10-09T16:07:55Z</time>
      </trkpt>
      <trkpt lat="48.51766" lon="-4.27397">
        <ele>78</ele>
        <time>2018-10-09T16:08:00Z</time>
      </trkpt>
      <trkpt lat="48.51764" lon="-4.27395">
        <ele>78</ele>
        <time>2018-10-09T16:08:20Z</time>
      </trkpt>
      <trkpt lat="48.51759" lon="-4.27392">
        <ele>77</ele>
        <time>2018-10-09T16:08:25Z</time>
      </trkpt>
      <trkpt lat="48.51755" lon="-4.27388">
        <ele>77</ele>
        <time>2018-10-09T16:08:30Z</time>
      </trkpt>
      <trkpt lat="48.51752" lon="-4.27385">
        <ele>77</ele>
        <time>2018-10-09T16:08:35Z</time>
      </trkpt>
      <trkpt lat="48.5175" lon="-4.27381">
        <ele>77</ele>
        <time>2018-10-09T16:08:40Z</time>
      </trkpt>
      <trkpt lat="48.5175" lon="-4.2738">
        <ele>77</ele>
        <time>2018-10-09T16:08:45Z</time>
      </trkpt>
      <trkpt lat="48.51749" lon="-4.27379">
        <ele>77</ele>
        <time>2018-10-09T16:08:50Z</time>
      </trkpt>
      <trkpt lat="48.51747" lon="-4.27377">
        <ele>77</ele>
        <time>2018-10-09T16:08:55Z</time>
      </trkpt>
      <trkpt lat="48.51746" lon="-4.27376">
        <ele>77</ele>
        <time>2018-10-09T16:09:10Z</time>
      </trkpt>
      <trkpt lat="48.51742" lon="-4.27371">
        <ele>77</ele>
        <time>2018-10-09T16:09:15Z</time>
      </trkpt>
      <trkpt lat="48.51738" lon="-4.27365">
        <ele>77</ele>
        <time>2018-10-09T16:09:20Z</time>
      </trkpt>
      <trkpt lat="48.51735" lon="-4.27359">
        <ele>77</ele>
        <time>2018-10-09T16:09:25Z</time>
      </trkpt>
      <trkpt lat="48.51731" lon="-4.27355">
        <ele>77</ele>
        <time>2018-10-09T16:09:30Z</time>
      </trkpt>
      <trkpt lat="48.51726" lon="-4.2735">
        <ele>77</ele>
        <time>2018-10-09T16:09:35Z</time>
      </trkpt>
      <trkpt lat="48.51722" lon="-4.27346">
        <ele>78</ele>
        <time>2018-10-09T16:09:40Z</time>
      </trkpt>
      <trkpt lat="48.51717" lon="-4.27342">
        <ele>78</ele>
        <time>2018-10-09T16:09:45Z</time>
      </trkpt>
      <trkpt lat="48.51713" lon="-4.27339">
        <ele>78</ele>
        <time>2018-10-09T16:09:50Z</time>
      </trkpt>
      <trkpt lat="48.51711" lon="-4.27337">
        <ele>78</ele>
        <time>2018-10-09T16:09:55Z</time>
      </trkpt>
      <trkpt lat="48.51709" lon="-4.27335">
        <ele>78</ele>
        <time>2018-10-09T16:10:00Z</time>
      </trkpt>
      <trkpt lat="48.51706" lon="-4.27332">
        <ele>78</ele>
        <time>2018-10-09T16:10:05Z</time>
      </trkpt>
      <trkpt lat="48.51703" lon="-4.2733">
        <ele>78</ele>
        <time>2018-10-09T16:10:10Z</time>
      </trkpt>
      <trkpt lat="48.517" lon="-4.27328">
        <ele>78</ele>
        <time>2018-10-09T16:10:15Z</time>
      </trkpt>
      <trkpt lat="48.51697" lon="-4.27325">
        <ele>78</ele>
        <time>2018-10-09T16:10:20Z</time>
      </trkpt>
      <trkpt lat="48.51694" lon="-4.27322">
        <ele>78</ele>
        <time>2018-10-09T16:10:25Z</time>
      </trkpt>
      <trkpt lat="48.51691" lon="-4.27319">
        <ele>78</ele>
        <time>2018-10-09T16:10:30Z</time>
      </trkpt>
      <trkpt lat="48.51688" lon="-4.27315">
        <ele>78</ele>
        <time>2018-10-09T16:10:35Z</time>
      </trkpt>
      <trkpt lat="48.51685" lon="-4.27313">
        <ele>78</ele>
        <time>2018-10-09T16:10:40Z</time>
      </trkpt>
      <trkpt lat="48.51681" lon="-4.27309">
        <ele>78</ele>
        <time>2018-10-09T16:10:45Z</time>
      </trkpt>
      <trkpt lat="48.51678" lon="-4.27307">
        <ele>78</ele>
        <time>2018-10-09T16:10:50Z</time>
      </trkpt>
      <trkpt lat="48.51674" lon="-4.27304">
        <ele>78</ele>
        <time>2018-10-09T16:10:55Z</time>
      </trkpt>
      <trkpt lat="48.5167" lon="-4.273">
        <ele>78</ele>
        <time>2018-10-09T16:11:00Z</time>
      </trkpt>
      <trkpt lat="48.51666" lon="-4.27296">
        <ele>78</ele>
        <time>2018-10-09T16:11:05Z</time>
      </trkpt>
      <trkpt lat="48.51662" lon="-4.27292">
        <ele>78</ele>
        <time>2018-10-09T16:11:10Z</time>
      </trkpt>
      <trkpt lat="48.51658" lon="-4.27289">
        <ele>78</ele>
        <time>2018-10-09T16:11:15Z</time>
      </trkpt>
      <trkpt lat="48.51653" lon="-4.27285">
        <ele>78</ele>
        <time>2018-10-09T16:11:20Z</time>
      </trkpt>
      <trkpt lat="48.51649" lon="-4.27281">
        <ele>78</ele>
        <time>2018-10-09T16:11:25Z</time>
      </trkpt>
      <trkpt lat="48.51645" lon="-4.27277">
        <ele>78</ele>
        <time>2018-10-09T16:11:30Z</time>
      </trkpt>
      <trkpt lat="48.51642" lon="-4.27275">
        <ele>78</ele>
        <time>2018-10-09T16:11:35Z</time>
      </trkpt>
      <trkpt lat="48.51639" lon="-4.2727">
        <ele>78</ele>
        <time>2018-10-09T16:11:40Z</time>
      </trkpt>
      <trkpt lat="48.51635" lon="-4.27264">
        <ele>78</ele>
        <time>2018-10-09T16:11:45Z</time>
      </trkpt>
      <trkpt lat="48.51632" lon="-4.27259">
        <ele>78</ele>
        <time>2018-10-09T16:11:50Z</time>
      </trkpt>
      <trkpt lat="48.5163" lon="-4.27253">
        <ele>78</ele>
        <time>2018-10-09T16:11:55Z</time>
      </trkpt>
      <trkpt lat="48.51629" lon="-4.27248">
        <ele>78</ele>
        <time>2018-10-09T16:12:00Z</time>
      </trkpt>
      <trkpt lat="48.5163" lon="-4.27243">
        <ele>78</ele>
        <time>2018-10-09T16:12:05Z</time>
      </trkpt>
      <trkpt lat="48.51629" lon="-4.27243">
        <ele>78</ele>
        <time>2018-10-09T16:12:10Z</time>
      </trkpt>
      <trkpt lat="48.5163" lon="-4.27239">
        <ele>78</ele>
        <time>2018-10-09T16:12:15Z</time>
      </trkpt>
      <trkpt lat="48.51633" lon="-4.27234">
        <ele>78</ele>
        <time>2018-10-09T16:12:20Z</time>
      </trkpt>
      <trkpt lat="48.51635" lon="-4.27228">
        <ele>78</ele>
        <time>2018-10-09T16:12:25Z</time>
      </trkpt>
      <trkpt lat="48.51638" lon="-4.27222">
        <ele>78</ele>
        <time>2018-10-09T16:12:30Z</time>
      </trkpt>
      <trkpt lat="48.51641" lon="-4.27217">
        <ele>78</ele>
        <time>2018-10-09T16:12:35Z</time>
      </trkpt>
      <trkpt lat="48.51644" lon="-4.27211">
        <ele>78</ele>
        <time>2018-10-09T16:12:40Z</time>
      </trkpt>
      <trkpt lat="48.51646" lon="-4.27203">
        <ele>79</ele>
        <time>2018-10-09T16:12:45Z</time>
      </trkpt>
      <trkpt lat="48.51648" lon="-4.27196">
        <ele>79</ele>
        <time>2018-10-09T16:12:50Z</time>
      </trkpt>
      <trkpt lat="48.51651" lon="-4.2719">
        <ele>79</ele>
        <time>2018-10-09T16:12:55Z</time>
      </trkpt>
      <trkpt lat="48.51654" lon="-4.27184">
        <ele>79</ele>
        <time>2018-10-09T16:13:00Z</time>
      </trkpt>
      <trkpt lat="48.51656" lon="-4.27177">
        <ele>79</ele>
        <time>2018-10-09T16:13:05Z</time>
      </trkpt>
      <trkpt lat="48.51659" lon="-4.2717">
        <ele>79</ele>
        <time>2018-10-09T16:13:10Z</time>
      </trkpt>
      <trkpt lat="48.51662" lon="-4.27164">
        <ele>79</ele>
        <time>2018-10-09T16:13:15Z</time>
      </trkpt>
      <trkpt lat="48.51665" lon="-4.27157">
        <ele>79</ele>
        <time>2018-10-09T16:13:20Z</time>
      </trkpt>
      <trkpt lat="48.51669" lon="-4.27151">
        <ele>79</ele>
        <time>2018-10-09T16:13:25Z</time>
      </trkpt>
      <trkpt lat="48.51671" lon="-4.27147">
        <ele>79</ele>
        <time>2018-10-09T16:13:30Z</time>
      </trkpt>
      <trkpt lat="48.51673" lon="-4.27139">
        <ele>80</ele>
        <time>2018-10-09T16:13:35Z</time>
      </trkpt>
      <trkpt lat="48.51673" lon="-4.27133">
        <ele>80</ele>
        <time>2018-10-09T16:13:40Z</time>
      </trkpt>
      <trkpt lat="48.51673" lon="-4.27126">
        <ele>80</ele>
        <time>2018-10-09T16:13:45Z</time>
      </trkpt>
      <trkpt lat="48.51672" lon="-4.27123">
        <ele>80</ele>
        <time>2018-10-09T16:13:50Z</time>
      </trkpt>
      <trkpt lat="48.5167" lon="-4.27122">
        <ele>80</ele>
        <time>2018-10-09T16:13:55Z</time>
      </trkpt>
      <trkpt lat="48.51667" lon="-4.27119">
        <ele>80</ele>
        <time>2018-10-09T16:14:00Z</time>
      </trkpt>
      <trkpt lat="48.51665" lon="-4.27118">
        <ele>80</ele>
        <time>2018-10-09T16:14:05Z</time>
      </trkpt>
      <trkpt lat="48.51663" lon="-4.27115">
        <ele>80</ele>
        <time>2018-10-09T16:14:10Z</time>
      </trkpt>
      <trkpt lat="48.51659" lon="-4.27112">
        <ele>80</ele>
        <time>2018-10-09T16:14:15Z</time>
      </trkpt>
      <trkpt lat="48.51655" lon="-4.27108">
        <ele>80</ele>
        <time>2018-10-09T16:14:20Z</time>
      </trkpt>
      <trkpt lat="48.51651" lon="-4.27105">
        <ele>80</ele>
        <time>2018-10-09T16:14:25Z</time>
      </trkpt>
      <trkpt lat="48.51646" lon="-4.27101">
        <ele>80</ele>
        <time>2018-10-09T16:14:30Z</time>
      </trkpt>
      <trkpt lat="48.51641" lon="-4.27097">
        <ele>80</ele>
        <time>2018-10-09T16:14:35Z</time>
      </trkpt>
      <trkpt lat="48.51636" lon="-4.27094">
        <ele>80</ele>
        <time>2018-10-09T16:14:40Z</time>
      </trkpt>
      <trkpt lat="48.51631" lon="-4.2709">
        <ele>80</ele>
        <time>2018-10-09T16:14:45Z</time>
      </trkpt>
      <trkpt lat="48.51628" lon="-4.27089">
        <ele>81</ele>
        <time>2018-10-09T16:14:50Z</time>
      </trkpt>
      <trkpt lat="48.51624" lon="-4.27084">
        <ele>81</ele>
        <time>2018-10-09T16:14:55Z</time>
      </trkpt>
      <trkpt lat="48.51619" lon="-4.27081">
        <ele>81</ele>
        <time>2018-10-09T16:15:00Z</time>
      </trkpt>
      <trkpt lat="48.51613" lon="-4.27076">
        <ele>81</ele>
        <time>2018-10-09T16:15:05Z</time>
      </trkpt>
      <trkpt lat="48.51609" lon="-4.27072">
        <ele>81</ele>
        <time>2018-10-09T16:15:10Z</time>
      </trkpt>
      <trkpt lat="48.51604" lon="-4.2707">
        <ele>81</ele>
        <time>2018-10-09T16:15:15Z</time>
      </trkpt>
      <trkpt lat="48.51599" lon="-4.27067">
        <ele>80</ele>
        <time>2018-10-09T16:15:20Z</time>
      </trkpt>
      <trkpt lat="48.51595" lon="-4.27064">
        <ele>80</ele>
        <time>2018-10-09T16:15:25Z</time>
      </trkpt>
      <trkpt lat="48.51589" lon="-4.2706">
        <ele>80</ele>
        <time>2018-10-09T16:15:30Z</time>
      </trkpt>
      <trkpt lat="48.51585" lon="-4.27056">
        <ele>80</ele>
        <time>2018-10-09T16:15:35Z</time>
      </trkpt>
      <trkpt lat="48.51583" lon="-4.27053">
        <ele>80</ele>
        <time>2018-10-09T16:15:40Z</time>
      </trkpt>
      <trkpt lat="48.51579" lon="-4.27049">
        <ele>80</ele>
        <time>2018-10-09T16:15:45Z</time>
      </trkpt>
      <trkpt lat="48.51573" lon="-4.27046">
        <ele>80</ele>
        <time>2018-10-09T16:15:50Z</time>
      </trkpt>
      <trkpt lat="48.51569" lon="-4.27042">
        <ele>80</ele>
        <time>2018-10-09T16:15:55Z</time>
      </trkpt>
      <trkpt lat="48.51565" lon="-4.27038">
        <ele>80</ele>
        <time>2018-10-09T16:16:00Z</time>
      </trkpt>
      <trkpt lat="48.51561" lon="-4.27035">
        <ele>80</ele>
        <time>2018-10-09T16:16:05Z</time>
      </trkpt>
      <trkpt lat="48.51555" lon="-4.2703">
        <ele>80</ele>
        <time>2018-10-09T16:16:10Z</time>
      </trkpt>
      <trkpt lat="48.5155" lon="-4.27027">
        <ele>80</ele>
        <time>2018-10-09T16:16:15Z</time>
      </trkpt>
      <trkpt lat="48.51547" lon="-4.27024">
        <ele>80</ele>
        <time>2018-10-09T16:16:20Z</time>
      </trkpt>
      <trkpt lat="48.51544" lon="-4.2702">
        <ele>80</ele>
        <time>2018-10-09T16:16:25Z</time>
      </trkpt>
      <trkpt lat="48.51539" lon="-4.27018">
        <ele>80</ele>
        <time>2018-10-09T16:16:30Z</time>
      </trkpt>
      <trkpt lat="48.51535" lon="-4.27011">
        <ele>80</ele>
        <time>2018-10-09T16:16:35Z</time>
      </trkpt>
      <trkpt lat="48.5153" lon="-4.27006">
        <ele>80</ele>
        <time>2018-10-09T16:16:40Z</time>
      </trkpt>
      <trkpt lat="48.51527" lon="-4.27003">
        <ele>80</ele>
        <time>2018-10-09T16:16:45Z</time>
      </trkpt>
      <trkpt lat="48.51525" lon="-4.27002">
        <ele>80</ele>
        <time>2018-10-09T16:16:50Z</time>
      </trkpt>
      <trkpt lat="48.51521" lon="-4.27">
        <ele>80</ele>
        <time>2018-10-09T16:16:55Z</time>
      </trkpt>
      <trkpt lat="48.51516" lon="-4.26997">
        <ele>80</ele>
        <time>2018-10-09T16:17:00Z</time>
      </trkpt>
      <trkpt lat="48.51512" lon="-4.26993">
        <ele>81</ele>
        <time>2018-10-09T16:17:05Z</time>
      </trkpt>
      <trkpt lat="48.51509" lon="-4.2699">
        <ele>81</ele>
        <time>2018-10-09T16:17:10Z</time>
      </trkpt>
      <trkpt lat="48.51505" lon="-4.26988">
        <ele>81</ele>
        <time>2018-10-09T16:17:15Z</time>
      </trkpt>
      <trkpt lat="48.51499" lon="-4.26985">
        <ele>81</ele>
        <time>2018-10-09T16:17:20Z</time>
      </trkpt>
      <trkpt lat="48.51494" lon="-4.26978">
        <ele>81</ele>
        <time>2018-10-09T16:17:25Z</time>
      </trkpt>
      <trkpt lat="48.5149" lon="-4.26974">
        <ele>81</ele>
        <time>2018-10-09T16:17:30Z</time>
      </trkpt>
      <trkpt lat="48.51487" lon="-4.26974">
        <ele>81</ele>
        <time>2018-10-09T16:17:35Z</time>
      </trkpt>
      <trkpt lat="48.51484" lon="-4.26971">
        <ele>81</ele>
        <time>2018-10-09T16:17:40Z</time>
      </trkpt>
      <trkpt lat="48.51481" lon="-4.26967">
        <ele>81</ele>
        <time>2018-10-09T16:17:45Z</time>
      </trkpt>
      <trkpt lat="48.51477" lon="-4.26965">
        <ele>81</ele>
        <time>2018-10-09T16:17:50Z</time>
      </trkpt>
      <trkpt lat="48.51472" lon="-4.2696">
        <ele>81</ele>
        <time>2018-10-09T16:17:55Z</time>
      </trkpt>
      <trkpt lat="48.51463" lon="-4.26953">
        <ele>81</ele>
        <time>2018-10-09T16:18:00Z</time>
      </trkpt>
      <trkpt lat="48.51456" lon="-4.26947">
        <ele>82</ele>
        <time>2018-10-09T16:18:05Z</time>
      </trkpt>
      <trkpt lat="48.51451" lon="-4.26943">
        <ele>82</ele>
        <time>2018-10-09T16:18:10Z</time>
      </trkpt>
      <trkpt lat="48.51446" lon="-4.2694">
        <ele>82</ele>
        <time>2018-10-09T16:18:15Z</time>
      </trkpt>
      <trkpt lat="48.51441" lon="-4.26936">
        <ele>82</ele>
        <time>2018-10-09T16:18:20Z</time>
      </trkpt>
      <trkpt lat="48.51436" lon="-4.26933">
        <ele>82</ele>
        <time>2018-10-09T16:18:25Z</time>
      </trkpt>
      <trkpt lat="48.51431" lon="-4.26928">
        <ele>82</ele>
        <time>2018-10-09T16:18:30Z</time>
      </trkpt>
      <trkpt lat="48.51429" lon="-4.26923">
        <ele>83</ele>
        <time>2018-10-09T16:18:35Z</time>
      </trkpt>
      <trkpt lat="48.51425" lon="-4.26919">
        <ele>83</ele>
        <time>2018-10-09T16:18:40Z</time>
      </trkpt>
      <trkpt lat="48.51422" lon="-4.26916">
        <ele>83</ele>
        <time>2018-10-09T16:18:45Z</time>
      </trkpt>
      <trkpt lat="48.51417" lon="-4.26911">
        <ele>83</ele>
        <time>2018-10-09T16:18:50Z</time>
      </trkpt>
      <trkpt lat="48.51412" lon="-4.26906">
        <ele>83</ele>
        <time>2018-10-09T16:18:55Z</time>
      </trkpt>
      <trkpt lat="48.51407" lon="-4.26902">
        <ele>82</ele>
        <time>2018-10-09T16:19:00Z</time>
      </trkpt>
      <trkpt lat="48.51402" lon="-4.26896">
        <ele>82</ele>
        <time>2018-10-09T16:19:05Z</time>
      </trkpt>
      <trkpt lat="48.51397" lon="-4.26891">
        <ele>82</ele>
        <time>2018-10-09T16:19:10Z</time>
      </trkpt>
      <trkpt lat="48.51395" lon="-4.26888">
        <ele>82</ele>
        <time>2018-10-09T16:19:15Z</time>
      </trkpt>
      <trkpt lat="48.51391" lon="-4.26885">
        <ele>82</ele>
        <time>2018-10-09T16:19:20Z</time>
      </trkpt>
      <trkpt lat="48.51386" lon="-4.2688">
        <ele>82</ele>
        <time>2018-10-09T16:19:25Z</time>
      </trkpt>
      <trkpt lat="48.51381" lon="-4.26876">
        <ele>81</ele>
        <time>2018-10-09T16:19:30Z</time>
      </trkpt>
      <trkpt lat="48.51376" lon="-4.26872">
        <ele>81</ele>
        <time>2018-10-09T16:19:35Z</time>
      </trkpt>
      <trkpt lat="48.51371" lon="-4.26867">
        <ele>81</ele>
        <time>2018-10-09T16:19:40Z</time>
      </trkpt>
      <trkpt lat="48.51366" lon="-4.26864">
        <ele>81</ele>
        <time>2018-10-09T16:19:45Z</time>
      </trkpt>
      <trkpt lat="48.51361" lon="-4.26859">
        <ele>81</ele>
        <time>2018-10-09T16:19:50Z</time>
      </trkpt>
      <trkpt lat="48.51356" lon="-4.26855">
        <ele>81</ele>
        <time>2018-10-09T16:19:55Z</time>
      </trkpt>
      <trkpt lat="48.51352" lon="-4.26851">
        <ele>81</ele>
        <time>2018-10-09T16:20:00Z</time>
      </trkpt>
      <trkpt lat="48.51347" lon="-4.26847">
        <ele>81</ele>
        <time>2018-10-09T16:20:05Z</time>
      </trkpt>
      <trkpt lat="48.51342" lon="-4.26844">
        <ele>81</ele>
        <time>2018-10-09T16:20:10Z</time>
      </trkpt>
      <trkpt lat="48.51338" lon="-4.2684">
        <ele>81</ele>
        <time>2018-10-09T16:20:15Z</time>
      </trkpt>
      <trkpt lat="48.51334" lon="-4.26837">
        <ele>81</ele>
        <time>2018-10-09T16:20:20Z</time>
      </trkpt>
      <trkpt lat="48.5133" lon="-4.26832">
        <ele>81</ele>
        <time>2018-10-09T16:20:25Z</time>
      </trkpt>
      <trkpt lat="48.51325" lon="-4.26827">
        <ele>81</ele>
        <time>2018-10-09T16:20:30Z</time>
      </trkpt>
      <trkpt lat="48.51321" lon="-4.26824">
        <ele>81</ele>
        <time>2018-10-09T16:20:35Z</time>
      </trkpt>
      <trkpt lat="48.51317" lon="-4.2682">
        <ele>81</ele>
        <time>2018-10-09T16:20:40Z</time>
      </trkpt>
      <trkpt lat="48.51313" lon="-4.26818">
        <ele>81</ele>
        <time>2018-10-09T16:20:45Z</time>
      </trkpt>
      <trkpt lat="48.51309" lon="-4.26814">
        <ele>81</ele>
        <time>2018-10-09T16:20:50Z</time>
      </trkpt>
      <trkpt lat="48.51305" lon="-4.2681">
        <ele>81</ele>
        <time>2018-10-09T16:20:55Z</time>
      </trkpt>
      <trkpt lat="48.51301" lon="-4.26809">
        <ele>81</ele>
        <time>2018-10-09T16:21:00Z</time>
      </trkpt>
      <trkpt lat="48.51296" lon="-4.26806">
        <ele>81</ele>
        <time>2018-10-09T16:21:05Z</time>
      </trkpt>
      <trkpt lat="48.51291" lon="-4.26803">
        <ele>81</ele>
        <time>2018-10-09T16:21:10Z</time>
      </trkpt>
      <trkpt lat="48.51288" lon="-4.26799">
        <ele>81</ele>
        <time>2018-10-09T16:21:15Z</time>
      </trkpt>
      <trkpt lat="48.51284" lon="-4.26794">
        <ele>81</ele>
        <time>2018-10-09T16:21:20Z</time>
      </trkpt>
      <trkpt lat="48.5128" lon="-4.2679">
        <ele>81</ele>
        <time>2018-10-09T16:21:25Z</time>
      </trkpt>
      <trkpt lat="48.51275" lon="-4.26787">
        <ele>81</ele>
        <time>2018-10-09T16:21:30Z</time>
      </trkpt>
      <trkpt lat="48.51272" lon="-4.26784">
        <ele>81</ele>
        <time>2018-10-09T16:21:35Z</time>
      </trkpt>
      <trkpt lat="48.51266" lon="-4.26781">
        <ele>81</ele>
        <time>2018-10-09T16:21:40Z</time>
      </trkpt>
      <trkpt lat="48.51262" lon="-4.26777">
        <ele>80</ele>
        <time>2018-10-09T16:21:45Z</time>
      </trkpt>
      <trkpt lat="48.51258" lon="-4.26774">
        <ele>80</ele>
        <time>2018-10-09T16:21:50Z</time>
      </trkpt>
      <trkpt lat="48.51254" lon="-4.26772">
        <ele>80</ele>
        <time>2018-10-09T16:21:55Z</time>
      </trkpt>
      <trkpt lat="48.51252" lon="-4.26771">
        <ele>80</ele>
        <time>2018-10-09T16:22:00Z</time>
      </trkpt>
      <trkpt lat="48.51247" lon="-4.26768">
        <ele>80</ele>
        <time>2018-10-09T16:22:05Z</time>
      </trkpt>
      <trkpt lat="48.51243" lon="-4.26761">
        <ele>80</ele>
        <time>2018-10-09T16:22:10Z</time>
      </trkpt>
      <trkpt lat="48.51238" lon="-4.26756">
        <ele>80</ele>
        <time>2018-10-09T16:22:15Z</time>
      </trkpt>
      <trkpt lat="48.51232" lon="-4.26754">
        <ele>79</ele>
        <time>2018-10-09T16:22:20Z</time>
      </trkpt>
      <trkpt lat="48.51228" lon="-4.2675">
        <ele>79</ele>
        <time>2018-10-09T16:22:25Z</time>
      </trkpt>
      <trkpt lat="48.51222" lon="-4.26745">
        <ele>79</ele>
        <time>2018-10-09T16:22:30Z</time>
      </trkpt>
      <trkpt lat="48.51218" lon="-4.26742">
        <ele>79</ele>
        <time>2018-10-09T16:22:35Z</time>
      </trkpt>
      <trkpt lat="48.51215" lon="-4.26738">
        <ele>80</ele>
        <time>2018-10-09T16:22:40Z</time>
      </trkpt>
      <trkpt lat="48.51212" lon="-4.26735">
        <ele>80</ele>
        <time>2018-10-09T16:22:45Z</time>
      </trkpt>
      <trkpt lat="48.51207" lon="-4.26732">
        <ele>80</ele>
        <time>2018-10-09T16:22:50Z</time>
      </trkpt>
      <trkpt lat="48.51203" lon="-4.26729">
        <ele>80</ele>
        <time>2018-10-09T16:22:55Z</time>
      </trkpt>
      <trkpt lat="48.51199" lon="-4.26724">
        <ele>81</ele>
        <time>2018-10-09T16:23:00Z</time>
      </trkpt>
      <trkpt lat="48.51195" lon="-4.26722">
        <ele>81</ele>
        <time>2018-10-09T16:23:05Z</time>
      </trkpt>
      <trkpt lat="48.51191" lon="-4.26719">
        <ele>81</ele>
        <time>2018-10-09T16:23:10Z</time>
      </trkpt>
      <trkpt lat="48.51185" lon="-4.26717">
        <ele>81</ele>
        <time>2018-10-09T16:23:15Z</time>
      </trkpt>
      <trkpt lat="48.51179" lon="-4.26713">
        <ele>82</ele>
        <time>2018-10-09T16:23:20Z</time>
      </trkpt>
      <trkpt lat="48.51175" lon="-4.2671">
        <ele>82</ele>
        <time>2018-10-09T16:23:25Z</time>
      </trkpt>
      <trkpt lat="48.51171" lon="-4.2671">
        <ele>82</ele>
        <time>2018-10-09T16:23:30Z</time>
      </trkpt>
      <trkpt lat="48.5117" lon="-4.26711">
        <ele>82</ele>
        <time>2018-10-09T16:23:35Z</time>
      </trkpt>
      <trkpt lat="48.51167" lon="-4.26712">
        <ele>82</ele>
        <time>2018-10-09T16:23:40Z</time>
      </trkpt>
      <trkpt lat="48.51162" lon="-4.26715">
        <ele>82</ele>
        <time>2018-10-09T16:23:45Z</time>
      </trkpt>
      <trkpt lat="48.51159" lon="-4.26718">
        <ele>82</ele>
        <time>2018-10-09T16:23:50Z</time>
      </trkpt>
      <trkpt lat="48.51154" lon="-4.26717">
        <ele>83</ele>
        <time>2018-10-09T16:23:55Z</time>
      </trkpt>
      <trkpt lat="48.51149" lon="-4.26719">
        <ele>83</ele>
        <time>2018-10-09T16:24:00Z</time>
      </trkpt>
      <trkpt lat="48.51143" lon="-4.2672">
        <ele>83</ele>
        <time>2018-10-09T16:24:05Z</time>
      </trkpt>
      <trkpt lat="48.51136" lon="-4.26721">
        <ele>83</ele>
        <time>2018-10-09T16:24:10Z</time>
      </trkpt>
      <trkpt lat="48.5113" lon="-4.26724">
        <ele>83</ele>
        <time>2018-10-09T16:24:15Z</time>
      </trkpt>
      <trkpt lat="48.51123" lon="-4.26727">
        <ele>82</ele>
        <time>2018-10-09T16:24:20Z</time>
      </trkpt>
      <trkpt lat="48.51116" lon="-4.26726">
        <ele>82</ele>
        <time>2018-10-09T16:24:25Z</time>
      </trkpt>
      <trkpt lat="48.51109" lon="-4.26725">
        <ele>82</ele>
        <time>2018-10-09T16:24:30Z</time>
      </trkpt>
      <trkpt lat="48.51104" lon="-4.26722">
        <ele>82</ele>
        <time>2018-10-09T16:24:35Z</time>
      </trkpt>
      <trkpt lat="48.51098" lon="-4.2672">
        <ele>82</ele>
        <time>2018-10-09T16:24:40Z</time>
      </trkpt>
      <trkpt lat="48.51093" lon="-4.26714">
        <ele>82</ele>
        <time>2018-10-09T16:24:45Z</time>
      </trkpt>
      <trkpt lat="48.51088" lon="-4.26708">
        <ele>82</ele>
        <time>2018-10-09T16:24:50Z</time>
      </trkpt>
      <trkpt lat="48.51084" lon="-4.26704">
        <ele>82</ele>
        <time>2018-10-09T16:24:55Z</time>
      </trkpt>
      <trkpt lat="48.51079" lon="-4.26701">
        <ele>82</ele>
        <time>2018-10-09T16:25:00Z</time>
      </trkpt>
      <trkpt lat="48.51075" lon="-4.26696">
        <ele>81</ele>
        <time>2018-10-09T16:25:05Z</time>
      </trkpt>
      <trkpt lat="48.5107" lon="-4.26692">
        <ele>81</ele>
        <time>2018-10-09T16:25:10Z</time>
      </trkpt>
      <trkpt lat="48.51066" lon="-4.26687">
        <ele>80</ele>
        <time>2018-10-09T16:25:15Z</time>
      </trkpt>
      <trkpt lat="48.51062" lon="-4.26682">
        <ele>80</ele>
        <time>2018-10-09T16:25:20Z</time>
      </trkpt>
      <trkpt lat="48.51058" lon="-4.26676">
        <ele>79</ele>
        <time>2018-10-09T16:25:25Z</time>
      </trkpt>
      <trkpt lat="48.51053" lon="-4.2667">
        <ele>79</ele>
        <time>2018-10-09T16:25:30Z</time>
      </trkpt>
      <trkpt lat="48.51049" lon="-4.26664">
        <ele>79</ele>
        <time>2018-10-09T16:25:35Z</time>
      </trkpt>
      <trkpt lat="48.51046" lon="-4.26657">
        <ele>79</ele>
        <time>2018-10-09T16:25:40Z</time>
      </trkpt>
      <trkpt lat="48.51043" lon="-4.2665">
        <ele>79</ele>
        <time>2018-10-09T16:25:45Z</time>
      </trkpt>
      <trkpt lat="48.5104" lon="-4.26643">
        <ele>79</ele>
        <time>2018-10-09T16:25:50Z</time>
      </trkpt>
      <trkpt lat="48.51036" lon="-4.26636">
        <ele>79</ele>
        <time>2018-10-09T16:25:55Z</time>
      </trkpt>
      <trkpt lat="48.51033" lon="-4.26629">
        <ele>80</ele>
        <time>2018-10-09T16:26:00Z</time>
      </trkpt>
      <trkpt lat="48.51029" lon="-4.26622">
        <ele>80</ele>
        <time>2018-10-09T16:26:05Z</time>
      </trkpt>
      <trkpt lat="48.51028" lon="-4.26614">
        <ele>81</ele>
        <time>2018-10-09T16:26:10Z</time>
      </trkpt>
      <trkpt lat="48.51026" lon="-4.26607">
        <ele>81</ele>
        <time>2018-10-09T16:26:15Z</time>
      </trkpt>
      <trkpt lat="48.51026" lon="-4.26599">
        <ele>82</ele>
        <time>2018-10-09T16:26:20Z</time>
      </trkpt>
      <trkpt lat="48.51024" lon="-4.2659">
        <ele>83</ele>
        <time>2018-10-09T16:26:25Z</time>
      </trkpt>
      <trkpt lat="48.51023" lon="-4.26582">
        <ele>83</ele>
        <time>2018-10-09T16:26:30Z</time>
      </trkpt>
      <trkpt lat="48.5102" lon="-4.26574">
        <ele>83</ele>
        <time>2018-10-09T16:26:35Z</time>
      </trkpt>
      <trkpt lat="48.51017" lon="-4.2657">
        <ele>84</ele>
        <time>2018-10-09T16:26:40Z</time>
      </trkpt>
      <trkpt lat="48.51014" lon="-4.26565">
        <ele>84</ele>
        <time>2018-10-09T16:26:45Z</time>
      </trkpt>
      <trkpt lat="48.51009" lon="-4.26561">
        <ele>84</ele>
        <time>2018-10-09T16:26:50Z</time>
      </trkpt>
      <trkpt lat="48.51005" lon="-4.26556">
        <ele>85</ele>
        <time>2018-10-09T16:26:55Z</time>
      </trkpt>
      <trkpt lat="48.50999" lon="-4.26551">
        <ele>85</ele>
        <time>2018-10-09T16:27:00Z</time>
      </trkpt>
      <trkpt lat="48.50995" lon="-4.26547">
        <ele>85</ele>
        <time>2018-10-09T16:27:05Z</time>
      </trkpt>
      <trkpt lat="48.50989" lon="-4.26543">
        <ele>85</ele>
        <time>2018-10-09T16:27:10Z</time>
      </trkpt>
      <trkpt lat="48.50984" lon="-4.26539">
        <ele>84</ele>
        <time>2018-10-09T16:27:15Z</time>
      </trkpt>
      <trkpt lat="48.50979" lon="-4.26535">
        <ele>84</ele>
        <time>2018-10-09T16:27:20Z</time>
      </trkpt>
      <trkpt lat="48.50973" lon="-4.26531">
        <ele>84</ele>
        <time>2018-10-09T16:27:25Z</time>
      </trkpt>
      <trkpt lat="48.50969" lon="-4.26527">
        <ele>84</ele>
        <time>2018-10-09T16:27:30Z</time>
      </trkpt>
      <trkpt lat="48.50964" lon="-4.26523">
        <ele>84</ele>
        <time>2018-10-09T16:27:35Z</time>
      </trkpt>
      <trkpt lat="48.50959" lon="-4.26518">
        <ele>83</ele>
        <time>2018-10-09T16:27:40Z</time>
      </trkpt>
      <trkpt lat="48.50956" lon="-4.26517">
        <ele>83</ele>
        <time>2018-10-09T16:27:45Z</time>
      </trkpt>
      <trkpt lat="48.50951" lon="-4.26513">
        <ele>83</ele>
        <time>2018-10-09T16:27:50Z</time>
      </trkpt>
      <trkpt lat="48.50947" lon="-4.26509">
        <ele>83</ele>
        <time>2018-10-09T16:27:55Z</time>
      </trkpt>
      <trkpt lat="48.50942" lon="-4.26504">
        <ele>83</ele>
        <time>2018-10-09T16:28:00Z</time>
      </trkpt>
      <trkpt lat="48.50938" lon="-4.26499">
        <ele>83</ele>
        <time>2018-10-09T16:28:05Z</time>
      </trkpt>
      <trkpt lat="48.50934" lon="-4.26496">
        <ele>83</ele>
        <time>2018-10-09T16:28:10Z</time>
      </trkpt>
      <trkpt lat="48.50931" lon="-4.26494">
        <ele>83</ele>
        <time>2018-10-09T16:28:15Z</time>
      </trkpt>
      <trkpt lat="48.50929" lon="-4.26492">
        <ele>83</ele>
        <time>2018-10-09T16:28:20Z</time>
      </trkpt>
      <trkpt lat="48.50922" lon="-4.26487">
        <ele>83</ele>
        <time>2018-10-09T16:28:25Z</time>
      </trkpt>
      <trkpt lat="48.50915" lon="-4.26479">
        <ele>84</ele>
        <time>2018-10-09T16:28:30Z</time>
      </trkpt>
      <trkpt lat="48.5091" lon="-4.26473">
        <ele>84</ele>
        <time>2018-10-09T16:28:35Z</time>
      </trkpt>
      <trkpt lat="48.50906" lon="-4.26469">
        <ele>84</ele>
        <time>2018-10-09T16:28:40Z</time>
      </trkpt>
      <trkpt lat="48.50902" lon="-4.26466">
        <ele>84</ele>
        <time>2018-10-09T16:28:45Z</time>
      </trkpt>
      <trkpt lat="48.50898" lon="-4.26464">
        <ele>84</ele>
        <time>2018-10-09T16:28:50Z</time>
      </trkpt>
      <trkpt lat="48.50893" lon="-4.2646">
        <ele>84</ele>
        <time>2018-10-09T16:28:55Z</time>
      </trkpt>
      <trkpt lat="48.50888" lon="-4.26457">
        <ele>85</ele>
        <time>2018-10-09T16:29:00Z</time>
      </trkpt>
      <trkpt lat="48.50884" lon="-4.26452">
        <ele>85</ele>
        <time>2018-10-09T16:29:05Z</time>
      </trkpt>
      <trkpt lat="48.50879" lon="-4.26448">
        <ele>85</ele>
        <time>2018-10-09T16:29:10Z</time>
      </trkpt>
      <trkpt lat="48.50874" lon="-4.26444">
        <ele>84</ele>
        <time>2018-10-09T16:29:15Z</time>
      </trkpt>
      <trkpt lat="48.50868" lon="-4.26439">
        <ele>84</ele>
        <time>2018-10-09T16:29:20Z</time>
      </trkpt>
      <trkpt lat="48.50865" lon="-4.26436">
        <ele>84</ele>
        <time>2018-10-09T16:29:25Z</time>
      </trkpt>
      <trkpt lat="48.50861" lon="-4.26434">
        <ele>84</ele>
        <time>2018-10-09T16:29:30Z</time>
      </trkpt>
      <trkpt lat="48.50856" lon="-4.26431">
        <ele>84</ele>
        <time>2018-10-09T16:29:35Z</time>
      </trkpt>
      <trkpt lat="48.50852" lon="-4.26427">
        <ele>84</ele>
        <time>2018-10-09T16:29:40Z</time>
      </trkpt>
      <trkpt lat="48.50846" lon="-4.26421">
        <ele>84</ele>
        <time>2018-10-09T16:29:45Z</time>
      </trkpt>
      <trkpt lat="48.50842" lon="-4.26419">
        <ele>84</ele>
        <time>2018-10-09T16:29:50Z</time>
      </trkpt>
      <trkpt lat="48.50838" lon="-4.26416">
        <ele>84</ele>
        <time>2018-10-09T16:29:55Z</time>
      </trkpt>
      <trkpt lat="48.50835" lon="-4.26413">
        <ele>84</ele>
        <time>2018-10-09T16:30:00Z</time>
      </trkpt>
      <trkpt lat="48.50834" lon="-4.26412">
        <ele>84</ele>
        <time>2018-10-09T16:30:05Z</time>
      </trkpt>
      <trkpt lat="48.50829" lon="-4.26408">
        <ele>84</ele>
        <time>2018-10-09T16:30:10Z</time>
      </trkpt>
      <trkpt lat="48.50823" lon="-4.26403">
        <ele>85</ele>
        <time>2018-10-09T16:30:15Z</time>
      </trkpt>
      <trkpt lat="48.50819" lon="-4.264">
        <ele>85</ele>
        <time>2018-10-09T16:30:20Z</time>
      </trkpt>
      <trkpt lat="48.50814" lon="-4.26394">
        <ele>85</ele>
        <time>2018-10-09T16:30:25Z</time>
      </trkpt>
      <trkpt lat="48.50808" lon="-4.26389">
        <ele>86</ele>
        <time>2018-10-09T16:30:30Z</time>
      </trkpt>
      <trkpt lat="48.50803" lon="-4.26385">
        <ele>86</ele>
        <time>2018-10-09T16:30:35Z</time>
      </trkpt>
      <trkpt lat="48.508" lon="-4.26382">
        <ele>86</ele>
        <time>2018-10-09T16:30:40Z</time>
      </trkpt>
      <trkpt lat="48.50795" lon="-4.26379">
        <ele>86</ele>
        <time>2018-10-09T16:30:45Z</time>
      </trkpt>
      <trkpt lat="48.50793" lon="-4.26377">
        <ele>86</ele>
        <time>2018-10-09T16:30:50Z</time>
      </trkpt>
      <trkpt lat="48.50788" lon="-4.26374">
        <ele>86</ele>
        <time>2018-10-09T16:30:55Z</time>
      </trkpt>
      <trkpt lat="48.50783" lon="-4.26369">
        <ele>87</ele>
        <time>2018-10-09T16:31:00Z</time>
      </trkpt>
      <trkpt lat="48.50779" lon="-4.26365">
        <ele>87</ele>
        <time>2018-10-09T16:31:05Z</time>
      </trkpt>
      <trkpt lat="48.50774" lon="-4.2636">
        <ele>87</ele>
        <time>2018-10-09T16:31:10Z</time>
      </trkpt>
      <trkpt lat="48.50771" lon="-4.26356">
        <ele>87</ele>
        <time>2018-10-09T16:31:15Z</time>
      </trkpt>
      <trkpt lat="48.50767" lon="-4.26352">
        <ele>87</ele>
        <time>2018-10-09T16:31:20Z</time>
      </trkpt>
      <trkpt lat="48.50762" lon="-4.26348">
        <ele>87</ele>
        <time>2018-10-09T16:31:25Z</time>
      </trkpt>
      <trkpt lat="48.50759" lon="-4.26344">
        <ele>87</ele>
        <time>2018-10-09T16:31:30Z</time>
      </trkpt>
      <trkpt lat="48.50755" lon="-4.2634">
        <ele>87</ele>
        <time>2018-10-09T16:31:35Z</time>
      </trkpt>
      <trkpt lat="48.5075" lon="-4.26336">
        <ele>87</ele>
        <time>2018-10-09T16:31:40Z</time>
      </trkpt>
      <trkpt lat="48.50747" lon="-4.26333">
        <ele>87</ele>
        <time>2018-10-09T16:31:45Z</time>
      </trkpt>
      <trkpt lat="48.50742" lon="-4.26326">
        <ele>87</ele>
        <time>2018-10-09T16:31:50Z</time>
      </trkpt>
      <trkpt lat="48.50739" lon="-4.26323">
        <ele>87</ele>
        <time>2018-10-09T16:31:55Z</time>
      </trkpt>
      <trkpt lat="48.50736" lon="-4.26319">
        <ele>87</ele>
        <time>2018-10-09T16:32:00Z</time>
      </trkpt>
      <trkpt lat="48.50734" lon="-4.26317">
        <ele>87</ele>
        <time>2018-10-09T16:32:05Z</time>
      </trkpt>
      <trkpt lat="48.5073" lon="-4.26312">
        <ele>87</ele>
        <time>2018-10-09T16:32:10Z</time>
      </trkpt>
      <trkpt lat="48.50724" lon="-4.26305">
        <ele>87</ele>
        <time>2018-10-09T16:32:15Z</time>
      </trkpt>
      <trkpt lat="48.50718" lon="-4.26297">
        <ele>87</ele>
        <time>2018-10-09T16:32:20Z</time>
      </trkpt>
      <trkpt lat="48.50714" lon="-4.2629">
        <ele>87</ele>
        <time>2018-10-09T16:32:25Z</time>
      </trkpt>
      <trkpt lat="48.5071" lon="-4.26286">
        <ele>87</ele>
        <time>2018-10-09T16:32:30Z</time>
      </trkpt>
      <trkpt lat="48.50708" lon="-4.26284">
        <ele>87</ele>
        <time>2018-10-09T16:32:35Z</time>
      </trkpt>
      <trkpt lat="48.50703" lon="-4.26281">
        <ele>87</ele>
        <time>2018-10-09T16:32:40Z</time>
      </trkpt>
      <trkpt lat="48.50701" lon="-4.26274">
        <ele>88</ele>
        <time>2018-10-09T16:32:45Z</time>
      </trkpt>
      <trkpt lat="48.50696" lon="-4.26266">
        <ele>88</ele>
        <time>2018-10-09T16:32:50Z</time>
      </trkpt>
      <trkpt lat="48.50693" lon="-4.2626">
        <ele>89</ele>
        <time>2018-10-09T16:32:55Z</time>
      </trkpt>
      <trkpt lat="48.50689" lon="-4.26255">
        <ele>89</ele>
        <time>2018-10-09T16:33:00Z</time>
      </trkpt>
      <trkpt lat="48.50684" lon="-4.26251">
        <ele>89</ele>
        <time>2018-10-09T16:33:05Z</time>
      </trkpt>
      <trkpt lat="48.50683" lon="-4.26248">
        <ele>90</ele>
        <time>2018-10-09T16:33:10Z</time>
      </trkpt>
      <trkpt lat="48.50679" lon="-4.26242">
        <ele>90</ele>
        <time>2018-10-09T16:33:15Z</time>
      </trkpt>
      <trkpt lat="48.50675" lon="-4.26236">
        <ele>90</ele>
        <time>2018-10-09T16:33:20Z</time>
      </trkpt>
      <trkpt lat="48.50672" lon="-4.26231">
        <ele>90</ele>
        <time>2018-10-09T16:33:25Z</time>
      </trkpt>
      <trkpt lat="48.50668" lon="-4.26224">
        <ele>91</ele>
        <time>2018-10-09T16:33:30Z</time>
      </trkpt>
      <trkpt lat="48.50666" lon="-4.26218">
        <ele>91</ele>
        <time>2018-10-09T16:33:35Z</time>
      </trkpt>
      <trkpt lat="48.50662" lon="-4.26211">
        <ele>91</ele>
        <time>2018-10-09T16:33:40Z</time>
      </trkpt>
      <trkpt lat="48.50659" lon="-4.26206">
        <ele>92</ele>
        <time>2018-10-09T16:33:45Z</time>
      </trkpt>
      <trkpt lat="48.50655" lon="-4.262">
        <ele>92</ele>
        <time>2018-10-09T16:33:50Z</time>
      </trkpt>
      <trkpt lat="48.50652" lon="-4.26194">
        <ele>92</ele>
        <time>2018-10-09T16:33:55Z</time>
      </trkpt>
      <trkpt lat="48.50648" lon="-4.26189">
        <ele>92</ele>
        <time>2018-10-09T16:34:00Z</time>
      </trkpt>
      <trkpt lat="48.50643" lon="-4.26182">
        <ele>92</ele>
        <time>2018-10-09T16:34:05Z</time>
      </trkpt>
      <trkpt lat="48.5064" lon="-4.26178">
        <ele>92</ele>
        <time>2018-10-09T16:34:10Z</time>
      </trkpt>
      <trkpt lat="48.50637" lon="-4.26172">
        <ele>92</ele>
        <time>2018-10-09T16:34:15Z</time>
      </trkpt>
      <trkpt lat="48.50633" lon="-4.26166">
        <ele>92</ele>
        <time>2018-10-09T16:34:20Z</time>
      </trkpt>
      <trkpt lat="48.5063" lon="-4.26162">
        <ele>92</ele>
        <time>2018-10-09T16:34:25Z</time>
      </trkpt>
      <trkpt lat="48.50626" lon="-4.26157">
        <ele>92</ele>
        <time>2018-10-09T16:34:30Z</time>
      </trkpt>
      <trkpt lat="48.5062" lon="-4.2615">
        <ele>93</ele>
        <time>2018-10-09T16:34:35Z</time>
      </trkpt>
      <trkpt lat="48.50617" lon="-4.26144">
        <ele>93</ele>
        <time>2018-10-09T16:34:40Z</time>
      </trkpt>
      <trkpt lat="48.50615" lon="-4.2614">
        <ele>93</ele>
        <time>2018-10-09T16:34:45Z</time>
      </trkpt>
      <trkpt lat="48.50614" lon="-4.26136">
        <ele>93</ele>
        <time>2018-10-09T16:34:50Z</time>
      </trkpt>
      <trkpt lat="48.50612" lon="-4.26131">
        <ele>93</ele>
        <time>2018-10-09T16:34:55Z</time>
      </trkpt>
      <trkpt lat="48.50608" lon="-4.26125">
        <ele>94</ele>
        <time>2018-10-09T16:35:00Z</time>
      </trkpt>
      <trkpt lat="48.50606" lon="-4.26119">
        <ele>94</ele>
        <time>2018-10-09T16:35:05Z</time>
      </trkpt>
      <trkpt lat="48.50602" lon="-4.26114">
        <ele>94</ele>
        <time>2018-10-09T16:35:10Z</time>
      </trkpt>
      <trkpt lat="48.50596" lon="-4.26107">
        <ele>95</ele>
        <time>2018-10-09T16:35:15Z</time>
      </trkpt>
      <trkpt lat="48.5059" lon="-4.261">
        <ele>95</ele>
        <time>2018-10-09T16:35:20Z</time>
      </trkpt>
      <trkpt lat="48.50588" lon="-4.26095">
        <ele>95</ele>
        <time>2018-10-09T16:35:25Z</time>
      </trkpt>
      <trkpt lat="48.50584" lon="-4.2609">
        <ele>95</ele>
        <time>2018-10-09T16:35:30Z</time>
      </trkpt>
      <trkpt lat="48.50581" lon="-4.26087">
        <ele>95</ele>
        <time>2018-10-09T16:35:35Z</time>
      </trkpt>
      <trkpt lat="48.50579" lon="-4.26081">
        <ele>95</ele>
        <time>2018-10-09T16:35:40Z</time>
      </trkpt>
      <trkpt lat="48.50577" lon="-4.26077">
        <ele>95</ele>
        <time>2018-10-09T16:35:45Z</time>
      </trkpt>
      <trkpt lat="48.50575" lon="-4.26075">
        <ele>95</ele>
        <time>2018-10-09T16:35:50Z</time>
      </trkpt>
      <trkpt lat="48.50574" lon="-4.26074">
        <ele>95</ele>
        <time>2018-10-09T16:35:55Z</time>
      </trkpt>
      <trkpt lat="48.50573" lon="-4.26075">
        <ele>95</ele>
        <time>2018-10-09T16:36:00Z</time>
      </trkpt>
      <trkpt lat="48.50572" lon="-4.26071">
        <ele>95</ele>
        <time>2018-10-09T16:36:10Z</time>
      </trkpt>
      <trkpt lat="48.50571" lon="-4.26067">
        <ele>95</ele>
        <time>2018-10-09T16:36:15Z</time>
      </trkpt>
      <trkpt lat="48.50568" lon="-4.26063">
        <ele>95</ele>
        <time>2018-10-09T16:36:20Z</time>
      </trkpt>
      <trkpt lat="48.50565" lon="-4.26058">
        <ele>95</ele>
        <time>2018-10-09T16:36:25Z</time>
      </trkpt>
      <trkpt lat="48.50564" lon="-4.26057">
        <ele>95</ele>
        <time>2018-10-09T16:36:30Z</time>
      </trkpt>
      <trkpt lat="48.50563" lon="-4.26056">
        <ele>95</ele>
        <time>2018-10-09T16:36:35Z</time>
      </trkpt>
      <trkpt lat="48.50562" lon="-4.26053">
        <ele>95</ele>
        <time>2018-10-09T16:36:40Z</time>
      </trkpt>
      <trkpt lat="48.50561" lon="-4.2605">
        <ele>95</ele>
        <time>2018-10-09T16:36:45Z</time>
      </trkpt>
      <trkpt lat="48.50561" lon="-4.26049">
        <ele>95</ele>
        <time>2018-10-09T16:36:50Z</time>
      </trkpt>
      <trkpt lat="48.50558" lon="-4.26047">
        <ele>95</ele>
        <time>2018-10-09T16:36:55Z</time>
      </trkpt>
      <trkpt lat="48.50555" lon="-4.26043">
        <ele>95</ele>
        <time>2018-10-09T16:37:00Z</time>
      </trkpt>
      <trkpt lat="48.50552" lon="-4.26039">
        <ele>94</ele>
        <time>2018-10-09T16:37:05Z</time>
      </trkpt>
      <trkpt lat="48.5055" lon="-4.26034">
        <ele>94</ele>
        <time>2018-10-09T16:37:10Z</time>
      </trkpt>
      <trkpt lat="48.50547" lon="-4.26029">
        <ele>94</ele>
        <time>2018-10-09T16:37:15Z</time>
      </trkpt>
      <trkpt lat="48.50544" lon="-4.26024">
        <ele>93</ele>
        <time>2018-10-09T16:37:20Z</time>
      </trkpt>
      <trkpt lat="48.50541" lon="-4.26018">
        <ele>93</ele>
        <time>2018-10-09T16:37:25Z</time>
      </trkpt>
      <trkpt lat="48.50538" lon="-4.26012">
        <ele>93</ele>
        <time>2018-10-09T16:37:30Z</time>
      </trkpt>
      <trkpt lat="48.50534" lon="-4.26008">
        <ele>93</ele>
        <time>2018-10-09T16:37:35Z</time>
      </trkpt>
      <trkpt lat="48.50531" lon="-4.26002">
        <ele>92</ele>
        <time>2018-10-09T16:37:40Z</time>
      </trkpt>
      <trkpt lat="48.50528" lon="-4.25995">
        <ele>92</ele>
        <time>2018-10-09T16:37:45Z</time>
      </trkpt>
      <trkpt lat="48.50524" lon="-4.2599">
        <ele>91</ele>
        <time>2018-10-09T16:37:50Z</time>
      </trkpt>
      <trkpt lat="48.50521" lon="-4.25985">
        <ele>91</ele>
        <time>2018-10-09T16:37:55Z</time>
      </trkpt>
      <trkpt lat="48.50518" lon="-4.25981">
        <ele>91</ele>
        <time>2018-10-09T16:38:00Z</time>
      </trkpt>
      <trkpt lat="48.50515" lon="-4.25976">
        <ele>91</ele>
        <time>2018-10-09T16:38:05Z</time>
      </trkpt>
      <trkpt lat="48.5051" lon="-4.25971">
        <ele>90</ele>
        <time>2018-10-09T16:38:10Z</time>
      </trkpt>
      <trkpt lat="48.50506" lon="-4.25967">
        <ele>90</ele>
        <time>2018-10-09T16:38:15Z</time>
      </trkpt>
      <trkpt lat="48.50502" lon="-4.25962">
        <ele>90</ele>
        <time>2018-10-09T16:38:20Z</time>
      </trkpt>
      <trkpt lat="48.50498" lon="-4.25955">
        <ele>89</ele>
        <time>2018-10-09T16:38:25Z</time>
      </trkpt>
      <trkpt lat="48.50494" lon="-4.2595">
        <ele>89</ele>
        <time>2018-10-09T16:38:30Z</time>
      </trkpt>
      <trkpt lat="48.5049" lon="-4.25944">
        <ele>89</ele>
        <time>2018-10-09T16:38:35Z</time>
      </trkpt>
      <trkpt lat="48.50486" lon="-4.25939">
        <ele>89</ele>
        <time>2018-10-09T16:38:40Z</time>
      </trkpt>
      <trkpt lat="48.50482" lon="-4.25934">
        <ele>89</ele>
        <time>2018-10-09T16:38:45Z</time>
      </trkpt>
      <trkpt lat="48.50479" lon="-4.2593">
        <ele>89</ele>
        <time>2018-10-09T16:38:50Z</time>
      </trkpt>
      <trkpt lat="48.50475" lon="-4.25926">
        <ele>89</ele>
        <time>2018-10-09T16:38:55Z</time>
      </trkpt>
      <trkpt lat="48.50471" lon="-4.25921">
        <ele>89</ele>
        <time>2018-10-09T16:39:00Z</time>
      </trkpt>
      <trkpt lat="48.50467" lon="-4.25916">
        <ele>89</ele>
        <time>2018-10-09T16:39:05Z</time>
      </trkpt>
      <trkpt lat="48.50464" lon="-4.2591">
        <ele>90</ele>
        <time>2018-10-09T16:39:10Z</time>
      </trkpt>
      <trkpt lat="48.50461" lon="-4.25905">
        <ele>90</ele>
        <time>2018-10-09T16:39:15Z</time>
      </trkpt>
      <trkpt lat="48.50457" lon="-4.25901">
        <ele>90</ele>
        <time>2018-10-09T16:39:20Z</time>
      </trkpt>
      <trkpt lat="48.50453" lon="-4.25898">
        <ele>91</ele>
        <time>2018-10-09T16:39:25Z</time>
      </trkpt>
      <trkpt lat="48.50448" lon="-4.25892">
        <ele>91</ele>
        <time>2018-10-09T16:39:30Z</time>
      </trkpt>
      <trkpt lat="48.50444" lon="-4.25887">
        <ele>91</ele>
        <time>2018-10-09T16:39:35Z</time>
      </trkpt>
      <trkpt lat="48.50441" lon="-4.25883">
        <ele>91</ele>
        <time>2018-10-09T16:39:40Z</time>
      </trkpt>
      <trkpt lat="48.50438" lon="-4.25878">
        <ele>92</ele>
        <time>2018-10-09T16:39:45Z</time>
      </trkpt>
      <trkpt lat="48.50433" lon="-4.25871">
        <ele>92</ele>
        <time>2018-10-09T16:39:50Z</time>
      </trkpt>
      <trkpt lat="48.50427" lon="-4.25865">
        <ele>93</ele>
        <time>2018-10-09T16:39:55Z</time>
      </trkpt>
      <trkpt lat="48.50422" lon="-4.25859">
        <ele>93</ele>
        <time>2018-10-09T16:40:00Z</time>
      </trkpt>
      <trkpt lat="48.50418" lon="-4.25854">
        <ele>94</ele>
        <time>2018-10-09T16:40:05Z</time>
      </trkpt>
      <trkpt lat="48.50414" lon="-4.2585">
        <ele>94</ele>
        <time>2018-10-09T16:40:10Z</time>
      </trkpt>
      <trkpt lat="48.5041" lon="-4.25845">
        <ele>94</ele>
        <time>2018-10-09T16:40:15Z</time>
      </trkpt>
      <trkpt lat="48.50406" lon="-4.25839">
        <ele>94</ele>
        <time>2018-10-09T16:40:20Z</time>
      </trkpt>
      <trkpt lat="48.50402" lon="-4.25835">
        <ele>95</ele>
        <time>2018-10-09T16:40:25Z</time>
      </trkpt>
      <trkpt lat="48.50398" lon="-4.25829">
        <ele>95</ele>
        <time>2018-10-09T16:40:30Z</time>
      </trkpt>
      <trkpt lat="48.50397" lon="-4.25823">
        <ele>95</ele>
        <time>2018-10-09T16:40:35Z</time>
      </trkpt>
      <trkpt lat="48.50399" lon="-4.25816">
        <ele>94</ele>
        <time>2018-10-09T16:40:40Z</time>
      </trkpt>
      <trkpt lat="48.50399" lon="-4.25807">
        <ele>94</ele>
        <time>2018-10-09T16:40:45Z</time>
      </trkpt>
      <trkpt lat="48.50399" lon="-4.258">
        <ele>94</ele>
        <time>2018-10-09T16:40:50Z</time>
      </trkpt>
      <trkpt lat="48.50399" lon="-4.25792">
        <ele>93</ele>
        <time>2018-10-09T16:40:55Z</time>
      </trkpt>
      <trkpt lat="48.50399" lon="-4.25783">
        <ele>93</ele>
        <time>2018-10-09T16:41:00Z</time>
      </trkpt>
      <trkpt lat="48.50397" lon="-4.25775">
        <ele>93</ele>
        <time>2018-10-09T16:41:05Z</time>
      </trkpt>
      <trkpt lat="48.50398" lon="-4.25767">
        <ele>92</ele>
        <time>2018-10-09T16:41:10Z</time>
      </trkpt>
      <trkpt lat="48.50399" lon="-4.25757">
        <ele>92</ele>
        <time>2018-10-09T16:41:15Z</time>
      </trkpt>
      <trkpt lat="48.50399" lon="-4.25748">
        <ele>91</ele>
        <time>2018-10-09T16:41:20Z</time>
      </trkpt>
      <trkpt lat="48.504" lon="-4.25741">
        <ele>91</ele>
        <time>2018-10-09T16:41:25Z</time>
      </trkpt>
      <trkpt lat="48.50401" lon="-4.25734">
        <ele>91</ele>
        <time>2018-10-09T16:41:30Z</time>
      </trkpt>
      <trkpt lat="48.50402" lon="-4.25725">
        <ele>91</ele>
        <time>2018-10-09T16:41:35Z</time>
      </trkpt>
      <trkpt lat="48.50403" lon="-4.25717">
        <ele>90</ele>
        <time>2018-10-09T16:41:40Z</time>
      </trkpt>
      <trkpt lat="48.50405" lon="-4.2571">
        <ele>90</ele>
        <time>2018-10-09T16:41:45Z</time>
      </trkpt>
      <trkpt lat="48.50405" lon="-4.25704">
        <ele>90</ele>
        <time>2018-10-09T16:41:50Z</time>
      </trkpt>
      <trkpt lat="48.50406" lon="-4.25697">
        <ele>90</ele>
        <time>2018-10-09T16:41:55Z</time>
      </trkpt>
      <trkpt lat="48.5041" lon="-4.2569">
        <ele>90</ele>
        <time>2018-10-09T16:42:00Z</time>
      </trkpt>
      <trkpt lat="48.50411" lon="-4.25682">
        <ele>90</ele>
        <time>2018-10-09T16:42:05Z</time>
      </trkpt>
      <trkpt lat="48.50413" lon="-4.25674">
        <ele>90</ele>
        <time>2018-10-09T16:42:10Z</time>
      </trkpt>
      <trkpt lat="48.50414" lon="-4.25664">
        <ele>90</ele>
        <time>2018-10-09T16:42:15Z</time>
      </trkpt>
      <trkpt lat="48.50415" lon="-4.25655">
        <ele>90</ele>
        <time>2018-10-09T16:42:20Z</time>
      </trkpt>
      <trkpt lat="48.50417" lon="-4.25648">
        <ele>89</ele>
        <time>2018-10-09T16:42:25Z</time>
      </trkpt>
      <trkpt lat="48.50419" lon="-4.2564">
        <ele>89</ele>
        <time>2018-10-09T16:42:30Z</time>
      </trkpt>
      <trkpt lat="48.5042" lon="-4.25631">
        <ele>89</ele>
        <time>2018-10-09T16:42:35Z</time>
      </trkpt>
      <trkpt lat="48.50422" lon="-4.25623">
        <ele>89</ele>
        <time>2018-10-09T16:42:40Z</time>
      </trkpt>
      <trkpt lat="48.50424" lon="-4.25615">
        <ele>89</ele>
        <time>2018-10-09T16:42:45Z</time>
      </trkpt>
      <trkpt lat="48.50424" lon="-4.25608">
        <ele>89</ele>
        <time>2018-10-09T16:42:50Z</time>
      </trkpt>
      <trkpt lat="48.50423" lon="-4.25599">
        <ele>89</ele>
        <time>2018-10-09T16:42:55Z</time>
      </trkpt>
      <trkpt lat="48.50423" lon="-4.2559">
        <ele>90</ele>
        <time>2018-10-09T16:43:00Z</time>
      </trkpt>
      <trkpt lat="48.50422" lon="-4.25583">
        <ele>90</ele>
        <time>2018-10-09T16:43:05Z</time>
      </trkpt>
      <trkpt lat="48.5042" lon="-4.25576">
        <ele>90</ele>
        <time>2018-10-09T16:43:10Z</time>
      </trkpt>
      <trkpt lat="48.50418" lon="-4.2557">
        <ele>90</ele>
        <time>2018-10-09T16:43:15Z</time>
      </trkpt>
      <trkpt lat="48.50414" lon="-4.25564">
        <ele>91</ele>
        <time>2018-10-09T16:43:20Z</time>
      </trkpt>
      <trkpt lat="48.50411" lon="-4.25559">
        <ele>91</ele>
        <time>2018-10-09T16:43:25Z</time>
      </trkpt>
      <trkpt lat="48.50409" lon="-4.25553">
        <ele>91</ele>
        <time>2018-10-09T16:43:30Z</time>
      </trkpt>
      <trkpt lat="48.50408" lon="-4.25547">
        <ele>91</ele>
        <time>2018-10-09T16:43:35Z</time>
      </trkpt>
      <trkpt lat="48.50406" lon="-4.2554">
        <ele>91</ele>
        <time>2018-10-09T16:43:40Z</time>
      </trkpt>
      <trkpt lat="48.50404" lon="-4.25535">
        <ele>91</ele>
        <time>2018-10-09T16:43:45Z</time>
      </trkpt>
      <trkpt lat="48.50402" lon="-4.25528">
        <ele>91</ele>
        <time>2018-10-09T16:43:50Z</time>
      </trkpt>
      <trkpt lat="48.50398" lon="-4.25521">
        <ele>91</ele>
        <time>2018-10-09T16:43:55Z</time>
      </trkpt>
      <trkpt lat="48.50396" lon="-4.25516">
        <ele>91</ele>
        <time>2018-10-09T16:44:00Z</time>
      </trkpt>
      <trkpt lat="48.50395" lon="-4.25511">
        <ele>92</ele>
        <time>2018-10-09T16:44:05Z</time>
      </trkpt>
      <trkpt lat="48.50389" lon="-4.2551">
        <ele>92</ele>
        <time>2018-10-09T16:44:15Z</time>
      </trkpt>
      <trkpt lat="48.50384" lon="-4.2551">
        <ele>92</ele>
        <time>2018-10-09T16:44:20Z</time>
      </trkpt>
      <trkpt lat="48.50379" lon="-4.2551">
        <ele>92</ele>
        <time>2018-10-09T16:44:25Z</time>
      </trkpt>
      <trkpt lat="48.50375" lon="-4.25511">
        <ele>93</ele>
        <time>2018-10-09T16:44:30Z</time>
      </trkpt>
      <trkpt lat="48.50373" lon="-4.25514">
        <ele>93</ele>
        <time>2018-10-09T16:44:35Z</time>
      </trkpt>
      <trkpt lat="48.50373" lon="-4.25516">
        <ele>93</ele>
        <time>2018-10-09T16:44:40Z</time>
      </trkpt>
      <trkpt lat="48.50373" lon="-4.25517">
        <ele>93</ele>
        <time>2018-10-09T16:44:45Z</time>
      </trkpt>
      <trkpt lat="48.50373" lon="-4.25516">
        <ele>93</ele>
        <time>2018-10-09T16:45:05Z</time>
      </trkpt>
    </trkseg>
  </trk>
</gpx>